<?xml version="1.0" encoding="utf-8"?>
<gpx xmlns:xsi="http://www.w3.org/2001/XMLSchema-instance" xmlns:xsd="http://www.w3.org/2001/XMLSchema" version="1.1" creator="Shapelink.com" xmlns="http://www.topografix.com/GPX/1/1" xmlns:gpxtpx="http://www.garmin.com/xmlschemas/TrackPointExtension/v1">
  <metadata>
    <name>Längdskidåkning - Klassisk 19.04 km, 2011-02-26</name>
    <desc></desc>
    <author><name>Alexander Engvall</name></author> 
    <time>2011-02-26T10:52:01Z</time>
  </metadata>
  <trk>
    <name>Längdskidåkning - Klassisk 19.04 km, 2011-02-26</name>
    <trkseg>
      <trkpt lat="59.516693" lon="17.7703927">
        <ele>29.4575</ele>
        <time>2011-02-26T10:52:01Z</time>
      </trkpt>
      <trkpt lat="59.5166577" lon="17.770305">
        <ele>29.9381</ele>
        <time>2011-02-26T10:52:03Z</time>
      </trkpt>
      <trkpt lat="59.5165091" lon="17.7700569">
        <ele>27.5349</ele>
        <time>2011-02-26T10:52:08Z</time>
      </trkpt>
      <trkpt lat="59.5163932" lon="17.7697839">
        <ele>26.5736</ele>
        <time>2011-02-26T10:52:11Z</time>
      </trkpt>
      <trkpt lat="59.5162512" lon="17.7694964">
        <ele>24.651</ele>
        <time>2011-02-26T10:52:15Z</time>
      </trkpt>
      <trkpt lat="59.5161511" lon="17.7692397">
        <ele>21.767</ele>
        <time>2011-02-26T10:52:19Z</time>
      </trkpt>
      <trkpt lat="59.5160893" lon="17.7689519">
        <ele>20.325</ele>
        <time>2011-02-26T10:52:23Z</time>
      </trkpt>
      <trkpt lat="59.5160492" lon="17.7687242">
        <ele>17.9218</ele>
        <time>2011-02-26T10:52:26Z</time>
      </trkpt>
      <trkpt lat="59.515995" lon="17.7683872">
        <ele>15.0377</ele>
        <time>2011-02-26T10:52:31Z</time>
      </trkpt>
      <trkpt lat="59.5160399" lon="17.7681561">
        <ele>14.0764</ele>
        <time>2011-02-26T10:52:34Z</time>
      </trkpt>
      <trkpt lat="59.516193" lon="17.7677124">
        <ele>11.1925</ele>
        <time>2011-02-26T10:52:41Z</time>
      </trkpt>
      <trkpt lat="59.5163367" lon="17.7675403">
        <ele>10.7118</ele>
        <time>2011-02-26T10:52:44Z</time>
      </trkpt>
      <trkpt lat="59.5165794" lon="17.7673821">
        <ele>8.78918</ele>
        <time>2011-02-26T10:52:48Z</time>
      </trkpt>
      <trkpt lat="59.5167506" lon="17.7673318">
        <ele>7.34717</ele>
        <time>2011-02-26T10:52:51Z</time>
      </trkpt>
      <trkpt lat="59.5169644" lon="17.7674989">
        <ele>6.38586</ele>
        <time>2011-02-26T10:52:55Z</time>
      </trkpt>
      <trkpt lat="59.5170478" lon="17.7676041">
        <ele>5.42456</ele>
        <time>2011-02-26T10:52:57Z</time>
      </trkpt>
      <trkpt lat="59.5171509" lon="17.7678472">
        <ele>4.46326</ele>
        <time>2011-02-26T10:53:01Z</time>
      </trkpt>
      <trkpt lat="59.5173338" lon="17.7680723">
        <ele>2.06006</ele>
        <time>2011-02-26T10:53:07Z</time>
      </trkpt>
      <trkpt lat="59.5175322" lon="17.7682738">
        <ele>0.137451</ele>
        <time>2011-02-26T10:53:12Z</time>
      </trkpt>
      <trkpt lat="59.5175777" lon="17.7683359">
        <ele>0.137451</ele>
        <time>2011-02-26T10:53:13Z</time>
      </trkpt>
      <trkpt lat="59.5177288" lon="17.7685602">
        <ele>0.137451</ele>
        <time>2011-02-26T10:53:16Z</time>
      </trkpt>
      <trkpt lat="59.5178912" lon="17.7689408">
        <ele>0</ele>
        <time>2011-02-26T10:53:20Z</time>
      </trkpt>
      <trkpt lat="59.5179552" lon="17.7692983">
        <ele>0</ele>
        <time>2011-02-26T10:53:24Z</time>
      </trkpt>
      <trkpt lat="59.5180636" lon="17.7696145">
        <ele>2.54065</ele>
        <time>2011-02-26T10:53:29Z</time>
      </trkpt>
      <trkpt lat="59.518203" lon="17.7699609">
        <ele>6.38586</ele>
        <time>2011-02-26T10:53:34Z</time>
      </trkpt>
      <trkpt lat="59.5183483" lon="17.770169">
        <ele>10.2312</ele>
        <time>2011-02-26T10:53:37Z</time>
      </trkpt>
      <trkpt lat="59.5184191" lon="17.7703219">
        <ele>11.1925</ele>
        <time>2011-02-26T10:53:39Z</time>
      </trkpt>
      <trkpt lat="59.5184986" lon="17.7705709">
        <ele>12.1538</ele>
        <time>2011-02-26T10:53:43Z</time>
      </trkpt>
      <trkpt lat="59.5185266" lon="17.7706808">
        <ele>13.5958</ele>
        <time>2011-02-26T10:53:45Z</time>
      </trkpt>
      <trkpt lat="59.5185935" lon="17.771085">
        <ele>16.9604</ele>
        <time>2011-02-26T10:53:51Z</time>
      </trkpt>
      <trkpt lat="59.5186333" lon="17.7714163">
        <ele>18.4023</ele>
        <time>2011-02-26T10:53:56Z</time>
      </trkpt>
      <trkpt lat="59.5186734" lon="17.7717481">
        <ele>16.4797</ele>
        <time>2011-02-26T10:54:01Z</time>
      </trkpt>
      <trkpt lat="59.5187693" lon="17.7721051">
        <ele>15.0377</ele>
        <time>2011-02-26T10:54:06Z</time>
      </trkpt>
      <trkpt lat="59.5188638" lon="17.7724265">
        <ele>15.0377</ele>
        <time>2011-02-26T10:54:11Z</time>
      </trkpt>
      <trkpt lat="59.5189934" lon="17.7727675">
        <ele>14.557</ele>
        <time>2011-02-26T10:54:16Z</time>
      </trkpt>
      <trkpt lat="59.5190803" lon="17.7729974">
        <ele>13.5958</ele>
        <time>2011-02-26T10:54:19Z</time>
      </trkpt>
      <trkpt lat="59.5192614" lon="17.7733963">
        <ele>11.1925</ele>
        <time>2011-02-26T10:54:25Z</time>
      </trkpt>
      <trkpt lat="59.5193781" lon="17.7736766">
        <ele>9.75061</ele>
        <time>2011-02-26T10:54:29Z</time>
      </trkpt>
      <trkpt lat="59.5195064" lon="17.7740623">
        <ele>6.86646</ele>
        <time>2011-02-26T10:54:35Z</time>
      </trkpt>
      <trkpt lat="59.5195406" lon="17.7741851">
        <ele>4.94385</ele>
        <time>2011-02-26T10:54:37Z</time>
      </trkpt>
      <trkpt lat="59.5196783" lon="17.7744609">
        <ele>3.98267</ele>
        <time>2011-02-26T10:54:42Z</time>
      </trkpt>
      <trkpt lat="59.5197933" lon="17.7747473">
        <ele>4.46326</ele>
        <time>2011-02-26T10:54:47Z</time>
      </trkpt>
      <trkpt lat="59.5198521" lon="17.774953">
        <ele>4.94385</ele>
        <time>2011-02-26T10:54:51Z</time>
      </trkpt>
      <trkpt lat="59.5198916" lon="17.7751151">
        <ele>6.38586</ele>
        <time>2011-02-26T10:54:56Z</time>
      </trkpt>
      <trkpt lat="59.5199845" lon="17.775137">
        <ele>5.90527</ele>
        <time>2011-02-26T10:55:00Z</time>
      </trkpt>
      <trkpt lat="59.5201051" lon="17.7750414">
        <ele>3.98267</ele>
        <time>2011-02-26T10:55:04Z</time>
      </trkpt>
      <trkpt lat="59.5202003" lon="17.7748782">
        <ele>2.54065</ele>
        <time>2011-02-26T10:55:08Z</time>
      </trkpt>
      <trkpt lat="59.5203271" lon="17.7747665">
        <ele>2.54065</ele>
        <time>2011-02-26T10:55:12Z</time>
      </trkpt>
      <trkpt lat="59.5203901" lon="17.7747475">
        <ele>3.02124</ele>
        <time>2011-02-26T10:55:14Z</time>
      </trkpt>
      <trkpt lat="59.520521" lon="17.7749655">
        <ele>2.54065</ele>
        <time>2011-02-26T10:55:19Z</time>
      </trkpt>
      <trkpt lat="59.5205691" lon="17.7752944">
        <ele>2.54065</ele>
        <time>2011-02-26T10:55:24Z</time>
      </trkpt>
      <trkpt lat="59.5205972" lon="17.7755632">
        <ele>2.06006</ele>
        <time>2011-02-26T10:55:28Z</time>
      </trkpt>
      <trkpt lat="59.5206236" lon="17.7759727">
        <ele>1.09863</ele>
        <time>2011-02-26T10:55:33Z</time>
      </trkpt>
      <trkpt lat="59.5206307" lon="17.7763024">
        <ele>0</ele>
        <time>2011-02-26T10:55:37Z</time>
      </trkpt>
      <trkpt lat="59.5206536" lon="17.7764529">
        <ele>0</ele>
        <time>2011-02-26T10:55:39Z</time>
      </trkpt>
      <trkpt lat="59.5206651" lon="17.776534">
        <ele>0</ele>
        <time>2011-02-26T10:55:40Z</time>
      </trkpt>
      <trkpt lat="59.5207043" lon="17.7769111">
        <ele>0</ele>
        <time>2011-02-26T10:55:45Z</time>
      </trkpt>
      <trkpt lat="59.5207241" lon="17.777151">
        <ele>0</ele>
        <time>2011-02-26T10:55:48Z</time>
      </trkpt>
      <trkpt lat="59.5207317" lon="17.7775606">
        <ele>0</ele>
        <time>2011-02-26T10:55:53Z</time>
      </trkpt>
      <trkpt lat="59.5207377" lon="17.7777896">
        <ele>0</ele>
        <time>2011-02-26T10:55:56Z</time>
      </trkpt>
      <trkpt lat="59.5207681" lon="17.7781579">
        <ele>0</ele>
        <time>2011-02-26T10:56:01Z</time>
      </trkpt>
      <trkpt lat="59.5207692" lon="17.7784739">
        <ele>0</ele>
        <time>2011-02-26T10:56:05Z</time>
      </trkpt>
      <trkpt lat="59.5207786" lon="17.7788095">
        <ele>0.137451</ele>
        <time>2011-02-26T10:56:10Z</time>
      </trkpt>
      <trkpt lat="59.5208298" lon="17.7790583">
        <ele>0.618042</ele>
        <time>2011-02-26T10:56:14Z</time>
      </trkpt>
      <trkpt lat="59.5208781" lon="17.7794022">
        <ele>2.06006</ele>
        <time>2011-02-26T10:56:19Z</time>
      </trkpt>
      <trkpt lat="59.5209513" lon="17.7796839">
        <ele>3.02124</ele>
        <time>2011-02-26T10:56:23Z</time>
      </trkpt>
      <trkpt lat="59.5210339" lon="17.779973">
        <ele>3.98267</ele>
        <time>2011-02-26T10:56:27Z</time>
      </trkpt>
      <trkpt lat="59.5210689" lon="17.7800279">
        <ele>3.98267</ele>
        <time>2011-02-26T10:56:28Z</time>
      </trkpt>
      <trkpt lat="59.5212295" lon="17.7800907">
        <ele>3.50195</ele>
        <time>2011-02-26T10:56:32Z</time>
      </trkpt>
      <trkpt lat="59.5212643" lon="17.780072">
        <ele>2.54065</ele>
        <time>2011-02-26T10:56:33Z</time>
      </trkpt>
      <trkpt lat="59.5213772" lon="17.7800257">
        <ele>2.06006</ele>
        <time>2011-02-26T10:56:36Z</time>
      </trkpt>
      <trkpt lat="59.5215652" lon="17.7799584">
        <ele>2.54065</ele>
        <time>2011-02-26T10:56:41Z</time>
      </trkpt>
      <trkpt lat="59.5217278" lon="17.7799735">
        <ele>2.54065</ele>
        <time>2011-02-26T10:56:46Z</time>
      </trkpt>
      <trkpt lat="59.5218684" lon="17.7801772">
        <ele>0</ele>
        <time>2011-02-26T10:56:51Z</time>
      </trkpt>
      <trkpt lat="59.522011" lon="17.7803991">
        <ele>0</ele>
        <time>2011-02-26T10:56:55Z</time>
      </trkpt>
      <trkpt lat="59.5221237" lon="17.7804926">
        <ele>0</ele>
        <time>2011-02-26T10:56:58Z</time>
      </trkpt>
      <trkpt lat="59.5223183" lon="17.7805602">
        <ele>0</ele>
        <time>2011-02-26T10:57:03Z</time>
      </trkpt>
      <trkpt lat="59.5224901" lon="17.7805491">
        <ele>0</ele>
        <time>2011-02-26T10:57:08Z</time>
      </trkpt>
      <trkpt lat="59.5226346" lon="17.7805129">
        <ele>0</ele>
        <time>2011-02-26T10:57:13Z</time>
      </trkpt>
      <trkpt lat="59.5227811" lon="17.7804848">
        <ele>0</ele>
        <time>2011-02-26T10:57:18Z</time>
      </trkpt>
      <trkpt lat="59.5229505" lon="17.7804748">
        <ele>0</ele>
        <time>2011-02-26T10:57:23Z</time>
      </trkpt>
      <trkpt lat="59.523066" lon="17.7804631">
        <ele>0</ele>
        <time>2011-02-26T10:57:27Z</time>
      </trkpt>
      <trkpt lat="59.5231801" lon="17.7804469">
        <ele>0.137451</ele>
        <time>2011-02-26T10:57:31Z</time>
      </trkpt>
      <trkpt lat="59.5233086" lon="17.7804066">
        <ele>0.618042</ele>
        <time>2011-02-26T10:57:35Z</time>
      </trkpt>
      <trkpt lat="59.5234996" lon="17.7803031">
        <ele>0</ele>
        <time>2011-02-26T10:57:40Z</time>
      </trkpt>
      <trkpt lat="59.5236758" lon="17.7801786">
        <ele>0</ele>
        <time>2011-02-26T10:57:45Z</time>
      </trkpt>
      <trkpt lat="59.5237822" lon="17.7800552">
        <ele>0</ele>
        <time>2011-02-26T10:57:49Z</time>
      </trkpt>
      <trkpt lat="59.5239097" lon="17.7798806">
        <ele>0</ele>
        <time>2011-02-26T10:57:54Z</time>
      </trkpt>
      <trkpt lat="59.5240257" lon="17.779741">
        <ele>0</ele>
        <time>2011-02-26T10:57:59Z</time>
      </trkpt>
      <trkpt lat="59.5241281" lon="17.7796689">
        <ele>0</ele>
        <time>2011-02-26T10:58:04Z</time>
      </trkpt>
      <trkpt lat="59.5242129" lon="17.7796102">
        <ele>0</ele>
        <time>2011-02-26T10:58:08Z</time>
      </trkpt>
      <trkpt lat="59.5243308" lon="17.7794786">
        <ele>0</ele>
        <time>2011-02-26T10:58:13Z</time>
      </trkpt>
      <trkpt lat="59.5244288" lon="17.7794591">
        <ele>0</ele>
        <time>2011-02-26T10:58:17Z</time>
      </trkpt>
      <trkpt lat="59.5245951" lon="17.7794496">
        <ele>1.57935</ele>
        <time>2011-02-26T10:58:22Z</time>
      </trkpt>
      <trkpt lat="59.5248688" lon="17.7794203">
        <ele>2.06006</ele>
        <time>2011-02-26T10:58:28Z</time>
      </trkpt>
      <trkpt lat="59.5249419" lon="17.7793903">
        <ele>1.57935</ele>
        <time>2011-02-26T10:58:30Z</time>
      </trkpt>
      <trkpt lat="59.5251011" lon="17.7792911">
        <ele>0</ele>
        <time>2011-02-26T10:58:35Z</time>
      </trkpt>
      <trkpt lat="59.5252666" lon="17.7791552">
        <ele>0</ele>
        <time>2011-02-26T10:58:40Z</time>
      </trkpt>
      <trkpt lat="59.5253946" lon="17.7790437">
        <ele>0</ele>
        <time>2011-02-26T10:58:45Z</time>
      </trkpt>
      <trkpt lat="59.5255691" lon="17.7788991">
        <ele>0</ele>
        <time>2011-02-26T10:58:50Z</time>
      </trkpt>
      <trkpt lat="59.5257343" lon="17.7786533">
        <ele>0</ele>
        <time>2011-02-26T10:58:54Z</time>
      </trkpt>
      <trkpt lat="59.5259002" lon="17.7784374">
        <ele>0</ele>
        <time>2011-02-26T10:58:59Z</time>
      </trkpt>
      <trkpt lat="59.5259788" lon="17.7783131">
        <ele>0</ele>
        <time>2011-02-26T10:59:02Z</time>
      </trkpt>
      <trkpt lat="59.526086" lon="17.778087">
        <ele>0</ele>
        <time>2011-02-26T10:59:07Z</time>
      </trkpt>
      <trkpt lat="59.526114" lon="17.7780464">
        <ele>0</ele>
        <time>2011-02-26T10:59:08Z</time>
      </trkpt>
      <trkpt lat="59.5262056" lon="17.7778749">
        <ele>0</ele>
        <time>2011-02-26T10:59:12Z</time>
      </trkpt>
      <trkpt lat="59.5263011" lon="17.7777232">
        <ele>0</ele>
        <time>2011-02-26T10:59:16Z</time>
      </trkpt>
      <trkpt lat="59.5263783" lon="17.7775451">
        <ele>1.09863</ele>
        <time>2011-02-26T10:59:21Z</time>
      </trkpt>
      <trkpt lat="59.5264166" lon="17.7773616">
        <ele>2.54065</ele>
        <time>2011-02-26T10:59:26Z</time>
      </trkpt>
      <trkpt lat="59.5264591" lon="17.7772468">
        <ele>2.54065</ele>
        <time>2011-02-26T10:59:29Z</time>
      </trkpt>
      <trkpt lat="59.5265735" lon="17.7771018">
        <ele>3.02124</ele>
        <time>2011-02-26T10:59:35Z</time>
      </trkpt>
      <trkpt lat="59.5266703" lon="17.7770027">
        <ele>2.54065</ele>
        <time>2011-02-26T10:59:39Z</time>
      </trkpt>
      <trkpt lat="59.5268122" lon="17.7769274">
        <ele>3.02124</ele>
        <time>2011-02-26T10:59:43Z</time>
      </trkpt>
      <trkpt lat="59.5270827" lon="17.7768353">
        <ele>1.09863</ele>
        <time>2011-02-26T10:59:47Z</time>
      </trkpt>
      <trkpt lat="59.5273764" lon="17.7767852">
        <ele>1.09863</ele>
        <time>2011-02-26T10:59:51Z</time>
      </trkpt>
      <trkpt lat="59.5274432" lon="17.7767587">
        <ele>2.06006</ele>
        <time>2011-02-26T10:59:52Z</time>
      </trkpt>
      <trkpt lat="59.5275247" lon="17.7766662">
        <ele>0.137451</ele>
        <time>2011-02-26T10:59:54Z</time>
      </trkpt>
      <trkpt lat="59.5276218" lon="17.7766148">
        <ele>2.54065</ele>
        <time>2011-02-26T10:59:56Z</time>
      </trkpt>
      <trkpt lat="59.5278065" lon="17.7765073">
        <ele>2.54065</ele>
        <time>2011-02-26T11:00:01Z</time>
      </trkpt>
      <trkpt lat="59.5280128" lon="17.7764568">
        <ele>2.54065</ele>
        <time>2011-02-26T11:00:08Z</time>
      </trkpt>
      <trkpt lat="59.5280933" lon="17.7764428">
        <ele>3.98267</ele>
        <time>2011-02-26T11:00:12Z</time>
      </trkpt>
      <trkpt lat="59.5282109" lon="17.7764555">
        <ele>3.98267</ele>
        <time>2011-02-26T11:00:17Z</time>
      </trkpt>
      <trkpt lat="59.5283886" lon="17.7763916">
        <ele>3.02124</ele>
        <time>2011-02-26T11:00:22Z</time>
      </trkpt>
      <trkpt lat="59.5285181" lon="17.77629">
        <ele>3.02124</ele>
        <time>2011-02-26T11:00:26Z</time>
      </trkpt>
      <trkpt lat="59.5286894" lon="17.776233">
        <ele>0.618042</ele>
        <time>2011-02-26T11:00:30Z</time>
      </trkpt>
      <trkpt lat="59.5288459" lon="17.7761206">
        <ele>0.618042</ele>
        <time>2011-02-26T11:00:34Z</time>
      </trkpt>
      <trkpt lat="59.529001" lon="17.776052">
        <ele>2.54065</ele>
        <time>2011-02-26T11:00:39Z</time>
      </trkpt>
      <trkpt lat="59.5292293" lon="17.7758445">
        <ele>1.09863</ele>
        <time>2011-02-26T11:00:46Z</time>
      </trkpt>
      <trkpt lat="59.529412" lon="17.7756316">
        <ele>0</ele>
        <time>2011-02-26T11:00:51Z</time>
      </trkpt>
      <trkpt lat="59.5295366" lon="17.7754568">
        <ele>0.618042</ele>
        <time>2011-02-26T11:00:55Z</time>
      </trkpt>
      <trkpt lat="59.529622" lon="17.7753439">
        <ele>2.54065</ele>
        <time>2011-02-26T11:00:59Z</time>
      </trkpt>
      <trkpt lat="59.5297665" lon="17.7751545">
        <ele>2.54065</ele>
        <time>2011-02-26T11:01:03Z</time>
      </trkpt>
      <trkpt lat="59.5299207" lon="17.7749217">
        <ele>1.57935</ele>
        <time>2011-02-26T11:01:08Z</time>
      </trkpt>
      <trkpt lat="59.5300829" lon="17.7746322">
        <ele>2.06006</ele>
        <time>2011-02-26T11:01:14Z</time>
      </trkpt>
      <trkpt lat="59.5301673" lon="17.7744913">
        <ele>2.54065</ele>
        <time>2011-02-26T11:01:18Z</time>
      </trkpt>
      <trkpt lat="59.530271" lon="17.7743426">
        <ele>2.06006</ele>
        <time>2011-02-26T11:01:22Z</time>
      </trkpt>
      <trkpt lat="59.5304211" lon="17.774135">
        <ele>3.02124</ele>
        <time>2011-02-26T11:01:27Z</time>
      </trkpt>
      <trkpt lat="59.5305431" lon="17.7738929">
        <ele>3.98267</ele>
        <time>2011-02-26T11:01:32Z</time>
      </trkpt>
      <trkpt lat="59.5306538" lon="17.7737449">
        <ele>6.38586</ele>
        <time>2011-02-26T11:01:36Z</time>
      </trkpt>
      <trkpt lat="59.5307932" lon="17.7736031">
        <ele>6.38586</ele>
        <time>2011-02-26T11:01:41Z</time>
      </trkpt>
      <trkpt lat="59.5309098" lon="17.773457">
        <ele>6.86646</ele>
        <time>2011-02-26T11:01:45Z</time>
      </trkpt>
      <trkpt lat="59.5310188" lon="17.7732974">
        <ele>8.30859</ele>
        <time>2011-02-26T11:01:50Z</time>
      </trkpt>
      <trkpt lat="59.5311729" lon="17.7731524">
        <ele>12.1538</ele>
        <time>2011-02-26T11:01:56Z</time>
      </trkpt>
      <trkpt lat="59.531335" lon="17.7730726">
        <ele>12.6344</ele>
        <time>2011-02-26T11:02:00Z</time>
      </trkpt>
      <trkpt lat="59.5315251" lon="17.7729318">
        <ele>13.5958</ele>
        <time>2011-02-26T11:02:05Z</time>
      </trkpt>
      <trkpt lat="59.5316649" lon="17.7726586">
        <ele>12.6344</ele>
        <time>2011-02-26T11:02:11Z</time>
      </trkpt>
      <trkpt lat="59.5317163" lon="17.7724945">
        <ele>12.1538</ele>
        <time>2011-02-26T11:02:15Z</time>
      </trkpt>
      <trkpt lat="59.5317493" lon="17.7723263">
        <ele>12.6344</ele>
        <time>2011-02-26T11:02:20Z</time>
      </trkpt>
      <trkpt lat="59.531781" lon="17.7721894">
        <ele>12.1538</ele>
        <time>2011-02-26T11:02:24Z</time>
      </trkpt>
      <trkpt lat="59.5318228" lon="17.7719779">
        <ele>12.1538</ele>
        <time>2011-02-26T11:02:30Z</time>
      </trkpt>
      <trkpt lat="59.5318493" lon="17.7718715">
        <ele>11.6732</ele>
        <time>2011-02-26T11:02:33Z</time>
      </trkpt>
      <trkpt lat="59.5319029" lon="17.7716787">
        <ele>11.1925</ele>
        <time>2011-02-26T11:02:38Z</time>
      </trkpt>
      <trkpt lat="59.5319616" lon="17.7714449">
        <ele>11.1925</ele>
        <time>2011-02-26T11:02:43Z</time>
      </trkpt>
      <trkpt lat="59.5320217" lon="17.7712053">
        <ele>11.1925</ele>
        <time>2011-02-26T11:02:48Z</time>
      </trkpt>
      <trkpt lat="59.5320783" lon="17.7709809">
        <ele>12.6344</ele>
        <time>2011-02-26T11:02:53Z</time>
      </trkpt>
      <trkpt lat="59.5321344" lon="17.7707201">
        <ele>13.1151</ele>
        <time>2011-02-26T11:02:58Z</time>
      </trkpt>
      <trkpt lat="59.5321955" lon="17.7704727">
        <ele>13.1151</ele>
        <time>2011-02-26T11:03:03Z</time>
      </trkpt>
      <trkpt lat="59.5322688" lon="17.7702391">
        <ele>13.1151</ele>
        <time>2011-02-26T11:03:08Z</time>
      </trkpt>
      <trkpt lat="59.5323181" lon="17.7700779">
        <ele>13.1151</ele>
        <time>2011-02-26T11:03:13Z</time>
      </trkpt>
      <trkpt lat="59.5323264" lon="17.7700446">
        <ele>13.1151</ele>
        <time>2011-02-26T11:03:14Z</time>
      </trkpt>
      <trkpt lat="59.5323132" lon="17.769938">
        <ele>13.5958</ele>
        <time>2011-02-26T11:03:18Z</time>
      </trkpt>
      <trkpt lat="59.5322491" lon="17.7698247">
        <ele>14.0764</ele>
        <time>2011-02-26T11:03:24Z</time>
      </trkpt>
      <trkpt lat="59.5322188" lon="17.7698096">
        <ele>14.0764</ele>
        <time>2011-02-26T11:03:26Z</time>
      </trkpt>
      <trkpt lat="59.5320888" lon="17.7697982">
        <ele>15.5184</ele>
        <time>2011-02-26T11:03:32Z</time>
      </trkpt>
      <trkpt lat="59.5319922" lon="17.7698277">
        <ele>18.4023</ele>
        <time>2011-02-26T11:03:37Z</time>
      </trkpt>
      <trkpt lat="59.531891" lon="17.7698516">
        <ele>21.767</ele>
        <time>2011-02-26T11:03:41Z</time>
      </trkpt>
      <trkpt lat="59.5318002" lon="17.7698744">
        <ele>24.1703</ele>
        <time>2011-02-26T11:03:45Z</time>
      </trkpt>
      <trkpt lat="59.5317872" lon="17.7698618">
        <ele>25.1317</ele>
        <time>2011-02-26T11:03:46Z</time>
      </trkpt>
      <trkpt lat="59.5316957" lon="17.7698289">
        <ele>28.9769</ele>
        <time>2011-02-26T11:03:50Z</time>
      </trkpt>
      <trkpt lat="59.5316206" lon="17.7698005">
        <ele>31.8607</ele>
        <time>2011-02-26T11:03:54Z</time>
      </trkpt>
      <trkpt lat="59.5316064" lon="17.7697967">
        <ele>32.3416</ele>
        <time>2011-02-26T11:03:55Z</time>
      </trkpt>
      <trkpt lat="59.5315438" lon="17.7697598">
        <ele>34.7449</ele>
        <time>2011-02-26T11:03:59Z</time>
      </trkpt>
      <trkpt lat="59.5314386" lon="17.7697171">
        <ele>36.6675</ele>
        <time>2011-02-26T11:04:04Z</time>
      </trkpt>
      <trkpt lat="59.5313535" lon="17.7696957">
        <ele>37.6287</ele>
        <time>2011-02-26T11:04:08Z</time>
      </trkpt>
      <trkpt lat="59.5312593" lon="17.7696227">
        <ele>36.6675</ele>
        <time>2011-02-26T11:04:13Z</time>
      </trkpt>
      <trkpt lat="59.5311744" lon="17.7695812">
        <ele>35.2255</ele>
        <time>2011-02-26T11:04:17Z</time>
      </trkpt>
      <trkpt lat="59.5310655" lon="17.7695828">
        <ele>34.2642</ele>
        <time>2011-02-26T11:04:22Z</time>
      </trkpt>
      <trkpt lat="59.5309583" lon="17.7696002">
        <ele>33.7834</ele>
        <time>2011-02-26T11:04:27Z</time>
      </trkpt>
      <trkpt lat="59.5308558" lon="17.7696557">
        <ele>34.2642</ele>
        <time>2011-02-26T11:04:32Z</time>
      </trkpt>
      <trkpt lat="59.5307559" lon="17.7696537">
        <ele>34.7449</ele>
        <time>2011-02-26T11:04:37Z</time>
      </trkpt>
      <trkpt lat="59.5307169" lon="17.7695878">
        <ele>34.7449</ele>
        <time>2011-02-26T11:04:40Z</time>
      </trkpt>
      <trkpt lat="59.5306904" lon="17.7695211">
        <ele>34.2642</ele>
        <time>2011-02-26T11:04:42Z</time>
      </trkpt>
      <trkpt lat="59.530645" lon="17.7694553">
        <ele>33.7834</ele>
        <time>2011-02-26T11:04:44Z</time>
      </trkpt>
      <trkpt lat="59.5305626" lon="17.7692423">
        <ele>32.8223</ele>
        <time>2011-02-26T11:04:49Z</time>
      </trkpt>
      <trkpt lat="59.5305233" lon="17.7690433">
        <ele>32.8223</ele>
        <time>2011-02-26T11:04:53Z</time>
      </trkpt>
      <trkpt lat="59.5304716" lon="17.7688523">
        <ele>31.8607</ele>
        <time>2011-02-26T11:04:57Z</time>
      </trkpt>
      <trkpt lat="59.5304022" lon="17.7686875">
        <ele>31.3801</ele>
        <time>2011-02-26T11:05:01Z</time>
      </trkpt>
      <trkpt lat="59.5303142" lon="17.7685711">
        <ele>31.8607</ele>
        <time>2011-02-26T11:05:05Z</time>
      </trkpt>
      <trkpt lat="59.5302701" lon="17.7685098">
        <ele>31.8607</ele>
        <time>2011-02-26T11:05:07Z</time>
      </trkpt>
      <trkpt lat="59.5301385" lon="17.7683841">
        <ele>32.3416</ele>
        <time>2011-02-26T11:05:12Z</time>
      </trkpt>
      <trkpt lat="59.5300416" lon="17.7683003">
        <ele>31.3801</ele>
        <time>2011-02-26T11:05:15Z</time>
      </trkpt>
      <trkpt lat="59.5299944" lon="17.7682661">
        <ele>30.4188</ele>
        <time>2011-02-26T11:05:17Z</time>
      </trkpt>
      <trkpt lat="59.52995" lon="17.7682335">
        <ele>31.8607</ele>
        <time>2011-02-26T11:05:19Z</time>
      </trkpt>
      <trkpt lat="59.5298334" lon="17.7681469">
        <ele>32.8223</ele>
        <time>2011-02-26T11:05:24Z</time>
      </trkpt>
      <trkpt lat="59.5296723" lon="17.7679794">
        <ele>32.8223</ele>
        <time>2011-02-26T11:05:30Z</time>
      </trkpt>
      <trkpt lat="59.5296468" lon="17.7679586">
        <ele>32.8223</ele>
        <time>2011-02-26T11:05:31Z</time>
      </trkpt>
      <trkpt lat="59.5294805" lon="17.7678304">
        <ele>33.3029</ele>
        <time>2011-02-26T11:05:38Z</time>
      </trkpt>
      <trkpt lat="59.5294609" lon="17.7678112">
        <ele>33.3029</ele>
        <time>2011-02-26T11:05:39Z</time>
      </trkpt>
      <trkpt lat="59.5293277" lon="17.7677279">
        <ele>35.2255</ele>
        <time>2011-02-26T11:05:44Z</time>
      </trkpt>
      <trkpt lat="59.529255" lon="17.7676988">
        <ele>35.2255</ele>
        <time>2011-02-26T11:05:47Z</time>
      </trkpt>
      <trkpt lat="59.5290967" lon="17.7676714">
        <ele>36.1868</ele>
        <time>2011-02-26T11:05:52Z</time>
      </trkpt>
      <trkpt lat="59.5290307" lon="17.7676349">
        <ele>37.1481</ele>
        <time>2011-02-26T11:05:54Z</time>
      </trkpt>
      <trkpt lat="59.5288631" lon="17.7676129">
        <ele>39.5513</ele>
        <time>2011-02-26T11:05:59Z</time>
      </trkpt>
      <trkpt lat="59.5287389" lon="17.7676516">
        <ele>41.9547</ele>
        <time>2011-02-26T11:06:03Z</time>
      </trkpt>
      <trkpt lat="59.528574" lon="17.7676008">
        <ele>39.5513</ele>
        <time>2011-02-26T11:06:08Z</time>
      </trkpt>
      <trkpt lat="59.5284124" lon="17.7675137">
        <ele>36.6675</ele>
        <time>2011-02-26T11:06:13Z</time>
      </trkpt>
      <trkpt lat="59.5282838" lon="17.7674513">
        <ele>36.6675</ele>
        <time>2011-02-26T11:06:17Z</time>
      </trkpt>
      <trkpt lat="59.5281099" lon="17.7672303">
        <ele>34.2642</ele>
        <time>2011-02-26T11:06:22Z</time>
      </trkpt>
      <trkpt lat="59.5280058" lon="17.7670575">
        <ele>32.3416</ele>
        <time>2011-02-26T11:06:26Z</time>
      </trkpt>
      <trkpt lat="59.5278548" lon="17.7668874">
        <ele>29.4575</ele>
        <time>2011-02-26T11:06:31Z</time>
      </trkpt>
      <trkpt lat="59.5277139" lon="17.7668558">
        <ele>29.4575</ele>
        <time>2011-02-26T11:06:35Z</time>
      </trkpt>
      <trkpt lat="59.5275537" lon="17.7668371">
        <ele>28.0155</ele>
        <time>2011-02-26T11:06:39Z</time>
      </trkpt>
      <trkpt lat="59.5274256" lon="17.7667242">
        <ele>27.0543</ele>
        <time>2011-02-26T11:06:43Z</time>
      </trkpt>
      <trkpt lat="59.5273156" lon="17.7666389">
        <ele>25.6123</ele>
        <time>2011-02-26T11:06:47Z</time>
      </trkpt>
      <trkpt lat="59.5271942" lon="17.7666058">
        <ele>29.9381</ele>
        <time>2011-02-26T11:06:52Z</time>
      </trkpt>
      <trkpt lat="59.5271077" lon="17.7666162">
        <ele>33.7834</ele>
        <time>2011-02-26T11:06:56Z</time>
      </trkpt>
      <trkpt lat="59.5269563" lon="17.766613">
        <ele>36.1868</ele>
        <time>2011-02-26T11:07:02Z</time>
      </trkpt>
      <trkpt lat="59.5268293" lon="17.7665979">
        <ele>38.1094</ele>
        <time>2011-02-26T11:07:06Z</time>
      </trkpt>
      <trkpt lat="59.5267404" lon="17.7665522">
        <ele>38.5901</ele>
        <time>2011-02-26T11:07:10Z</time>
      </trkpt>
      <trkpt lat="59.5266264" lon="17.7663787">
        <ele>39.0707</ele>
        <time>2011-02-26T11:07:15Z</time>
      </trkpt>
      <trkpt lat="59.5266176" lon="17.7660976">
        <ele>39.5513</ele>
        <time>2011-02-26T11:07:20Z</time>
      </trkpt>
      <trkpt lat="59.5266264" lon="17.766042">
        <ele>40.0321</ele>
        <time>2011-02-26T11:07:21Z</time>
      </trkpt>
      <trkpt lat="59.526705" lon="17.7656055">
        <ele>39.5513</ele>
        <time>2011-02-26T11:07:26Z</time>
      </trkpt>
      <trkpt lat="59.5266981" lon="17.7653988">
        <ele>39.5513</ele>
        <time>2011-02-26T11:07:28Z</time>
      </trkpt>
      <trkpt lat="59.5267676" lon="17.7649932">
        <ele>39.0707</ele>
        <time>2011-02-26T11:07:32Z</time>
      </trkpt>
      <trkpt lat="59.5268927" lon="17.7645627">
        <ele>36.6675</ele>
        <time>2011-02-26T11:07:36Z</time>
      </trkpt>
      <trkpt lat="59.5271536" lon="17.7640654">
        <ele>36.6675</ele>
        <time>2011-02-26T11:07:42Z</time>
      </trkpt>
      <trkpt lat="59.527249" lon="17.7639356">
        <ele>35.7061</ele>
        <time>2011-02-26T11:07:44Z</time>
      </trkpt>
      <trkpt lat="59.5273241" lon="17.7635744">
        <ele>32.8223</ele>
        <time>2011-02-26T11:07:48Z</time>
      </trkpt>
      <trkpt lat="59.5273387" lon="17.7634647">
        <ele>31.8607</ele>
        <time>2011-02-26T11:07:49Z</time>
      </trkpt>
      <trkpt lat="59.5274566" lon="17.7629489">
        <ele>29.4575</ele>
        <time>2011-02-26T11:07:54Z</time>
      </trkpt>
      <trkpt lat="59.5275661" lon="17.7624774">
        <ele>29.9381</ele>
        <time>2011-02-26T11:07:59Z</time>
      </trkpt>
      <trkpt lat="59.5275935" lon="17.762294">
        <ele>28.0155</ele>
        <time>2011-02-26T11:08:01Z</time>
      </trkpt>
      <trkpt lat="59.5276147" lon="17.7618702">
        <ele>27.5349</ele>
        <time>2011-02-26T11:08:06Z</time>
      </trkpt>
      <trkpt lat="59.5275856" lon="17.7616361">
        <ele>25.6123</ele>
        <time>2011-02-26T11:08:10Z</time>
      </trkpt>
      <trkpt lat="59.5275787" lon="17.7613229">
        <ele>25.1317</ele>
        <time>2011-02-26T11:08:16Z</time>
      </trkpt>
      <trkpt lat="59.5275634" lon="17.7611521">
        <ele>25.1317</ele>
        <time>2011-02-26T11:08:20Z</time>
      </trkpt>
      <trkpt lat="59.5274865" lon="17.7610791">
        <ele>26.5736</ele>
        <time>2011-02-26T11:08:25Z</time>
      </trkpt>
      <trkpt lat="59.5274281" lon="17.7610807">
        <ele>27.5349</ele>
        <time>2011-02-26T11:08:27Z</time>
      </trkpt>
      <trkpt lat="59.5272643" lon="17.7609456">
        <ele>28.4962</ele>
        <time>2011-02-26T11:08:33Z</time>
      </trkpt>
      <trkpt lat="59.5271402" lon="17.7608888">
        <ele>30.8995</ele>
        <time>2011-02-26T11:08:38Z</time>
      </trkpt>
      <trkpt lat="59.5270286" lon="17.76086">
        <ele>31.8607</ele>
        <time>2011-02-26T11:08:43Z</time>
      </trkpt>
      <trkpt lat="59.5269009" lon="17.7607523">
        <ele>33.7834</ele>
        <time>2011-02-26T11:08:48Z</time>
      </trkpt>
      <trkpt lat="59.5267931" lon="17.7605894">
        <ele>35.2255</ele>
        <time>2011-02-26T11:08:53Z</time>
      </trkpt>
      <trkpt lat="59.5267435" lon="17.7604179">
        <ele>34.7449</ele>
        <time>2011-02-26T11:08:56Z</time>
      </trkpt>
      <trkpt lat="59.5266755" lon="17.7600631">
        <ele>34.7449</ele>
        <time>2011-02-26T11:09:00Z</time>
      </trkpt>
      <trkpt lat="59.5266209" lon="17.7598877">
        <ele>34.7449</ele>
        <time>2011-02-26T11:09:02Z</time>
      </trkpt>
      <trkpt lat="59.5265458" lon="17.759571">
        <ele>33.3029</ele>
        <time>2011-02-26T11:09:06Z</time>
      </trkpt>
      <trkpt lat="59.5264716" lon="17.7592168">
        <ele>31.8607</ele>
        <time>2011-02-26T11:09:10Z</time>
      </trkpt>
      <trkpt lat="59.5264097" lon="17.7588841">
        <ele>29.4575</ele>
        <time>2011-02-26T11:09:14Z</time>
      </trkpt>
      <trkpt lat="59.5262846" lon="17.7587138">
        <ele>28.4962</ele>
        <time>2011-02-26T11:09:19Z</time>
      </trkpt>
      <trkpt lat="59.5262176" lon="17.7586796">
        <ele>30.4188</ele>
        <time>2011-02-26T11:09:22Z</time>
      </trkpt>
      <trkpt lat="59.5260664" lon="17.7585353">
        <ele>28.0155</ele>
        <time>2011-02-26T11:09:29Z</time>
      </trkpt>
      <trkpt lat="59.5259844" lon="17.7584331">
        <ele>30.8995</ele>
        <time>2011-02-26T11:09:33Z</time>
      </trkpt>
      <trkpt lat="59.5258606" lon="17.7583566">
        <ele>31.8607</ele>
        <time>2011-02-26T11:09:38Z</time>
      </trkpt>
      <trkpt lat="59.5258104" lon="17.7582959">
        <ele>31.3801</ele>
        <time>2011-02-26T11:09:40Z</time>
      </trkpt>
      <trkpt lat="59.5257061" lon="17.7581861">
        <ele>31.3801</ele>
        <time>2011-02-26T11:09:45Z</time>
      </trkpt>
      <trkpt lat="59.5256261" lon="17.7579571">
        <ele>31.3801</ele>
        <time>2011-02-26T11:09:49Z</time>
      </trkpt>
      <trkpt lat="59.5255554" lon="17.7577171">
        <ele>30.4188</ele>
        <time>2011-02-26T11:09:53Z</time>
      </trkpt>
      <trkpt lat="59.5254634" lon="17.7574786">
        <ele>28.9769</ele>
        <time>2011-02-26T11:09:57Z</time>
      </trkpt>
      <trkpt lat="59.5253733" lon="17.7572069">
        <ele>28.9769</ele>
        <time>2011-02-26T11:10:01Z</time>
      </trkpt>
      <trkpt lat="59.5253475" lon="17.7571314">
        <ele>28.4962</ele>
        <time>2011-02-26T11:10:02Z</time>
      </trkpt>
      <trkpt lat="59.5252987" lon="17.7566728">
        <ele>30.8995</ele>
        <time>2011-02-26T11:10:07Z</time>
      </trkpt>
      <trkpt lat="59.5251508" lon="17.7565077">
        <ele>29.4575</ele>
        <time>2011-02-26T11:10:10Z</time>
      </trkpt>
      <trkpt lat="59.5250883" lon="17.7564692">
        <ele>28.4962</ele>
        <time>2011-02-26T11:10:11Z</time>
      </trkpt>
      <trkpt lat="59.5249704" lon="17.7564067">
        <ele>27.5349</ele>
        <time>2011-02-26T11:10:13Z</time>
      </trkpt>
      <trkpt lat="59.5247972" lon="17.7564983">
        <ele>26.0929</ele>
        <time>2011-02-26T11:10:17Z</time>
      </trkpt>
      <trkpt lat="59.5245796" lon="17.7566263">
        <ele>24.651</ele>
        <time>2011-02-26T11:10:22Z</time>
      </trkpt>
      <trkpt lat="59.5244285" lon="17.7568175">
        <ele>26.0929</ele>
        <time>2011-02-26T11:10:26Z</time>
      </trkpt>
      <trkpt lat="59.5243626" lon="17.7571178">
        <ele>28.0155</ele>
        <time>2011-02-26T11:10:31Z</time>
      </trkpt>
      <trkpt lat="59.5243967" lon="17.757291">
        <ele>30.4188</ele>
        <time>2011-02-26T11:10:34Z</time>
      </trkpt>
      <trkpt lat="59.5243999" lon="17.7573465">
        <ele>30.8995</ele>
        <time>2011-02-26T11:10:35Z</time>
      </trkpt>
      <trkpt lat="59.5244194" lon="17.7576285">
        <ele>28.9769</ele>
        <time>2011-02-26T11:10:40Z</time>
      </trkpt>
      <trkpt lat="59.5243782" lon="17.7578776">
        <ele>28.9769</ele>
        <time>2011-02-26T11:10:44Z</time>
      </trkpt>
      <trkpt lat="59.524329" lon="17.7581948">
        <ele>29.9381</ele>
        <time>2011-02-26T11:10:49Z</time>
      </trkpt>
      <trkpt lat="59.5242537" lon="17.7584959">
        <ele>28.9769</ele>
        <time>2011-02-26T11:10:54Z</time>
      </trkpt>
      <trkpt lat="59.5241979" lon="17.7587621">
        <ele>27.5349</ele>
        <time>2011-02-26T11:10:59Z</time>
      </trkpt>
      <trkpt lat="59.5241787" lon="17.7588408">
        <ele>28.4962</ele>
        <time>2011-02-26T11:11:01Z</time>
      </trkpt>
      <trkpt lat="59.5242197" lon="17.7591701">
        <ele>33.3029</ele>
        <time>2011-02-26T11:11:07Z</time>
      </trkpt>
      <trkpt lat="59.5242575" lon="17.7594097">
        <ele>35.7061</ele>
        <time>2011-02-26T11:11:11Z</time>
      </trkpt>
      <trkpt lat="59.5242508" lon="17.759637">
        <ele>35.7061</ele>
        <time>2011-02-26T11:11:15Z</time>
      </trkpt>
      <trkpt lat="59.5242384" lon="17.7597546">
        <ele>35.2255</ele>
        <time>2011-02-26T11:11:17Z</time>
      </trkpt>
      <trkpt lat="59.5242089" lon="17.7599829">
        <ele>36.1868</ele>
        <time>2011-02-26T11:11:21Z</time>
      </trkpt>
      <trkpt lat="59.5241754" lon="17.7602333">
        <ele>41.9547</ele>
        <time>2011-02-26T11:11:26Z</time>
      </trkpt>
      <trkpt lat="59.5241554" lon="17.7605659">
        <ele>44.358</ele>
        <time>2011-02-26T11:11:32Z</time>
      </trkpt>
      <trkpt lat="59.5241492" lon="17.7608098">
        <ele>40.5128</ele>
        <time>2011-02-26T11:11:36Z</time>
      </trkpt>
      <trkpt lat="59.5241343" lon="17.7612049">
        <ele>39.0707</ele>
        <time>2011-02-26T11:11:42Z</time>
      </trkpt>
      <trkpt lat="59.5241015" lon="17.761535">
        <ele>36.6675</ele>
        <time>2011-02-26T11:11:47Z</time>
      </trkpt>
      <trkpt lat="59.5240378" lon="17.7620037">
        <ele>36.1868</ele>
        <time>2011-02-26T11:11:53Z</time>
      </trkpt>
      <trkpt lat="59.5240001" lon="17.762157">
        <ele>34.2642</ele>
        <time>2011-02-26T11:11:55Z</time>
      </trkpt>
      <trkpt lat="59.5238887" lon="17.7624546">
        <ele>34.2642</ele>
        <time>2011-02-26T11:11:59Z</time>
      </trkpt>
      <trkpt lat="59.5238565" lon="17.7627979">
        <ele>33.7834</ele>
        <time>2011-02-26T11:12:05Z</time>
      </trkpt>
      <trkpt lat="59.523916" lon="17.7629878">
        <ele>32.8223</ele>
        <time>2011-02-26T11:12:08Z</time>
      </trkpt>
      <trkpt lat="59.5240799" lon="17.7634072">
        <ele>33.7834</ele>
        <time>2011-02-26T11:12:15Z</time>
      </trkpt>
      <trkpt lat="59.5241386" lon="17.7635956">
        <ele>33.3029</ele>
        <time>2011-02-26T11:12:19Z</time>
      </trkpt>
      <trkpt lat="59.5241922" lon="17.7638132">
        <ele>34.2642</ele>
        <time>2011-02-26T11:12:24Z</time>
      </trkpt>
      <trkpt lat="59.5242403" lon="17.7639679">
        <ele>36.1868</ele>
        <time>2011-02-26T11:12:27Z</time>
      </trkpt>
      <trkpt lat="59.5242637" lon="17.7643414">
        <ele>36.1868</ele>
        <time>2011-02-26T11:12:33Z</time>
      </trkpt>
      <trkpt lat="59.5242687" lon="17.7644885">
        <ele>36.1868</ele>
        <time>2011-02-26T11:12:35Z</time>
      </trkpt>
      <trkpt lat="59.5243347" lon="17.7647328">
        <ele>37.6287</ele>
        <time>2011-02-26T11:12:39Z</time>
      </trkpt>
      <trkpt lat="59.5244486" lon="17.7650954">
        <ele>35.2255</ele>
        <time>2011-02-26T11:12:45Z</time>
      </trkpt>
      <trkpt lat="59.524519" lon="17.7653843">
        <ele>34.2642</ele>
        <time>2011-02-26T11:12:50Z</time>
      </trkpt>
      <trkpt lat="59.5245766" lon="17.7655423">
        <ele>33.7834</ele>
        <time>2011-02-26T11:12:54Z</time>
      </trkpt>
      <trkpt lat="59.5246414" lon="17.7657187">
        <ele>34.2642</ele>
        <time>2011-02-26T11:12:58Z</time>
      </trkpt>
      <trkpt lat="59.5247024" lon="17.7658696">
        <ele>35.2255</ele>
        <time>2011-02-26T11:13:02Z</time>
      </trkpt>
      <trkpt lat="59.5247185" lon="17.7659192">
        <ele>35.2255</ele>
        <time>2011-02-26T11:13:03Z</time>
      </trkpt>
      <trkpt lat="59.5248087" lon="17.7661335">
        <ele>36.1868</ele>
        <time>2011-02-26T11:13:08Z</time>
      </trkpt>
      <trkpt lat="59.5248812" lon="17.7663904">
        <ele>37.1481</ele>
        <time>2011-02-26T11:13:13Z</time>
      </trkpt>
      <trkpt lat="59.5249356" lon="17.7665992">
        <ele>37.1481</ele>
        <time>2011-02-26T11:13:17Z</time>
      </trkpt>
      <trkpt lat="59.5249982" lon="17.7667646">
        <ele>37.1481</ele>
        <time>2011-02-26T11:13:21Z</time>
      </trkpt>
      <trkpt lat="59.5250733" lon="17.7668876">
        <ele>37.6287</ele>
        <time>2011-02-26T11:13:25Z</time>
      </trkpt>
      <trkpt lat="59.5251705" lon="17.7669689">
        <ele>36.6675</ele>
        <time>2011-02-26T11:13:30Z</time>
      </trkpt>
      <trkpt lat="59.5252899" lon="17.7670891">
        <ele>35.7061</ele>
        <time>2011-02-26T11:13:35Z</time>
      </trkpt>
      <trkpt lat="59.5253604" lon="17.7672562">
        <ele>35.2255</ele>
        <time>2011-02-26T11:13:39Z</time>
      </trkpt>
      <trkpt lat="59.5253935" lon="17.7674754">
        <ele>35.7061</ele>
        <time>2011-02-26T11:13:43Z</time>
      </trkpt>
      <trkpt lat="59.5254246" lon="17.7677386">
        <ele>37.6287</ele>
        <time>2011-02-26T11:13:47Z</time>
      </trkpt>
      <trkpt lat="59.5254583" lon="17.7679151">
        <ele>39.5513</ele>
        <time>2011-02-26T11:13:51Z</time>
      </trkpt>
      <trkpt lat="59.5255339" lon="17.7681261">
        <ele>41.474</ele>
        <time>2011-02-26T11:13:55Z</time>
      </trkpt>
      <trkpt lat="59.5254353" lon="17.7683328">
        <ele>42.916</ele>
        <time>2011-02-26T11:13:59Z</time>
      </trkpt>
      <trkpt lat="59.5253033" lon="17.7684523">
        <ele>41.474</ele>
        <time>2011-02-26T11:14:03Z</time>
      </trkpt>
      <trkpt lat="59.5251322" lon="17.7687043">
        <ele>37.6287</ele>
        <time>2011-02-26T11:14:07Z</time>
      </trkpt>
      <trkpt lat="59.5250977" lon="17.7687989">
        <ele>36.6675</ele>
        <time>2011-02-26T11:14:08Z</time>
      </trkpt>
      <trkpt lat="59.5249973" lon="17.769258">
        <ele>35.2255</ele>
        <time>2011-02-26T11:14:12Z</time>
      </trkpt>
      <trkpt lat="59.524933" lon="17.7695915">
        <ele>34.7449</ele>
        <time>2011-02-26T11:14:15Z</time>
      </trkpt>
      <trkpt lat="59.5249001" lon="17.7698836">
        <ele>32.8223</ele>
        <time>2011-02-26T11:14:18Z</time>
      </trkpt>
      <trkpt lat="59.5248211" lon="17.7703204">
        <ele>29.9381</ele>
        <time>2011-02-26T11:14:23Z</time>
      </trkpt>
      <trkpt lat="59.5246678" lon="17.7705436">
        <ele>29.9381</ele>
        <time>2011-02-26T11:14:27Z</time>
      </trkpt>
      <trkpt lat="59.5245547" lon="17.7705587">
        <ele>28.4962</ele>
        <time>2011-02-26T11:14:29Z</time>
      </trkpt>
      <trkpt lat="59.5242547" lon="17.770509">
        <ele>25.6123</ele>
        <time>2011-02-26T11:14:34Z</time>
      </trkpt>
      <trkpt lat="59.5241967" lon="17.7705226">
        <ele>24.1703</ele>
        <time>2011-02-26T11:14:35Z</time>
      </trkpt>
      <trkpt lat="59.5240492" lon="17.770739">
        <ele>19.3638</ele>
        <time>2011-02-26T11:14:39Z</time>
      </trkpt>
      <trkpt lat="59.5239746" lon="17.7710358">
        <ele>16.9604</ele>
        <time>2011-02-26T11:14:42Z</time>
      </trkpt>
      <trkpt lat="59.5239455" lon="17.7712487">
        <ele>15.5184</ele>
        <time>2011-02-26T11:14:44Z</time>
      </trkpt>
      <trkpt lat="59.5239062" lon="17.7717165">
        <ele>13.5958</ele>
        <time>2011-02-26T11:14:49Z</time>
      </trkpt>
      <trkpt lat="59.5239196" lon="17.7718899">
        <ele>13.5958</ele>
        <time>2011-02-26T11:14:51Z</time>
      </trkpt>
      <trkpt lat="59.5239304" lon="17.7720364">
        <ele>13.1151</ele>
        <time>2011-02-26T11:14:53Z</time>
      </trkpt>
      <trkpt lat="59.5238187" lon="17.7721853">
        <ele>11.6732</ele>
        <time>2011-02-26T11:14:57Z</time>
      </trkpt>
      <trkpt lat="59.5236089" lon="17.772264">
        <ele>10.7118</ele>
        <time>2011-02-26T11:15:02Z</time>
      </trkpt>
      <trkpt lat="59.5235272" lon="17.7723288">
        <ele>11.6732</ele>
        <time>2011-02-26T11:15:04Z</time>
      </trkpt>
      <trkpt lat="59.5234193" lon="17.772422">
        <ele>11.1925</ele>
        <time>2011-02-26T11:15:07Z</time>
      </trkpt>
      <trkpt lat="59.523313" lon="17.7724919">
        <ele>10.2312</ele>
        <time>2011-02-26T11:15:10Z</time>
      </trkpt>
      <trkpt lat="59.5231979" lon="17.7725651">
        <ele>10.2312</ele>
        <time>2011-02-26T11:15:13Z</time>
      </trkpt>
      <trkpt lat="59.5230012" lon="17.7726805">
        <ele>10.2312</ele>
        <time>2011-02-26T11:15:18Z</time>
      </trkpt>
      <trkpt lat="59.522866" lon="17.772773">
        <ele>9.2699</ele>
        <time>2011-02-26T11:15:22Z</time>
      </trkpt>
      <trkpt lat="59.5227703" lon="17.7728376">
        <ele>10.2312</ele>
        <time>2011-02-26T11:15:25Z</time>
      </trkpt>
      <trkpt lat="59.5226413" lon="17.772896">
        <ele>10.7118</ele>
        <time>2011-02-26T11:15:29Z</time>
      </trkpt>
      <trkpt lat="59.5224635" lon="17.773002">
        <ele>7.82788</ele>
        <time>2011-02-26T11:15:34Z</time>
      </trkpt>
      <trkpt lat="59.5222761" lon="17.7730942">
        <ele>5.42456</ele>
        <time>2011-02-26T11:15:38Z</time>
      </trkpt>
      <trkpt lat="59.5221977" lon="17.7731378">
        <ele>3.98267</ele>
        <time>2011-02-26T11:15:40Z</time>
      </trkpt>
      <trkpt lat="59.5221062" lon="17.7732002">
        <ele>2.54065</ele>
        <time>2011-02-26T11:15:43Z</time>
      </trkpt>
      <trkpt lat="59.5219956" lon="17.7732747">
        <ele>1.57935</ele>
        <time>2011-02-26T11:15:47Z</time>
      </trkpt>
      <trkpt lat="59.5218265" lon="17.7733656">
        <ele>0</ele>
        <time>2011-02-26T11:15:53Z</time>
      </trkpt>
      <trkpt lat="59.5216924" lon="17.7734302">
        <ele>0</ele>
        <time>2011-02-26T11:15:58Z</time>
      </trkpt>
      <trkpt lat="59.5215555" lon="17.7735331">
        <ele>0</ele>
        <time>2011-02-26T11:16:03Z</time>
      </trkpt>
      <trkpt lat="59.5214255" lon="17.7736134">
        <ele>0</ele>
        <time>2011-02-26T11:16:07Z</time>
      </trkpt>
      <trkpt lat="59.521394" lon="17.7736352">
        <ele>0</ele>
        <time>2011-02-26T11:16:08Z</time>
      </trkpt>
      <trkpt lat="59.5212197" lon="17.7737612">
        <ele>1.09863</ele>
        <time>2011-02-26T11:16:14Z</time>
      </trkpt>
      <trkpt lat="59.5211028" lon="17.7738697">
        <ele>1.57935</ele>
        <time>2011-02-26T11:16:19Z</time>
      </trkpt>
      <trkpt lat="59.5209867" lon="17.7740093">
        <ele>3.50195</ele>
        <time>2011-02-26T11:16:23Z</time>
      </trkpt>
      <trkpt lat="59.5208209" lon="17.7741848">
        <ele>3.98267</ele>
        <time>2011-02-26T11:16:28Z</time>
      </trkpt>
      <trkpt lat="59.5206764" lon="17.7743649">
        <ele>3.50195</ele>
        <time>2011-02-26T11:16:33Z</time>
      </trkpt>
      <trkpt lat="59.5205149" lon="17.7745469">
        <ele>4.46326</ele>
        <time>2011-02-26T11:16:39Z</time>
      </trkpt>
      <trkpt lat="59.5204271" lon="17.7746504">
        <ele>4.46326</ele>
        <time>2011-02-26T11:16:43Z</time>
      </trkpt>
      <trkpt lat="59.5204097" lon="17.7746675">
        <ele>4.46326</ele>
        <time>2011-02-26T11:16:44Z</time>
      </trkpt>
      <trkpt lat="59.5202867" lon="17.7748288">
        <ele>6.38586</ele>
        <time>2011-02-26T11:16:49Z</time>
      </trkpt>
      <trkpt lat="59.5201528" lon="17.7750332">
        <ele>4.94385</ele>
        <time>2011-02-26T11:16:54Z</time>
      </trkpt>
      <trkpt lat="59.5200418" lon="17.7751752">
        <ele>3.50195</ele>
        <time>2011-02-26T11:16:59Z</time>
      </trkpt>
      <trkpt lat="59.5198994" lon="17.775315">
        <ele>3.50195</ele>
        <time>2011-02-26T11:17:04Z</time>
      </trkpt>
      <trkpt lat="59.5197455" lon="17.7754955">
        <ele>3.98267</ele>
        <time>2011-02-26T11:17:10Z</time>
      </trkpt>
      <trkpt lat="59.5196382" lon="17.7756498">
        <ele>5.90527</ele>
        <time>2011-02-26T11:17:14Z</time>
      </trkpt>
      <trkpt lat="59.5195254" lon="17.7758262">
        <ele>7.34717</ele>
        <time>2011-02-26T11:17:19Z</time>
      </trkpt>
      <trkpt lat="59.5194378" lon="17.775962">
        <ele>8.30859</ele>
        <time>2011-02-26T11:17:23Z</time>
      </trkpt>
      <trkpt lat="59.5193183" lon="17.7761197">
        <ele>8.78918</ele>
        <time>2011-02-26T11:17:28Z</time>
      </trkpt>
      <trkpt lat="59.519223" lon="17.7762195">
        <ele>8.78918</ele>
        <time>2011-02-26T11:17:33Z</time>
      </trkpt>
      <trkpt lat="59.5191547" lon="17.7762977">
        <ele>10.7118</ele>
        <time>2011-02-26T11:17:38Z</time>
      </trkpt>
      <trkpt lat="59.5190665" lon="17.7763297">
        <ele>13.1151</ele>
        <time>2011-02-26T11:17:44Z</time>
      </trkpt>
      <trkpt lat="59.5189734" lon="17.7763558">
        <ele>15.5184</ele>
        <time>2011-02-26T11:17:48Z</time>
      </trkpt>
      <trkpt lat="59.5188628" lon="17.7763423">
        <ele>17.9218</ele>
        <time>2011-02-26T11:17:53Z</time>
      </trkpt>
      <trkpt lat="59.5187615" lon="17.7763237">
        <ele>18.4023</ele>
        <time>2011-02-26T11:17:58Z</time>
      </trkpt>
      <trkpt lat="59.5186774" lon="17.7763453">
        <ele>20.8057</ele>
        <time>2011-02-26T11:18:03Z</time>
      </trkpt>
      <trkpt lat="59.5185805" lon="17.776346">
        <ele>21.2864</ele>
        <time>2011-02-26T11:18:08Z</time>
      </trkpt>
      <trkpt lat="59.5185053" lon="17.7763076">
        <ele>20.8057</ele>
        <time>2011-02-26T11:18:12Z</time>
      </trkpt>
      <trkpt lat="59.5183972" lon="17.7762422">
        <ele>21.2864</ele>
        <time>2011-02-26T11:18:18Z</time>
      </trkpt>
      <trkpt lat="59.5183085" lon="17.7762097">
        <ele>20.8057</ele>
        <time>2011-02-26T11:18:22Z</time>
      </trkpt>
      <trkpt lat="59.518215" lon="17.7761232">
        <ele>22.2476</ele>
        <time>2011-02-26T11:18:27Z</time>
      </trkpt>
      <trkpt lat="59.5181601" lon="17.7760389">
        <ele>23.6896</ele>
        <time>2011-02-26T11:18:32Z</time>
      </trkpt>
      <trkpt lat="59.5180994" lon="17.7759429">
        <ele>25.1317</ele>
        <time>2011-02-26T11:18:37Z</time>
      </trkpt>
      <trkpt lat="59.518046" lon="17.7758246">
        <ele>27.5349</ele>
        <time>2011-02-26T11:18:43Z</time>
      </trkpt>
      <trkpt lat="59.5180404" lon="17.7758051">
        <ele>27.0543</ele>
        <time>2011-02-26T11:18:44Z</time>
      </trkpt>
      <trkpt lat="59.5179621" lon="17.7756917">
        <ele>26.0929</ele>
        <time>2011-02-26T11:18:50Z</time>
      </trkpt>
      <trkpt lat="59.5179329" lon="17.775639">
        <ele>25.6123</ele>
        <time>2011-02-26T11:18:51Z</time>
      </trkpt>
      <trkpt lat="59.5177702" lon="17.7754141">
        <ele>24.651</ele>
        <time>2011-02-26T11:18:55Z</time>
      </trkpt>
      <trkpt lat="59.5176309" lon="17.7752306">
        <ele>24.651</ele>
        <time>2011-02-26T11:18:59Z</time>
      </trkpt>
      <trkpt lat="59.5175316" lon="17.7750039">
        <ele>24.1703</ele>
        <time>2011-02-26T11:19:03Z</time>
      </trkpt>
      <trkpt lat="59.5175048" lon="17.7745703">
        <ele>21.767</ele>
        <time>2011-02-26T11:19:09Z</time>
      </trkpt>
      <trkpt lat="59.5175066" lon="17.7744822">
        <ele>21.2864</ele>
        <time>2011-02-26T11:19:10Z</time>
      </trkpt>
      <trkpt lat="59.5175108" lon="17.7740116">
        <ele>19.3638</ele>
        <time>2011-02-26T11:19:14Z</time>
      </trkpt>
      <trkpt lat="59.5174865" lon="17.7735531">
        <ele>16.4797</ele>
        <time>2011-02-26T11:19:18Z</time>
      </trkpt>
      <trkpt lat="59.5174963" lon="17.7732166">
        <ele>15.999</ele>
        <time>2011-02-26T11:19:21Z</time>
      </trkpt>
      <trkpt lat="59.5175226" lon="17.772821">
        <ele>18.4023</ele>
        <time>2011-02-26T11:19:25Z</time>
      </trkpt>
      <trkpt lat="59.5175409" lon="17.7725271">
        <ele>18.4023</ele>
        <time>2011-02-26T11:19:31Z</time>
      </trkpt>
      <trkpt lat="59.5175353" lon="17.7723824">
        <ele>18.8831</ele>
        <time>2011-02-26T11:19:35Z</time>
      </trkpt>
      <trkpt lat="59.5175482" lon="17.7721638">
        <ele>20.325</ele>
        <time>2011-02-26T11:19:40Z</time>
      </trkpt>
      <trkpt lat="59.5175492" lon="17.7718552">
        <ele>22.7283</ele>
        <time>2011-02-26T11:19:46Z</time>
      </trkpt>
      <trkpt lat="59.5175337" lon="17.7716211">
        <ele>23.209</ele>
        <time>2011-02-26T11:19:50Z</time>
      </trkpt>
      <trkpt lat="59.517527" lon="17.771329">
        <ele>26.0929</ele>
        <time>2011-02-26T11:19:55Z</time>
      </trkpt>
      <trkpt lat="59.5174989" lon="17.7711114">
        <ele>26.5736</ele>
        <time>2011-02-26T11:20:00Z</time>
      </trkpt>
      <trkpt lat="59.5174658" lon="17.7709534">
        <ele>27.0543</ele>
        <time>2011-02-26T11:20:05Z</time>
      </trkpt>
      <trkpt lat="59.5173004" lon="17.7708063">
        <ele>29.9381</ele>
        <time>2011-02-26T11:20:11Z</time>
      </trkpt>
      <trkpt lat="59.5171432" lon="17.7707959">
        <ele>32.3416</ele>
        <time>2011-02-26T11:20:16Z</time>
      </trkpt>
      <trkpt lat="59.5170381" lon="17.7707904">
        <ele>31.8607</ele>
        <time>2011-02-26T11:20:20Z</time>
      </trkpt>
      <trkpt lat="59.5169447" lon="17.7707395">
        <ele>30.4188</ele>
        <time>2011-02-26T11:20:25Z</time>
      </trkpt>
      <trkpt lat="59.5168157" lon="17.7706298">
        <ele>29.4575</ele>
        <time>2011-02-26T11:20:29Z</time>
      </trkpt>
      <trkpt lat="59.5167039" lon="17.7705504">
        <ele>28.9769</ele>
        <time>2011-02-26T11:20:32Z</time>
      </trkpt>
      <trkpt lat="59.5166796" lon="17.7705394">
        <ele>29.9381</ele>
        <time>2011-02-26T11:20:34Z</time>
      </trkpt>
      <trkpt lat="59.5166707" lon="17.770308">
        <ele>26.0929</ele>
        <time>2011-02-26T11:28:36Z</time>
      </trkpt>
      <trkpt lat="59.5165969" lon="17.770108">
        <ele>25.1317</ele>
        <time>2011-02-26T11:28:40Z</time>
      </trkpt>
      <trkpt lat="59.5164854" lon="17.7698418">
        <ele>26.0929</ele>
        <time>2011-02-26T11:28:44Z</time>
      </trkpt>
      <trkpt lat="59.5163526" lon="17.7695945">
        <ele>22.7283</ele>
        <time>2011-02-26T11:28:48Z</time>
      </trkpt>
      <trkpt lat="59.5162965" lon="17.7694823">
        <ele>22.2476</ele>
        <time>2011-02-26T11:28:50Z</time>
      </trkpt>
      <trkpt lat="59.5161827" lon="17.7692308">
        <ele>21.2864</ele>
        <time>2011-02-26T11:28:54Z</time>
      </trkpt>
      <trkpt lat="59.5160879" lon="17.7689501">
        <ele>21.767</ele>
        <time>2011-02-26T11:28:59Z</time>
      </trkpt>
      <trkpt lat="59.5160527" lon="17.7686421">
        <ele>21.2864</ele>
        <time>2011-02-26T11:29:04Z</time>
      </trkpt>
      <trkpt lat="59.5160743" lon="17.7682753">
        <ele>19.8444</ele>
        <time>2011-02-26T11:29:09Z</time>
      </trkpt>
      <trkpt lat="59.5161512" lon="17.767969">
        <ele>19.3638</ele>
        <time>2011-02-26T11:29:13Z</time>
      </trkpt>
      <trkpt lat="59.5161898" lon="17.7678112">
        <ele>18.4023</ele>
        <time>2011-02-26T11:29:15Z</time>
      </trkpt>
      <trkpt lat="59.5163615" lon="17.7675326">
        <ele>15.999</ele>
        <time>2011-02-26T11:29:19Z</time>
      </trkpt>
      <trkpt lat="59.5166128" lon="17.7673779">
        <ele>13.5958</ele>
        <time>2011-02-26T11:29:23Z</time>
      </trkpt>
      <trkpt lat="59.5168519" lon="17.7673761">
        <ele>11.6732</ele>
        <time>2011-02-26T11:29:27Z</time>
      </trkpt>
      <trkpt lat="59.5169499" lon="17.7674807">
        <ele>10.7118</ele>
        <time>2011-02-26T11:29:29Z</time>
      </trkpt>
      <trkpt lat="59.5170318" lon="17.7675942">
        <ele>9.75061</ele>
        <time>2011-02-26T11:29:31Z</time>
      </trkpt>
      <trkpt lat="59.5171072" lon="17.767725">
        <ele>8.78918</ele>
        <time>2011-02-26T11:29:33Z</time>
      </trkpt>
      <trkpt lat="59.5172084" lon="17.7678603">
        <ele>7.82788</ele>
        <time>2011-02-26T11:29:36Z</time>
      </trkpt>
      <trkpt lat="59.5173708" lon="17.7680358">
        <ele>6.38586</ele>
        <time>2011-02-26T11:29:41Z</time>
      </trkpt>
      <trkpt lat="59.5175532" lon="17.7681674">
        <ele>6.86646</ele>
        <time>2011-02-26T11:29:45Z</time>
      </trkpt>
      <trkpt lat="59.5176006" lon="17.7682282">
        <ele>6.86646</ele>
        <time>2011-02-26T11:29:46Z</time>
      </trkpt>
      <trkpt lat="59.5177058" lon="17.7683725">
        <ele>8.30859</ele>
        <time>2011-02-26T11:29:48Z</time>
      </trkpt>
      <trkpt lat="59.5179661" lon="17.7689169">
        <ele>11.1925</ele>
        <time>2011-02-26T11:29:53Z</time>
      </trkpt>
      <trkpt lat="59.5180025" lon="17.7693409">
        <ele>11.1925</ele>
        <time>2011-02-26T11:29:57Z</time>
      </trkpt>
      <trkpt lat="59.5181046" lon="17.769599">
        <ele>12.1538</ele>
        <time>2011-02-26T11:30:01Z</time>
      </trkpt>
      <trkpt lat="59.5182386" lon="17.7697749">
        <ele>12.1538</ele>
        <time>2011-02-26T11:30:04Z</time>
      </trkpt>
      <trkpt lat="59.5183708" lon="17.770192">
        <ele>8.30859</ele>
        <time>2011-02-26T11:30:09Z</time>
      </trkpt>
      <trkpt lat="59.5183874" lon="17.7702878">
        <ele>7.82788</ele>
        <time>2011-02-26T11:30:10Z</time>
      </trkpt>
      <trkpt lat="59.518478" lon="17.770673">
        <ele>7.34717</ele>
        <time>2011-02-26T11:30:15Z</time>
      </trkpt>
      <trkpt lat="59.5185282" lon="17.7709503">
        <ele>7.34717</ele>
        <time>2011-02-26T11:30:19Z</time>
      </trkpt>
      <trkpt lat="59.5185873" lon="17.7713493">
        <ele>9.75061</ele>
        <time>2011-02-26T11:30:25Z</time>
      </trkpt>
      <trkpt lat="59.518598" lon="17.7717591">
        <ele>9.75061</ele>
        <time>2011-02-26T11:30:30Z</time>
      </trkpt>
      <trkpt lat="59.5186201" lon="17.7719113">
        <ele>9.75061</ele>
        <time>2011-02-26T11:30:32Z</time>
      </trkpt>
      <trkpt lat="59.5187323" lon="17.7722308">
        <ele>10.2312</ele>
        <time>2011-02-26T11:30:36Z</time>
      </trkpt>
      <trkpt lat="59.518764" lon="17.7722995">
        <ele>9.75061</ele>
        <time>2011-02-26T11:30:37Z</time>
      </trkpt>
      <trkpt lat="59.5188698" lon="17.7725126">
        <ele>8.30859</ele>
        <time>2011-02-26T11:30:40Z</time>
      </trkpt>
      <trkpt lat="59.5189316" lon="17.772665">
        <ele>6.86646</ele>
        <time>2011-02-26T11:30:42Z</time>
      </trkpt>
      <trkpt lat="59.519055" lon="17.7729311">
        <ele>4.94385</ele>
        <time>2011-02-26T11:30:46Z</time>
      </trkpt>
      <trkpt lat="59.519153" lon="17.7732507">
        <ele>4.46326</ele>
        <time>2011-02-26T11:30:50Z</time>
      </trkpt>
      <trkpt lat="59.5192794" lon="17.7735599">
        <ele>3.02124</ele>
        <time>2011-02-26T11:30:54Z</time>
      </trkpt>
      <trkpt lat="59.5193805" lon="17.7737761">
        <ele>1.57935</ele>
        <time>2011-02-26T11:30:57Z</time>
      </trkpt>
      <trkpt lat="59.5195532" lon="17.7740924">
        <ele>0</ele>
        <time>2011-02-26T11:31:02Z</time>
      </trkpt>
      <trkpt lat="59.519615" lon="17.7742103">
        <ele>0</ele>
        <time>2011-02-26T11:31:04Z</time>
      </trkpt>
      <trkpt lat="59.5197746" lon="17.7746286">
        <ele>0</ele>
        <time>2011-02-26T11:31:10Z</time>
      </trkpt>
      <trkpt lat="59.5198548" lon="17.7749174">
        <ele>0</ele>
        <time>2011-02-26T11:31:14Z</time>
      </trkpt>
      <trkpt lat="59.5199417" lon="17.7751746">
        <ele>0</ele>
        <time>2011-02-26T11:31:20Z</time>
      </trkpt>
      <trkpt lat="59.5200645" lon="17.7751569">
        <ele>0</ele>
        <time>2011-02-26T11:31:24Z</time>
      </trkpt>
      <trkpt lat="59.5200963" lon="17.7751162">
        <ele>0</ele>
        <time>2011-02-26T11:31:25Z</time>
      </trkpt>
      <trkpt lat="59.5202582" lon="17.774786">
        <ele>0.137451</ele>
        <time>2011-02-26T11:31:31Z</time>
      </trkpt>
      <trkpt lat="59.5203552" lon="17.7747036">
        <ele>0.137451</ele>
        <time>2011-02-26T11:31:34Z</time>
      </trkpt>
      <trkpt lat="59.5205093" lon="17.7748908">
        <ele>0.137451</ele>
        <time>2011-02-26T11:31:39Z</time>
      </trkpt>
      <trkpt lat="59.5205485" lon="17.7751429">
        <ele>0</ele>
        <time>2011-02-26T11:31:43Z</time>
      </trkpt>
      <trkpt lat="59.5205502" lon="17.77531">
        <ele>0.137451</ele>
        <time>2011-02-26T11:31:45Z</time>
      </trkpt>
      <trkpt lat="59.5205598" lon="17.7757396">
        <ele>0</ele>
        <time>2011-02-26T11:31:50Z</time>
      </trkpt>
      <trkpt lat="59.5205668" lon="17.7758176">
        <ele>0</ele>
        <time>2011-02-26T11:31:51Z</time>
      </trkpt>
      <trkpt lat="59.5205827" lon="17.7760673">
        <ele>0</ele>
        <time>2011-02-26T11:31:54Z</time>
      </trkpt>
      <trkpt lat="59.5205936" lon="17.7764006">
        <ele>0</ele>
        <time>2011-02-26T11:31:58Z</time>
      </trkpt>
      <trkpt lat="59.5206365" lon="17.7767215">
        <ele>0</ele>
        <time>2011-02-26T11:32:02Z</time>
      </trkpt>
      <trkpt lat="59.5206603" lon="17.7768852">
        <ele>0</ele>
        <time>2011-02-26T11:32:04Z</time>
      </trkpt>
      <trkpt lat="59.5206796" lon="17.7771489">
        <ele>0</ele>
        <time>2011-02-26T11:32:07Z</time>
      </trkpt>
      <trkpt lat="59.5207001" lon="17.7777087">
        <ele>0</ele>
        <time>2011-02-26T11:32:14Z</time>
      </trkpt>
      <trkpt lat="59.5207023" lon="17.7777881">
        <ele>0</ele>
        <time>2011-02-26T11:32:15Z</time>
      </trkpt>
      <trkpt lat="59.5207156" lon="17.7780204">
        <ele>0</ele>
        <time>2011-02-26T11:32:18Z</time>
      </trkpt>
      <trkpt lat="59.5207299" lon="17.7784178">
        <ele>0</ele>
        <time>2011-02-26T11:32:23Z</time>
      </trkpt>
      <trkpt lat="59.520753" lon="17.7786795">
        <ele>0</ele>
        <time>2011-02-26T11:32:27Z</time>
      </trkpt>
      <trkpt lat="59.5207894" lon="17.7789127">
        <ele>0</ele>
        <time>2011-02-26T11:32:31Z</time>
      </trkpt>
      <trkpt lat="59.5208267" lon="17.7791262">
        <ele>0</ele>
        <time>2011-02-26T11:32:35Z</time>
      </trkpt>
      <trkpt lat="59.5208935" lon="17.7794002">
        <ele>0</ele>
        <time>2011-02-26T11:32:39Z</time>
      </trkpt>
      <trkpt lat="59.5209589" lon="17.7796955">
        <ele>0</ele>
        <time>2011-02-26T11:32:43Z</time>
      </trkpt>
      <trkpt lat="59.5210489" lon="17.7799916">
        <ele>0</ele>
        <time>2011-02-26T11:32:47Z</time>
      </trkpt>
      <trkpt lat="59.5212292" lon="17.7800982">
        <ele>0</ele>
        <time>2011-02-26T11:32:52Z</time>
      </trkpt>
      <trkpt lat="59.5213021" lon="17.7800571">
        <ele>0</ele>
        <time>2011-02-26T11:32:54Z</time>
      </trkpt>
      <trkpt lat="59.5215986" lon="17.7799659">
        <ele>0</ele>
        <time>2011-02-26T11:33:02Z</time>
      </trkpt>
      <trkpt lat="59.5217488" lon="17.7800567">
        <ele>0</ele>
        <time>2011-02-26T11:33:06Z</time>
      </trkpt>
      <trkpt lat="59.5218885" lon="17.7802305">
        <ele>0</ele>
        <time>2011-02-26T11:33:10Z</time>
      </trkpt>
      <trkpt lat="59.522003" lon="17.7803465">
        <ele>0</ele>
        <time>2011-02-26T11:33:13Z</time>
      </trkpt>
      <trkpt lat="59.5222174" lon="17.7805175">
        <ele>0</ele>
        <time>2011-02-26T11:33:18Z</time>
      </trkpt>
      <trkpt lat="59.522302" lon="17.7805438">
        <ele>0</ele>
        <time>2011-02-26T11:33:20Z</time>
      </trkpt>
      <trkpt lat="59.5224822" lon="17.7805199">
        <ele>0</ele>
        <time>2011-02-26T11:33:25Z</time>
      </trkpt>
      <trkpt lat="59.5226288" lon="17.7804865">
        <ele>0</ele>
        <time>2011-02-26T11:33:30Z</time>
      </trkpt>
      <trkpt lat="59.5227812" lon="17.7804522">
        <ele>0</ele>
        <time>2011-02-26T11:33:35Z</time>
      </trkpt>
      <trkpt lat="59.5229235" lon="17.780447">
        <ele>0</ele>
        <time>2011-02-26T11:33:39Z</time>
      </trkpt>
      <trkpt lat="59.52305" lon="17.7804647">
        <ele>0</ele>
        <time>2011-02-26T11:33:43Z</time>
      </trkpt>
      <trkpt lat="59.5232047" lon="17.7804504">
        <ele>0</ele>
        <time>2011-02-26T11:33:48Z</time>
      </trkpt>
      <trkpt lat="59.5233514" lon="17.7803797">
        <ele>0</ele>
        <time>2011-02-26T11:33:53Z</time>
      </trkpt>
      <trkpt lat="59.5234847" lon="17.7802547">
        <ele>0</ele>
        <time>2011-02-26T11:33:58Z</time>
      </trkpt>
      <trkpt lat="59.5236286" lon="17.7801011">
        <ele>0</ele>
        <time>2011-02-26T11:34:03Z</time>
      </trkpt>
      <trkpt lat="59.5237648" lon="17.7799571">
        <ele>0</ele>
        <time>2011-02-26T11:34:08Z</time>
      </trkpt>
      <trkpt lat="59.5238995" lon="17.779813">
        <ele>0</ele>
        <time>2011-02-26T11:34:13Z</time>
      </trkpt>
      <trkpt lat="59.5240112" lon="17.7797266">
        <ele>0</ele>
        <time>2011-02-26T11:34:17Z</time>
      </trkpt>
      <trkpt lat="59.5241376" lon="17.7796347">
        <ele>0</ele>
        <time>2011-02-26T11:34:22Z</time>
      </trkpt>
      <trkpt lat="59.5242218" lon="17.7795689">
        <ele>0</ele>
        <time>2011-02-26T11:34:26Z</time>
      </trkpt>
      <trkpt lat="59.5243783" lon="17.7794242">
        <ele>0</ele>
        <time>2011-02-26T11:34:33Z</time>
      </trkpt>
      <trkpt lat="59.5245225" lon="17.7793712">
        <ele>0</ele>
        <time>2011-02-26T11:34:37Z</time>
      </trkpt>
      <trkpt lat="59.5245653" lon="17.7793556">
        <ele>0</ele>
        <time>2011-02-26T11:34:38Z</time>
      </trkpt>
      <trkpt lat="59.5247817" lon="17.7793089">
        <ele>0</ele>
        <time>2011-02-26T11:34:43Z</time>
      </trkpt>
      <trkpt lat="59.5248818" lon="17.7792681">
        <ele>0</ele>
        <time>2011-02-26T11:34:46Z</time>
      </trkpt>
      <trkpt lat="59.5250759" lon="17.7791573">
        <ele>0</ele>
        <time>2011-02-26T11:34:51Z</time>
      </trkpt>
      <trkpt lat="59.5252492" lon="17.7790934">
        <ele>0</ele>
        <time>2011-02-26T11:34:56Z</time>
      </trkpt>
      <trkpt lat="59.5254316" lon="17.7789608">
        <ele>0</ele>
        <time>2011-02-26T11:35:02Z</time>
      </trkpt>
      <trkpt lat="59.5256207" lon="17.7787558">
        <ele>0</ele>
        <time>2011-02-26T11:35:07Z</time>
      </trkpt>
      <trkpt lat="59.5257317" lon="17.7786164">
        <ele>0</ele>
        <time>2011-02-26T11:35:10Z</time>
      </trkpt>
      <trkpt lat="59.5258757" lon="17.7784155">
        <ele>0</ele>
        <time>2011-02-26T11:35:14Z</time>
      </trkpt>
      <trkpt lat="59.5259995" lon="17.778205">
        <ele>0</ele>
        <time>2011-02-26T11:35:19Z</time>
      </trkpt>
      <trkpt lat="59.5260864" lon="17.7780472">
        <ele>0</ele>
        <time>2011-02-26T11:35:23Z</time>
      </trkpt>
      <trkpt lat="59.526167" lon="17.7778688">
        <ele>0</ele>
        <time>2011-02-26T11:35:27Z</time>
      </trkpt>
      <trkpt lat="59.5262633" lon="17.7776923">
        <ele>0</ele>
        <time>2011-02-26T11:35:32Z</time>
      </trkpt>
      <trkpt lat="59.5263614" lon="17.7775534">
        <ele>0</ele>
        <time>2011-02-26T11:35:36Z</time>
      </trkpt>
      <trkpt lat="59.526416" lon="17.7773714">
        <ele>0</ele>
        <time>2011-02-26T11:35:41Z</time>
      </trkpt>
      <trkpt lat="59.5264721" lon="17.7771919">
        <ele>0</ele>
        <time>2011-02-26T11:35:45Z</time>
      </trkpt>
      <trkpt lat="59.526592" lon="17.7770048">
        <ele>0</ele>
        <time>2011-02-26T11:35:51Z</time>
      </trkpt>
      <trkpt lat="59.5267377" lon="17.7768748">
        <ele>0</ele>
        <time>2011-02-26T11:35:55Z</time>
      </trkpt>
      <trkpt lat="59.526921" lon="17.7767339">
        <ele>0</ele>
        <time>2011-02-26T11:36:00Z</time>
      </trkpt>
      <trkpt lat="59.5269753" lon="17.7767396">
        <ele>0</ele>
        <time>2011-02-26T11:36:01Z</time>
      </trkpt>
      <trkpt lat="59.5272149" lon="17.7767402">
        <ele>0</ele>
        <time>2011-02-26T11:36:05Z</time>
      </trkpt>
      <trkpt lat="59.5273795" lon="17.7766724">
        <ele>0</ele>
        <time>2011-02-26T11:36:08Z</time>
      </trkpt>
      <trkpt lat="59.5275572" lon="17.7765838">
        <ele>0</ele>
        <time>2011-02-26T11:36:12Z</time>
      </trkpt>
      <trkpt lat="59.527766" lon="17.7764495">
        <ele>0</ele>
        <time>2011-02-26T11:36:17Z</time>
      </trkpt>
      <trkpt lat="59.5279426" lon="17.7763872">
        <ele>0</ele>
        <time>2011-02-26T11:36:21Z</time>
      </trkpt>
      <trkpt lat="59.5280802" lon="17.7763698">
        <ele>0</ele>
        <time>2011-02-26T11:36:24Z</time>
      </trkpt>
      <trkpt lat="59.5282279" lon="17.7764029">
        <ele>0</ele>
        <time>2011-02-26T11:36:28Z</time>
      </trkpt>
      <trkpt lat="59.528358" lon="17.7763716">
        <ele>0</ele>
        <time>2011-02-26T11:36:31Z</time>
      </trkpt>
      <trkpt lat="59.5284834" lon="17.7763017">
        <ele>0</ele>
        <time>2011-02-26T11:36:35Z</time>
      </trkpt>
      <trkpt lat="59.528729" lon="17.7761974">
        <ele>0</ele>
        <time>2011-02-26T11:36:41Z</time>
      </trkpt>
      <trkpt lat="59.5288531" lon="17.7760709">
        <ele>0</ele>
        <time>2011-02-26T11:36:45Z</time>
      </trkpt>
      <trkpt lat="59.5289558" lon="17.775994">
        <ele>0</ele>
        <time>2011-02-26T11:36:49Z</time>
      </trkpt>
      <trkpt lat="59.5290589" lon="17.7758958">
        <ele>0</ele>
        <time>2011-02-26T11:36:53Z</time>
      </trkpt>
      <trkpt lat="59.5292043" lon="17.7757461">
        <ele>0</ele>
        <time>2011-02-26T11:36:58Z</time>
      </trkpt>
      <trkpt lat="59.5293739" lon="17.7755663">
        <ele>0</ele>
        <time>2011-02-26T11:37:03Z</time>
      </trkpt>
      <trkpt lat="59.5294894" lon="17.7753782">
        <ele>0</ele>
        <time>2011-02-26T11:37:08Z</time>
      </trkpt>
      <trkpt lat="59.5296071" lon="17.7752172">
        <ele>0</ele>
        <time>2011-02-26T11:37:12Z</time>
      </trkpt>
      <trkpt lat="59.5297515" lon="17.7750474">
        <ele>0</ele>
        <time>2011-02-26T11:37:16Z</time>
      </trkpt>
      <trkpt lat="59.5298924" lon="17.7748473">
        <ele>0</ele>
        <time>2011-02-26T11:37:21Z</time>
      </trkpt>
      <trkpt lat="59.5300301" lon="17.7746345">
        <ele>0</ele>
        <time>2011-02-26T11:37:26Z</time>
      </trkpt>
      <trkpt lat="59.5301587" lon="17.7744376">
        <ele>0</ele>
        <time>2011-02-26T11:37:31Z</time>
      </trkpt>
      <trkpt lat="59.53026" lon="17.774264">
        <ele>0</ele>
        <time>2011-02-26T11:37:36Z</time>
      </trkpt>
      <trkpt lat="59.5303441" lon="17.7741173">
        <ele>0</ele>
        <time>2011-02-26T11:37:40Z</time>
      </trkpt>
      <trkpt lat="59.5304327" lon="17.7739585">
        <ele>0</ele>
        <time>2011-02-26T11:37:44Z</time>
      </trkpt>
      <trkpt lat="59.5305283" lon="17.7737813">
        <ele>0</ele>
        <time>2011-02-26T11:37:49Z</time>
      </trkpt>
      <trkpt lat="59.5306466" lon="17.7736479">
        <ele>0</ele>
        <time>2011-02-26T11:37:54Z</time>
      </trkpt>
      <trkpt lat="59.5307916" lon="17.7734922">
        <ele>0</ele>
        <time>2011-02-26T11:37:59Z</time>
      </trkpt>
      <trkpt lat="59.5308564" lon="17.7733917">
        <ele>0</ele>
        <time>2011-02-26T11:38:02Z</time>
      </trkpt>
      <trkpt lat="59.5309859" lon="17.7732335">
        <ele>0</ele>
        <time>2011-02-26T11:38:08Z</time>
      </trkpt>
      <trkpt lat="59.5311587" lon="17.7731223">
        <ele>0.137451</ele>
        <time>2011-02-26T11:38:13Z</time>
      </trkpt>
      <trkpt lat="59.5314174" lon="17.7730105">
        <ele>3.02124</ele>
        <time>2011-02-26T11:38:19Z</time>
      </trkpt>
      <trkpt lat="59.5315481" lon="17.7728596">
        <ele>3.98267</ele>
        <time>2011-02-26T11:38:24Z</time>
      </trkpt>
      <trkpt lat="59.5316236" lon="17.7726846">
        <ele>4.46326</ele>
        <time>2011-02-26T11:38:28Z</time>
      </trkpt>
      <trkpt lat="59.5316975" lon="17.7725145">
        <ele>4.46326</ele>
        <time>2011-02-26T11:38:33Z</time>
      </trkpt>
      <trkpt lat="59.5317368" lon="17.7724665">
        <ele>4.46326</ele>
        <time>2011-02-26T11:38:35Z</time>
      </trkpt>
      <trkpt lat="59.5317803" lon="17.772319">
        <ele>4.94385</ele>
        <time>2011-02-26T11:38:39Z</time>
      </trkpt>
      <trkpt lat="59.5318416" lon="17.772069">
        <ele>5.42456</ele>
        <time>2011-02-26T11:38:46Z</time>
      </trkpt>
      <trkpt lat="59.531876" lon="17.7718703">
        <ele>4.46326</ele>
        <time>2011-02-26T11:38:52Z</time>
      </trkpt>
      <trkpt lat="59.5319173" lon="17.7717383">
        <ele>3.98267</ele>
        <time>2011-02-26T11:38:56Z</time>
      </trkpt>
      <trkpt lat="59.5319442" lon="17.7715477">
        <ele>4.46326</ele>
        <time>2011-02-26T11:39:00Z</time>
      </trkpt>
      <trkpt lat="59.5319685" lon="17.7713843">
        <ele>3.98267</ele>
        <time>2011-02-26T11:39:04Z</time>
      </trkpt>
      <trkpt lat="59.5320029" lon="17.7712074">
        <ele>3.02124</ele>
        <time>2011-02-26T11:39:08Z</time>
      </trkpt>
      <trkpt lat="59.5320157" lon="17.7711766">
        <ele>3.02124</ele>
        <time>2011-02-26T11:39:09Z</time>
      </trkpt>
      <trkpt lat="59.5320717" lon="17.7709575">
        <ele>3.50195</ele>
        <time>2011-02-26T11:39:14Z</time>
      </trkpt>
      <trkpt lat="59.5321437" lon="17.770717">
        <ele>3.50195</ele>
        <time>2011-02-26T11:39:19Z</time>
      </trkpt>
      <trkpt lat="59.5321829" lon="17.7705876">
        <ele>3.50195</ele>
        <time>2011-02-26T11:39:22Z</time>
      </trkpt>
      <trkpt lat="59.5322566" lon="17.7703562">
        <ele>3.50195</ele>
        <time>2011-02-26T11:39:27Z</time>
      </trkpt>
      <trkpt lat="59.5323191" lon="17.7701921">
        <ele>4.94385</ele>
        <time>2011-02-26T11:39:32Z</time>
      </trkpt>
      <trkpt lat="59.5323506" lon="17.7700193">
        <ele>7.82788</ele>
        <time>2011-02-26T11:39:38Z</time>
      </trkpt>
      <trkpt lat="59.5323483" lon="17.7699878">
        <ele>8.30859</ele>
        <time>2011-02-26T11:39:39Z</time>
      </trkpt>
      <trkpt lat="59.5323109" lon="17.7698832">
        <ele>10.2312</ele>
        <time>2011-02-26T11:39:44Z</time>
      </trkpt>
      <trkpt lat="59.5322409" lon="17.7698154">
        <ele>12.1538</ele>
        <time>2011-02-26T11:39:49Z</time>
      </trkpt>
      <trkpt lat="59.5321317" lon="17.7697843">
        <ele>14.0764</ele>
        <time>2011-02-26T11:39:56Z</time>
      </trkpt>
      <trkpt lat="59.532059" lon="17.769792">
        <ele>15.5184</ele>
        <time>2011-02-26T11:40:00Z</time>
      </trkpt>
      <trkpt lat="59.5319544" lon="17.7697899">
        <ele>16.4797</ele>
        <time>2011-02-26T11:40:04Z</time>
      </trkpt>
      <trkpt lat="59.5318638" lon="17.7697722">
        <ele>17.9218</ele>
        <time>2011-02-26T11:40:09Z</time>
      </trkpt>
      <trkpt lat="59.5317967" lon="17.7697739">
        <ele>19.8444</ele>
        <time>2011-02-26T11:40:12Z</time>
      </trkpt>
      <trkpt lat="59.5316977" lon="17.7697251">
        <ele>22.2476</ele>
        <time>2011-02-26T11:40:18Z</time>
      </trkpt>
      <trkpt lat="59.5316242" lon="17.7696784">
        <ele>23.6896</ele>
        <time>2011-02-26T11:40:23Z</time>
      </trkpt>
      <trkpt lat="59.5315272" lon="17.7696408">
        <ele>25.6123</ele>
        <time>2011-02-26T11:40:28Z</time>
      </trkpt>
      <trkpt lat="59.5314433" lon="17.7696223">
        <ele>26.5736</ele>
        <time>2011-02-26T11:40:32Z</time>
      </trkpt>
      <trkpt lat="59.531362" lon="17.7695744">
        <ele>27.0543</ele>
        <time>2011-02-26T11:40:37Z</time>
      </trkpt>
      <trkpt lat="59.5312496" lon="17.7695269">
        <ele>28.0155</ele>
        <time>2011-02-26T11:40:43Z</time>
      </trkpt>
      <trkpt lat="59.5311733" lon="17.7695242">
        <ele>28.9769</ele>
        <time>2011-02-26T11:40:47Z</time>
      </trkpt>
      <trkpt lat="59.5310484" lon="17.7695294">
        <ele>29.9381</ele>
        <time>2011-02-26T11:40:53Z</time>
      </trkpt>
      <trkpt lat="59.5309339" lon="17.7695898">
        <ele>31.3801</ele>
        <time>2011-02-26T11:40:58Z</time>
      </trkpt>
      <trkpt lat="59.5307954" lon="17.7696319">
        <ele>31.8607</ele>
        <time>2011-02-26T11:41:04Z</time>
      </trkpt>
      <trkpt lat="59.5306953" lon="17.769515">
        <ele>32.3416</ele>
        <time>2011-02-26T11:41:10Z</time>
      </trkpt>
      <trkpt lat="59.5306229" lon="17.7693554">
        <ele>31.8607</ele>
        <time>2011-02-26T11:41:15Z</time>
      </trkpt>
      <trkpt lat="59.5305648" lon="17.7691663">
        <ele>31.3801</ele>
        <time>2011-02-26T11:41:20Z</time>
      </trkpt>
      <trkpt lat="59.5305219" lon="17.7689781">
        <ele>31.3801</ele>
        <time>2011-02-26T11:41:24Z</time>
      </trkpt>
      <trkpt lat="59.5304564" lon="17.7687695">
        <ele>30.8995</ele>
        <time>2011-02-26T11:41:29Z</time>
      </trkpt>
      <trkpt lat="59.5303677" lon="17.7686027">
        <ele>29.4575</ele>
        <time>2011-02-26T11:41:34Z</time>
      </trkpt>
      <trkpt lat="59.5302218" lon="17.7684898">
        <ele>28.0155</ele>
        <time>2011-02-26T11:41:40Z</time>
      </trkpt>
      <trkpt lat="59.5301092" lon="17.7684109">
        <ele>28.0155</ele>
        <time>2011-02-26T11:41:44Z</time>
      </trkpt>
      <trkpt lat="59.5300224" lon="17.7682912">
        <ele>28.4962</ele>
        <time>2011-02-26T11:41:48Z</time>
      </trkpt>
      <trkpt lat="59.5299224" lon="17.7681785">
        <ele>28.0155</ele>
        <time>2011-02-26T11:41:53Z</time>
      </trkpt>
      <trkpt lat="59.5298147" lon="17.7681119">
        <ele>27.0543</ele>
        <time>2011-02-26T11:41:57Z</time>
      </trkpt>
      <trkpt lat="59.5297245" lon="17.7680329">
        <ele>24.651</ele>
        <time>2011-02-26T11:42:01Z</time>
      </trkpt>
      <trkpt lat="59.5296158" lon="17.7679209">
        <ele>22.7283</ele>
        <time>2011-02-26T11:42:06Z</time>
      </trkpt>
      <trkpt lat="59.529541" lon="17.7678103">
        <ele>19.8444</ele>
        <time>2011-02-26T11:42:10Z</time>
      </trkpt>
      <trkpt lat="59.529522" lon="17.7677894">
        <ele>18.8831</ele>
        <time>2011-02-26T11:42:11Z</time>
      </trkpt>
      <trkpt lat="59.5294065" lon="17.767812">
        <ele>15.999</ele>
        <time>2011-02-26T11:42:16Z</time>
      </trkpt>
      <trkpt lat="59.529379" lon="17.7677982">
        <ele>15.999</ele>
        <time>2011-02-26T11:42:17Z</time>
      </trkpt>
      <trkpt lat="59.5291909" lon="17.767764">
        <ele>16.9604</ele>
        <time>2011-02-26T11:42:23Z</time>
      </trkpt>
      <trkpt lat="59.5290141" lon="17.7676625">
        <ele>19.3638</ele>
        <time>2011-02-26T11:42:28Z</time>
      </trkpt>
      <trkpt lat="59.5289411" lon="17.7675854">
        <ele>21.767</ele>
        <time>2011-02-26T11:42:30Z</time>
      </trkpt>
      <trkpt lat="59.5287945" lon="17.7675587">
        <ele>25.6123</ele>
        <time>2011-02-26T11:42:35Z</time>
      </trkpt>
      <trkpt lat="59.5287166" lon="17.7675048">
        <ele>26.5736</ele>
        <time>2011-02-26T11:42:38Z</time>
      </trkpt>
      <trkpt lat="59.5286445" lon="17.7674758">
        <ele>26.5736</ele>
        <time>2011-02-26T11:42:41Z</time>
      </trkpt>
      <trkpt lat="59.5285941" lon="17.7674621">
        <ele>26.5736</ele>
        <time>2011-02-26T11:42:43Z</time>
      </trkpt>
      <trkpt lat="59.5285217" lon="17.7674595">
        <ele>27.5349</ele>
        <time>2011-02-26T11:42:46Z</time>
      </trkpt>
      <trkpt lat="59.5284358" lon="17.7674085">
        <ele>27.0543</ele>
        <time>2011-02-26T11:42:50Z</time>
      </trkpt>
      <trkpt lat="59.5283469" lon="17.7673049">
        <ele>28.4962</ele>
        <time>2011-02-26T11:42:53Z</time>
      </trkpt>
      <trkpt lat="59.5282283" lon="17.7671574">
        <ele>30.4188</ele>
        <time>2011-02-26T11:42:57Z</time>
      </trkpt>
      <trkpt lat="59.5281066" lon="17.7669612">
        <ele>31.3801</ele>
        <time>2011-02-26T11:43:01Z</time>
      </trkpt>
      <trkpt lat="59.5280793" lon="17.7669172">
        <ele>31.8607</ele>
        <time>2011-02-26T11:43:02Z</time>
      </trkpt>
      <trkpt lat="59.5279142" lon="17.766815">
        <ele>32.3416</ele>
        <time>2011-02-26T11:43:08Z</time>
      </trkpt>
      <trkpt lat="59.5278383" lon="17.7668222">
        <ele>31.8607</ele>
        <time>2011-02-26T11:43:10Z</time>
      </trkpt>
      <trkpt lat="59.5276537" lon="17.766754">
        <ele>33.3029</ele>
        <time>2011-02-26T11:43:15Z</time>
      </trkpt>
      <trkpt lat="59.5275141" lon="17.7666985">
        <ele>32.8223</ele>
        <time>2011-02-26T11:43:19Z</time>
      </trkpt>
      <trkpt lat="59.527371" lon="17.7666278">
        <ele>33.7834</ele>
        <time>2011-02-26T11:43:23Z</time>
      </trkpt>
      <trkpt lat="59.5272405" lon="17.7665659">
        <ele>33.3029</ele>
        <time>2011-02-26T11:43:27Z</time>
      </trkpt>
      <trkpt lat="59.5270571" lon="17.7665726">
        <ele>33.7834</ele>
        <time>2011-02-26T11:43:33Z</time>
      </trkpt>
      <trkpt lat="59.5269051" lon="17.7665524">
        <ele>35.7061</ele>
        <time>2011-02-26T11:43:38Z</time>
      </trkpt>
      <trkpt lat="59.5268102" lon="17.7665453">
        <ele>35.2255</ele>
        <time>2011-02-26T11:43:41Z</time>
      </trkpt>
      <trkpt lat="59.5266956" lon="17.7665271">
        <ele>36.1868</ele>
        <time>2011-02-26T11:43:46Z</time>
      </trkpt>
      <trkpt lat="59.5266418" lon="17.766326">
        <ele>37.1481</ele>
        <time>2011-02-26T11:43:51Z</time>
      </trkpt>
      <trkpt lat="59.5267121" lon="17.7658945">
        <ele>37.6287</ele>
        <time>2011-02-26T11:43:56Z</time>
      </trkpt>
      <trkpt lat="59.5267159" lon="17.7656673">
        <ele>36.6675</ele>
        <time>2011-02-26T11:43:58Z</time>
      </trkpt>
      <trkpt lat="59.5267646" lon="17.7651137">
        <ele>34.2642</ele>
        <time>2011-02-26T11:44:03Z</time>
      </trkpt>
      <trkpt lat="59.5268273" lon="17.7649125">
        <ele>33.3029</ele>
        <time>2011-02-26T11:44:05Z</time>
      </trkpt>
      <trkpt lat="59.5269152" lon="17.7645855">
        <ele>32.3416</ele>
        <time>2011-02-26T11:44:08Z</time>
      </trkpt>
      <trkpt lat="59.5270977" lon="17.7641204">
        <ele>32.8223</ele>
        <time>2011-02-26T11:44:13Z</time>
      </trkpt>
      <trkpt lat="59.5271669" lon="17.7639563">
        <ele>31.8607</ele>
        <time>2011-02-26T11:44:15Z</time>
      </trkpt>
      <trkpt lat="59.5272721" lon="17.7634998">
        <ele>31.3801</ele>
        <time>2011-02-26T11:44:20Z</time>
      </trkpt>
      <trkpt lat="59.5273925" lon="17.7631356">
        <ele>29.4575</ele>
        <time>2011-02-26T11:44:24Z</time>
      </trkpt>
      <trkpt lat="59.5274524" lon="17.76296">
        <ele>28.0155</ele>
        <time>2011-02-26T11:44:26Z</time>
      </trkpt>
      <trkpt lat="59.52748" lon="17.7628653">
        <ele>27.0543</ele>
        <time>2011-02-26T11:44:27Z</time>
      </trkpt>
      <trkpt lat="59.5275764" lon="17.7623712">
        <ele>25.1317</ele>
        <time>2011-02-26T11:44:33Z</time>
      </trkpt>
      <trkpt lat="59.5275903" lon="17.7622855">
        <ele>23.6896</ele>
        <time>2011-02-26T11:44:34Z</time>
      </trkpt>
      <trkpt lat="59.5276063" lon="17.7620399">
        <ele>22.7283</ele>
        <time>2011-02-26T11:44:37Z</time>
      </trkpt>
      <trkpt lat="59.5275964" lon="17.7617443">
        <ele>21.767</ele>
        <time>2011-02-26T11:44:42Z</time>
      </trkpt>
      <trkpt lat="59.5276095" lon="17.7614836">
        <ele>22.7283</ele>
        <time>2011-02-26T11:44:47Z</time>
      </trkpt>
      <trkpt lat="59.52762" lon="17.7613068">
        <ele>22.7283</ele>
        <time>2011-02-26T11:44:51Z</time>
      </trkpt>
      <trkpt lat="59.5275984" lon="17.7612376">
        <ele>23.209</ele>
        <time>2011-02-26T11:44:53Z</time>
      </trkpt>
      <trkpt lat="59.5275392" lon="17.7611782">
        <ele>25.1317</ele>
        <time>2011-02-26T11:44:57Z</time>
      </trkpt>
      <trkpt lat="59.5274257" lon="17.7610755">
        <ele>27.5349</ele>
        <time>2011-02-26T11:45:02Z</time>
      </trkpt>
      <trkpt lat="59.5273086" lon="17.760988">
        <ele>28.4962</ele>
        <time>2011-02-26T11:45:06Z</time>
      </trkpt>
      <trkpt lat="59.5272882" lon="17.7609678">
        <ele>28.4962</ele>
        <time>2011-02-26T11:45:07Z</time>
      </trkpt>
      <trkpt lat="59.5272096" lon="17.7608201">
        <ele>28.0155</ele>
        <time>2011-02-26T11:45:11Z</time>
      </trkpt>
      <trkpt lat="59.5271537" lon="17.7607878">
        <ele>27.0543</ele>
        <time>2011-02-26T11:45:14Z</time>
      </trkpt>
      <trkpt lat="59.5270667" lon="17.7607336">
        <ele>27.0543</ele>
        <time>2011-02-26T11:45:18Z</time>
      </trkpt>
      <trkpt lat="59.5269932" lon="17.7606932">
        <ele>26.5736</ele>
        <time>2011-02-26T11:45:22Z</time>
      </trkpt>
      <trkpt lat="59.5269588" lon="17.7606559">
        <ele>27.5349</ele>
        <time>2011-02-26T11:45:24Z</time>
      </trkpt>
      <trkpt lat="59.5268832" lon="17.7605621">
        <ele>28.9769</ele>
        <time>2011-02-26T11:45:28Z</time>
      </trkpt>
      <trkpt lat="59.5267989" lon="17.7603752">
        <ele>29.4575</ele>
        <time>2011-02-26T11:45:33Z</time>
      </trkpt>
      <trkpt lat="59.5266694" lon="17.7599488">
        <ele>28.4962</ele>
        <time>2011-02-26T11:45:39Z</time>
      </trkpt>
      <trkpt lat="59.526615" lon="17.759672">
        <ele>28.4962</ele>
        <time>2011-02-26T11:45:43Z</time>
      </trkpt>
      <trkpt lat="59.5265919" lon="17.7595079">
        <ele>28.4962</ele>
        <time>2011-02-26T11:45:45Z</time>
      </trkpt>
      <trkpt lat="59.5265108" lon="17.759135">
        <ele>28.0155</ele>
        <time>2011-02-26T11:45:50Z</time>
      </trkpt>
      <trkpt lat="59.5264793" lon="17.7589869">
        <ele>27.5349</ele>
        <time>2011-02-26T11:45:52Z</time>
      </trkpt>
      <trkpt lat="59.5264419" lon="17.7588502">
        <ele>27.5349</ele>
        <time>2011-02-26T11:45:54Z</time>
      </trkpt>
      <trkpt lat="59.5263425" lon="17.7587122">
        <ele>27.0543</ele>
        <time>2011-02-26T11:45:58Z</time>
      </trkpt>
      <trkpt lat="59.5262618" lon="17.7586569">
        <ele>26.5736</ele>
        <time>2011-02-26T11:46:01Z</time>
      </trkpt>
      <trkpt lat="59.5261501" lon="17.7585611">
        <ele>26.0929</ele>
        <time>2011-02-26T11:46:06Z</time>
      </trkpt>
      <trkpt lat="59.5260506" lon="17.7584921">
        <ele>27.0543</ele>
        <time>2011-02-26T11:46:11Z</time>
      </trkpt>
      <trkpt lat="59.5259688" lon="17.7583894">
        <ele>29.4575</ele>
        <time>2011-02-26T11:46:15Z</time>
      </trkpt>
      <trkpt lat="59.5259544" lon="17.7583715">
        <ele>29.4575</ele>
        <time>2011-02-26T11:46:16Z</time>
      </trkpt>
      <trkpt lat="59.5258232" lon="17.7582283">
        <ele>31.3801</ele>
        <time>2011-02-26T11:46:22Z</time>
      </trkpt>
      <trkpt lat="59.5257426" lon="17.7581245">
        <ele>32.8223</ele>
        <time>2011-02-26T11:46:26Z</time>
      </trkpt>
      <trkpt lat="59.5256478" lon="17.7578716">
        <ele>32.8223</ele>
        <time>2011-02-26T11:46:31Z</time>
      </trkpt>
      <trkpt lat="59.5255799" lon="17.7576456">
        <ele>34.2642</ele>
        <time>2011-02-26T11:46:35Z</time>
      </trkpt>
      <trkpt lat="59.5255629" lon="17.7575976">
        <ele>33.3029</ele>
        <time>2011-02-26T11:46:36Z</time>
      </trkpt>
      <trkpt lat="59.5254505" lon="17.7573653">
        <ele>31.8607</ele>
        <time>2011-02-26T11:46:41Z</time>
      </trkpt>
      <trkpt lat="59.5253717" lon="17.7568795">
        <ele>28.4962</ele>
        <time>2011-02-26T11:46:47Z</time>
      </trkpt>
      <trkpt lat="59.5253536" lon="17.7567801">
        <ele>28.4962</ele>
        <time>2011-02-26T11:46:48Z</time>
      </trkpt>
      <trkpt lat="59.5251856" lon="17.7565399">
        <ele>26.5736</ele>
        <time>2011-02-26T11:46:52Z</time>
      </trkpt>
      <trkpt lat="59.5249785" lon="17.7565673">
        <ele>24.651</ele>
        <time>2011-02-26T11:46:56Z</time>
      </trkpt>
      <trkpt lat="59.5248889" lon="17.7565838">
        <ele>24.651</ele>
        <time>2011-02-26T11:46:58Z</time>
      </trkpt>
      <trkpt lat="59.5247563" lon="17.7566303">
        <ele>24.1703</ele>
        <time>2011-02-26T11:47:01Z</time>
      </trkpt>
      <trkpt lat="59.524631" lon="17.7566852">
        <ele>25.1317</ele>
        <time>2011-02-26T11:47:04Z</time>
      </trkpt>
      <trkpt lat="59.5245652" lon="17.75676">
        <ele>26.0929</ele>
        <time>2011-02-26T11:47:06Z</time>
      </trkpt>
      <trkpt lat="59.5244878" lon="17.7569655">
        <ele>25.6123</ele>
        <time>2011-02-26T11:47:11Z</time>
      </trkpt>
      <trkpt lat="59.5244639" lon="17.7573579">
        <ele>24.651</ele>
        <time>2011-02-26T11:47:17Z</time>
      </trkpt>
      <trkpt lat="59.5244876" lon="17.757659">
        <ele>24.1703</ele>
        <time>2011-02-26T11:47:22Z</time>
      </trkpt>
      <trkpt lat="59.5244482" lon="17.758004">
        <ele>25.6123</ele>
        <time>2011-02-26T11:47:28Z</time>
      </trkpt>
      <trkpt lat="59.5243988" lon="17.7582949">
        <ele>25.1317</ele>
        <time>2011-02-26T11:47:33Z</time>
      </trkpt>
      <trkpt lat="59.5243414" lon="17.7585988">
        <ele>24.651</ele>
        <time>2011-02-26T11:47:38Z</time>
      </trkpt>
      <trkpt lat="59.5242923" lon="17.7588375">
        <ele>26.0929</ele>
        <time>2011-02-26T11:47:43Z</time>
      </trkpt>
      <trkpt lat="59.5242752" lon="17.7591406">
        <ele>27.0543</ele>
        <time>2011-02-26T11:47:48Z</time>
      </trkpt>
      <trkpt lat="59.524269" lon="17.7594707">
        <ele>28.0155</ele>
        <time>2011-02-26T11:47:53Z</time>
      </trkpt>
      <trkpt lat="59.5242647" lon="17.7597121">
        <ele>28.4962</ele>
        <time>2011-02-26T11:47:57Z</time>
      </trkpt>
      <trkpt lat="59.5242367" lon="17.7598969">
        <ele>29.4575</ele>
        <time>2011-02-26T11:48:01Z</time>
      </trkpt>
      <trkpt lat="59.5242337" lon="17.7599505">
        <ele>29.4575</ele>
        <time>2011-02-26T11:48:02Z</time>
      </trkpt>
      <trkpt lat="59.5242003" lon="17.7602541">
        <ele>29.9381</ele>
        <time>2011-02-26T11:48:07Z</time>
      </trkpt>
      <trkpt lat="59.5241602" lon="17.7605241">
        <ele>31.3801</ele>
        <time>2011-02-26T11:48:12Z</time>
      </trkpt>
      <trkpt lat="59.5241542" lon="17.7607601">
        <ele>33.3029</ele>
        <time>2011-02-26T11:48:16Z</time>
      </trkpt>
      <trkpt lat="59.5241537" lon="17.7610211">
        <ele>33.7834</ele>
        <time>2011-02-26T11:48:20Z</time>
      </trkpt>
      <trkpt lat="59.5241464" lon="17.7612345">
        <ele>33.7834</ele>
        <time>2011-02-26T11:48:23Z</time>
      </trkpt>
      <trkpt lat="59.5241286" lon="17.7614313">
        <ele>35.2255</ele>
        <time>2011-02-26T11:48:26Z</time>
      </trkpt>
      <trkpt lat="59.5240839" lon="17.7616983">
        <ele>31.8607</ele>
        <time>2011-02-26T11:48:30Z</time>
      </trkpt>
      <trkpt lat="59.524087" lon="17.7619186">
        <ele>29.4575</ele>
        <time>2011-02-26T11:48:33Z</time>
      </trkpt>
      <trkpt lat="59.5240544" lon="17.762201">
        <ele>28.4962</ele>
        <time>2011-02-26T11:48:37Z</time>
      </trkpt>
      <trkpt lat="59.5238603" lon="17.7624555">
        <ele>27.5349</ele>
        <time>2011-02-26T11:48:43Z</time>
      </trkpt>
      <trkpt lat="59.5238378" lon="17.7625192">
        <ele>27.5349</ele>
        <time>2011-02-26T11:48:44Z</time>
      </trkpt>
      <trkpt lat="59.5238579" lon="17.7628714">
        <ele>25.6123</ele>
        <time>2011-02-26T11:48:49Z</time>
      </trkpt>
      <trkpt lat="59.5239394" lon="17.763203">
        <ele>24.651</ele>
        <time>2011-02-26T11:48:54Z</time>
      </trkpt>
      <trkpt lat="59.5240543" lon="17.7634654">
        <ele>24.1703</ele>
        <time>2011-02-26T11:48:59Z</time>
      </trkpt>
      <trkpt lat="59.5241355" lon="17.7636491">
        <ele>24.651</ele>
        <time>2011-02-26T11:49:03Z</time>
      </trkpt>
      <trkpt lat="59.5241502" lon="17.7636961">
        <ele>24.1703</ele>
        <time>2011-02-26T11:49:04Z</time>
      </trkpt>
      <trkpt lat="59.5242013" lon="17.7638344">
        <ele>25.1317</ele>
        <time>2011-02-26T11:49:07Z</time>
      </trkpt>
      <trkpt lat="59.5242252" lon="17.7642126">
        <ele>27.0543</ele>
        <time>2011-02-26T11:49:13Z</time>
      </trkpt>
      <trkpt lat="59.5242621" lon="17.7644699">
        <ele>27.0543</ele>
        <time>2011-02-26T11:49:17Z</time>
      </trkpt>
      <trkpt lat="59.5243339" lon="17.7647169">
        <ele>27.0543</ele>
        <time>2011-02-26T11:49:21Z</time>
      </trkpt>
      <trkpt lat="59.5244349" lon="17.7650264">
        <ele>28.0155</ele>
        <time>2011-02-26T11:49:26Z</time>
      </trkpt>
      <trkpt lat="59.5245015" lon="17.765304">
        <ele>27.5349</ele>
        <time>2011-02-26T11:49:31Z</time>
      </trkpt>
      <trkpt lat="59.5245585" lon="17.765491">
        <ele>28.0155</ele>
        <time>2011-02-26T11:49:35Z</time>
      </trkpt>
      <trkpt lat="59.5246119" lon="17.7656643">
        <ele>29.4575</ele>
        <time>2011-02-26T11:49:39Z</time>
      </trkpt>
      <trkpt lat="59.5246642" lon="17.7658211">
        <ele>30.4188</ele>
        <time>2011-02-26T11:49:43Z</time>
      </trkpt>
      <trkpt lat="59.524732" lon="17.7660166">
        <ele>31.8607</ele>
        <time>2011-02-26T11:49:48Z</time>
      </trkpt>
      <trkpt lat="59.5247906" lon="17.7661821">
        <ele>33.3029</ele>
        <time>2011-02-26T11:49:52Z</time>
      </trkpt>
      <trkpt lat="59.5248401" lon="17.7663639">
        <ele>32.8223</ele>
        <time>2011-02-26T11:49:56Z</time>
      </trkpt>
      <trkpt lat="59.5249211" lon="17.76664">
        <ele>30.8995</ele>
        <time>2011-02-26T11:50:02Z</time>
      </trkpt>
      <trkpt lat="59.5250146" lon="17.7667988">
        <ele>30.8995</ele>
        <time>2011-02-26T11:50:07Z</time>
      </trkpt>
      <trkpt lat="59.5250978" lon="17.7668786">
        <ele>30.8995</ele>
        <time>2011-02-26T11:50:11Z</time>
      </trkpt>
      <trkpt lat="59.5252096" lon="17.7670055">
        <ele>31.8607</ele>
        <time>2011-02-26T11:50:16Z</time>
      </trkpt>
      <trkpt lat="59.5252868" lon="17.7672036">
        <ele>33.3029</ele>
        <time>2011-02-26T11:50:21Z</time>
      </trkpt>
      <trkpt lat="59.5253329" lon="17.7674701">
        <ele>33.3029</ele>
        <time>2011-02-26T11:50:26Z</time>
      </trkpt>
      <trkpt lat="59.5253805" lon="17.7676123">
        <ele>34.2642</ele>
        <time>2011-02-26T11:50:29Z</time>
      </trkpt>
      <trkpt lat="59.525451" lon="17.7678428">
        <ele>34.7449</ele>
        <time>2011-02-26T11:50:34Z</time>
      </trkpt>
      <trkpt lat="59.525452" lon="17.7681929">
        <ele>34.7449</ele>
        <time>2011-02-26T11:50:39Z</time>
      </trkpt>
      <trkpt lat="59.5254359" lon="17.7682625">
        <ele>34.7449</ele>
        <time>2011-02-26T11:50:40Z</time>
      </trkpt>
      <trkpt lat="59.5252597" lon="17.7685161">
        <ele>32.8223</ele>
        <time>2011-02-26T11:50:45Z</time>
      </trkpt>
      <trkpt lat="59.5252233" lon="17.7685669">
        <ele>32.3416</ele>
        <time>2011-02-26T11:50:46Z</time>
      </trkpt>
      <trkpt lat="59.5251453" lon="17.7687001">
        <ele>31.3801</ele>
        <time>2011-02-26T11:50:48Z</time>
      </trkpt>
      <trkpt lat="59.5249791" lon="17.769299">
        <ele>28.0155</ele>
        <time>2011-02-26T11:50:54Z</time>
      </trkpt>
      <trkpt lat="59.5249512" lon="17.7694218">
        <ele>28.0155</ele>
        <time>2011-02-26T11:50:55Z</time>
      </trkpt>
      <trkpt lat="59.5248931" lon="17.7699433">
        <ele>26.0929</ele>
        <time>2011-02-26T11:51:00Z</time>
      </trkpt>
      <trkpt lat="59.5248338" lon="17.770233">
        <ele>24.651</ele>
        <time>2011-02-26T11:51:03Z</time>
      </trkpt>
      <trkpt lat="59.5247377" lon="17.7704827">
        <ele>23.6896</ele>
        <time>2011-02-26T11:51:06Z</time>
      </trkpt>
      <trkpt lat="59.5245413" lon="17.7706489">
        <ele>18.8831</ele>
        <time>2011-02-26T11:51:11Z</time>
      </trkpt>
      <trkpt lat="59.524495" lon="17.7706695">
        <ele>16.4797</ele>
        <time>2011-02-26T11:51:12Z</time>
      </trkpt>
      <trkpt lat="59.5242259" lon="17.7707049">
        <ele>14.557</ele>
        <time>2011-02-26T11:51:17Z</time>
      </trkpt>
      <trkpt lat="59.5240808" lon="17.7709374">
        <ele>14.0764</ele>
        <time>2011-02-26T11:51:21Z</time>
      </trkpt>
      <trkpt lat="59.5240315" lon="17.7710969">
        <ele>14.0764</ele>
        <time>2011-02-26T11:51:23Z</time>
      </trkpt>
      <trkpt lat="59.5239767" lon="17.7715436">
        <ele>14.557</ele>
        <time>2011-02-26T11:51:28Z</time>
      </trkpt>
      <trkpt lat="59.5239803" lon="17.7718168">
        <ele>13.1151</ele>
        <time>2011-02-26T11:51:31Z</time>
      </trkpt>
      <trkpt lat="59.5239871" lon="17.7720419">
        <ele>12.6344</ele>
        <time>2011-02-26T11:51:34Z</time>
      </trkpt>
      <trkpt lat="59.5239012" lon="17.7722799">
        <ele>12.6344</ele>
        <time>2011-02-26T11:51:39Z</time>
      </trkpt>
      <trkpt lat="59.5237334" lon="17.7723096">
        <ele>13.5958</ele>
        <time>2011-02-26T11:51:43Z</time>
      </trkpt>
      <trkpt lat="59.5236606" lon="17.7723498">
        <ele>13.1151</ele>
        <time>2011-02-26T11:51:45Z</time>
      </trkpt>
      <trkpt lat="59.5235367" lon="17.7724209">
        <ele>12.6344</ele>
        <time>2011-02-26T11:51:48Z</time>
      </trkpt>
      <trkpt lat="59.5233618" lon="17.7725007">
        <ele>11.1925</ele>
        <time>2011-02-26T11:51:52Z</time>
      </trkpt>
      <trkpt lat="59.5231967" lon="17.7725179">
        <ele>12.1538</ele>
        <time>2011-02-26T11:51:56Z</time>
      </trkpt>
      <trkpt lat="59.5230708" lon="17.7725841">
        <ele>11.6732</ele>
        <time>2011-02-26T11:51:59Z</time>
      </trkpt>
      <trkpt lat="59.5229899" lon="17.7726357">
        <ele>11.6732</ele>
        <time>2011-02-26T11:52:01Z</time>
      </trkpt>
      <trkpt lat="59.522904" lon="17.7726851">
        <ele>11.6732</ele>
        <time>2011-02-26T11:52:03Z</time>
      </trkpt>
      <trkpt lat="59.5226976" lon="17.7727996">
        <ele>11.6732</ele>
        <time>2011-02-26T11:52:09Z</time>
      </trkpt>
      <trkpt lat="59.5225268" lon="17.7728887">
        <ele>10.7118</ele>
        <time>2011-02-26T11:52:14Z</time>
      </trkpt>
      <trkpt lat="59.522328" lon="17.7730235">
        <ele>9.75061</ele>
        <time>2011-02-26T11:52:19Z</time>
      </trkpt>
      <trkpt lat="59.5221485" lon="17.7731488">
        <ele>8.78918</ele>
        <time>2011-02-26T11:52:24Z</time>
      </trkpt>
      <trkpt lat="59.5220429" lon="17.7732182">
        <ele>8.78918</ele>
        <time>2011-02-26T11:52:28Z</time>
      </trkpt>
      <trkpt lat="59.5219263" lon="17.7732954">
        <ele>8.30859</ele>
        <time>2011-02-26T11:52:32Z</time>
      </trkpt>
      <trkpt lat="59.5217969" lon="17.7733684">
        <ele>7.82788</ele>
        <time>2011-02-26T11:52:36Z</time>
      </trkpt>
      <trkpt lat="59.5216708" lon="17.7734531">
        <ele>8.30859</ele>
        <time>2011-02-26T11:52:40Z</time>
      </trkpt>
      <trkpt lat="59.5215447" lon="17.7735568">
        <ele>9.2699</ele>
        <time>2011-02-26T11:52:44Z</time>
      </trkpt>
      <trkpt lat="59.5214469" lon="17.7736293">
        <ele>9.75061</ele>
        <time>2011-02-26T11:52:47Z</time>
      </trkpt>
      <trkpt lat="59.5212968" lon="17.773729">
        <ele>8.30859</ele>
        <time>2011-02-26T11:52:52Z</time>
      </trkpt>
      <trkpt lat="59.5211378" lon="17.773856">
        <ele>8.78918</ele>
        <time>2011-02-26T11:52:58Z</time>
      </trkpt>
      <trkpt lat="59.5210107" lon="17.773993">
        <ele>8.78918</ele>
        <time>2011-02-26T11:53:03Z</time>
      </trkpt>
      <trkpt lat="59.5208744" lon="17.7741517">
        <ele>7.82788</ele>
        <time>2011-02-26T11:53:08Z</time>
      </trkpt>
      <trkpt lat="59.5207573" lon="17.7742993">
        <ele>6.38586</ele>
        <time>2011-02-26T11:53:12Z</time>
      </trkpt>
      <trkpt lat="59.5207252" lon="17.7743314">
        <ele>5.90527</ele>
        <time>2011-02-26T11:53:13Z</time>
      </trkpt>
      <trkpt lat="59.5206314" lon="17.7744335">
        <ele>4.94385</ele>
        <time>2011-02-26T11:53:16Z</time>
      </trkpt>
      <trkpt lat="59.5204931" lon="17.7745669">
        <ele>4.46326</ele>
        <time>2011-02-26T11:53:21Z</time>
      </trkpt>
      <trkpt lat="59.5203826" lon="17.7746955">
        <ele>4.94385</ele>
        <time>2011-02-26T11:53:25Z</time>
      </trkpt>
      <trkpt lat="59.5202582" lon="17.7748119">
        <ele>4.46326</ele>
        <time>2011-02-26T11:53:29Z</time>
      </trkpt>
      <trkpt lat="59.5200647" lon="17.7750548">
        <ele>3.98267</ele>
        <time>2011-02-26T11:53:35Z</time>
      </trkpt>
      <trkpt lat="59.5199679" lon="17.7751803">
        <ele>3.50195</ele>
        <time>2011-02-26T11:53:39Z</time>
      </trkpt>
      <trkpt lat="59.5198588" lon="17.7753364">
        <ele>3.98267</ele>
        <time>2011-02-26T11:53:44Z</time>
      </trkpt>
      <trkpt lat="59.5197377" lon="17.7754742">
        <ele>4.46326</ele>
        <time>2011-02-26T11:53:49Z</time>
      </trkpt>
      <trkpt lat="59.5196192" lon="17.7756521">
        <ele>4.46326</ele>
        <time>2011-02-26T11:53:54Z</time>
      </trkpt>
      <trkpt lat="59.5194799" lon="17.7758408">
        <ele>4.94385</ele>
        <time>2011-02-26T11:54:01Z</time>
      </trkpt>
      <trkpt lat="59.5194047" lon="17.7759616">
        <ele>5.90527</ele>
        <time>2011-02-26T11:54:05Z</time>
      </trkpt>
      <trkpt lat="59.5193357" lon="17.7760942">
        <ele>6.86646</ele>
        <time>2011-02-26T11:54:09Z</time>
      </trkpt>
      <trkpt lat="59.519275" lon="17.7762003">
        <ele>8.30859</ele>
        <time>2011-02-26T11:54:13Z</time>
      </trkpt>
      <trkpt lat="59.5191996" lon="17.7762703">
        <ele>10.2312</ele>
        <time>2011-02-26T11:54:19Z</time>
      </trkpt>
      <trkpt lat="59.5191669" lon="17.7763029">
        <ele>10.2312</ele>
        <time>2011-02-26T11:54:21Z</time>
      </trkpt>
      <trkpt lat="59.5190783" lon="17.7763242">
        <ele>11.6732</ele>
        <time>2011-02-26T11:54:26Z</time>
      </trkpt>
      <trkpt lat="59.5189581" lon="17.7763054">
        <ele>12.1538</ele>
        <time>2011-02-26T11:54:32Z</time>
      </trkpt>
      <trkpt lat="59.5188753" lon="17.7763132">
        <ele>13.1151</ele>
        <time>2011-02-26T11:54:37Z</time>
      </trkpt>
      <trkpt lat="59.5188005" lon="17.7763102">
        <ele>14.0764</ele>
        <time>2011-02-26T11:54:41Z</time>
      </trkpt>
      <trkpt lat="59.5187131" lon="17.7762755">
        <ele>15.0377</ele>
        <time>2011-02-26T11:54:47Z</time>
      </trkpt>
      <trkpt lat="59.5186201" lon="17.7762549">
        <ele>15.5184</ele>
        <time>2011-02-26T11:54:53Z</time>
      </trkpt>
      <trkpt lat="59.5185444" lon="17.7762159">
        <ele>14.557</ele>
        <time>2011-02-26T11:54:57Z</time>
      </trkpt>
      <trkpt lat="59.518447" lon="17.7761603">
        <ele>14.0764</ele>
        <time>2011-02-26T11:55:04Z</time>
      </trkpt>
      <trkpt lat="59.518334" lon="17.7761049">
        <ele>13.5958</ele>
        <time>2011-02-26T11:55:09Z</time>
      </trkpt>
      <trkpt lat="59.5182313" lon="17.7760603">
        <ele>13.1151</ele>
        <time>2011-02-26T11:55:13Z</time>
      </trkpt>
      <trkpt lat="59.5181432" lon="17.775946">
        <ele>12.1538</ele>
        <time>2011-02-26T11:55:18Z</time>
      </trkpt>
      <trkpt lat="59.5181303" lon="17.7759159">
        <ele>12.1538</ele>
        <time>2011-02-26T11:55:20Z</time>
      </trkpt>
      <trkpt lat="59.5180915" lon="17.7758192">
        <ele>13.5958</ele>
        <time>2011-02-26T11:55:25Z</time>
      </trkpt>
      <trkpt lat="59.5180248" lon="17.7756756">
        <ele>14.557</ele>
        <time>2011-02-26T11:55:31Z</time>
      </trkpt>
      <trkpt lat="59.517975" lon="17.7756017">
        <ele>14.557</ele>
        <time>2011-02-26T11:55:35Z</time>
      </trkpt>
      <trkpt lat="59.5178632" lon="17.7754907">
        <ele>14.0764</ele>
        <time>2011-02-26T11:55:38Z</time>
      </trkpt>
      <trkpt lat="59.517756" lon="17.7753828">
        <ele>13.5958</ele>
        <time>2011-02-26T11:55:42Z</time>
      </trkpt>
      <trkpt lat="59.5177531" lon="17.7753705">
        <ele>15.5184</ele>
        <time>2011-02-26T11:55:46Z</time>
      </trkpt>
      <trkpt lat="59.5177018" lon="17.7752717">
        <ele>16.9604</ele>
        <time>2011-02-26T11:55:52Z</time>
      </trkpt>
      <trkpt lat="59.5176201" lon="17.7751369">
        <ele>17.9218</ele>
        <time>2011-02-26T11:55:56Z</time>
      </trkpt>
      <trkpt lat="59.5175689" lon="17.7748751">
        <ele>16.4797</ele>
        <time>2011-02-26T11:56:01Z</time>
      </trkpt>
      <trkpt lat="59.5175731" lon="17.7745156">
        <ele>12.1538</ele>
        <time>2011-02-26T11:56:05Z</time>
      </trkpt>
      <trkpt lat="59.5175834" lon="17.774305">
        <ele>9.75061</ele>
        <time>2011-02-26T11:56:07Z</time>
      </trkpt>
      <trkpt lat="59.5175167" lon="17.7735889">
        <ele>9.2699</ele>
        <time>2011-02-26T11:56:13Z</time>
      </trkpt>
      <trkpt lat="59.5175167" lon="17.7734684">
        <ele>10.7118</ele>
        <time>2011-02-26T11:56:14Z</time>
      </trkpt>
      <trkpt lat="59.5175746" lon="17.77299">
        <ele>9.75061</ele>
        <time>2011-02-26T11:56:19Z</time>
      </trkpt>
      <trkpt lat="59.5176071" lon="17.7725741">
        <ele>10.2312</ele>
        <time>2011-02-26T11:56:26Z</time>
      </trkpt>
      <trkpt lat="59.5176104" lon="17.7725282">
        <ele>11.1925</ele>
        <time>2011-02-26T11:56:27Z</time>
      </trkpt>
      <trkpt lat="59.5175592" lon="17.7721533">
        <ele>16.4797</ele>
        <time>2011-02-26T11:56:34Z</time>
      </trkpt>
      <trkpt lat="59.5175497" lon="17.771868">
        <ele>16.9604</ele>
        <time>2011-02-26T11:56:39Z</time>
      </trkpt>
      <trkpt lat="59.5175345" lon="17.7716104">
        <ele>17.4412</ele>
        <time>2011-02-26T11:56:43Z</time>
      </trkpt>
      <trkpt lat="59.5175382" lon="17.7713751">
        <ele>17.4412</ele>
        <time>2011-02-26T11:56:47Z</time>
      </trkpt>
      <trkpt lat="59.5175415" lon="17.7711571">
        <ele>14.557</ele>
        <time>2011-02-26T11:56:52Z</time>
      </trkpt>
      <trkpt lat="59.5174948" lon="17.771014">
        <ele>15.999</ele>
        <time>2011-02-26T11:56:55Z</time>
      </trkpt>
      <trkpt lat="59.5173898" lon="17.7708581">
        <ele>18.8831</ele>
        <time>2011-02-26T11:57:01Z</time>
      </trkpt>
      <trkpt lat="59.517299" lon="17.7707877">
        <ele>20.325</ele>
        <time>2011-02-26T11:57:05Z</time>
      </trkpt>
      <trkpt lat="59.5171825" lon="17.7707279">
        <ele>19.3638</ele>
        <time>2011-02-26T11:57:09Z</time>
      </trkpt>
      <trkpt lat="59.5170436" lon="17.7706673">
        <ele>21.767</ele>
        <time>2011-02-26T11:57:14Z</time>
      </trkpt>
      <trkpt lat="59.5169137" lon="17.77061">
        <ele>22.2476</ele>
        <time>2011-02-26T11:57:19Z</time>
      </trkpt>
      <trkpt lat="59.5168742" lon="17.7705774">
        <ele>22.7283</ele>
        <time>2011-02-26T11:57:20Z</time>
      </trkpt>
      <trkpt lat="59.5168378" lon="17.7705412">
        <ele>21.767</ele>
        <time>2011-02-26T11:57:21Z</time>
      </trkpt>
      <trkpt lat="59.5166799" lon="17.7703986">
        <ele>26.5736</ele>
        <time>2011-02-26T11:59:27Z</time>
      </trkpt>
      <trkpt lat="59.5165868" lon="17.7701505">
        <ele>24.1703</ele>
        <time>2011-02-26T11:59:33Z</time>
      </trkpt>
      <trkpt lat="59.5164221" lon="17.7696978">
        <ele>17.4412</ele>
        <time>2011-02-26T11:59:39Z</time>
      </trkpt>
      <trkpt lat="59.516403" lon="17.7696128">
        <ele>16.9604</ele>
        <time>2011-02-26T11:59:40Z</time>
      </trkpt>
      <trkpt lat="59.5163231" lon="17.7694154">
        <ele>15.0377</ele>
        <time>2011-02-26T11:59:44Z</time>
      </trkpt>
      <trkpt lat="59.5162352" lon="17.7691469">
        <ele>12.6344</ele>
        <time>2011-02-26T11:59:49Z</time>
      </trkpt>
      <trkpt lat="59.5161865" lon="17.7689046">
        <ele>10.7118</ele>
        <time>2011-02-26T11:59:53Z</time>
      </trkpt>
      <trkpt lat="59.516124" lon="17.768668">
        <ele>12.1538</ele>
        <time>2011-02-26T11:59:57Z</time>
      </trkpt>
      <trkpt lat="59.5160912" lon="17.7683701">
        <ele>12.6344</ele>
        <time>2011-02-26T12:00:01Z</time>
      </trkpt>
      <trkpt lat="59.5161362" lon="17.7681183">
        <ele>11.1925</ele>
        <time>2011-02-26T12:00:05Z</time>
      </trkpt>
      <trkpt lat="59.5162416" lon="17.7678372">
        <ele>11.6732</ele>
        <time>2011-02-26T12:00:10Z</time>
      </trkpt>
      <trkpt lat="59.516346" lon="17.767611">
        <ele>11.1925</ele>
        <time>2011-02-26T12:00:13Z</time>
      </trkpt>
      <trkpt lat="59.5166469" lon="17.7673812">
        <ele>11.1925</ele>
        <time>2011-02-26T12:00:18Z</time>
      </trkpt>
      <trkpt lat="59.5168731" lon="17.7674346">
        <ele>11.1925</ele>
        <time>2011-02-26T12:00:22Z</time>
      </trkpt>
      <trkpt lat="59.5169691" lon="17.7675268">
        <ele>10.7118</ele>
        <time>2011-02-26T12:00:24Z</time>
      </trkpt>
      <trkpt lat="59.5171462" lon="17.7677341">
        <ele>10.2312</ele>
        <time>2011-02-26T12:00:28Z</time>
      </trkpt>
      <trkpt lat="59.5171735" lon="17.7677972">
        <ele>10.7118</ele>
        <time>2011-02-26T12:00:29Z</time>
      </trkpt>
      <trkpt lat="59.5172022" lon="17.7678488">
        <ele>10.7118</ele>
        <time>2011-02-26T12:00:30Z</time>
      </trkpt>
      <trkpt lat="59.5172865" lon="17.7679495">
        <ele>10.7118</ele>
        <time>2011-02-26T12:00:33Z</time>
      </trkpt>
      <trkpt lat="59.5174802" lon="17.768086">
        <ele>10.7118</ele>
        <time>2011-02-26T12:00:39Z</time>
      </trkpt>
      <trkpt lat="59.5176518" lon="17.7682521">
        <ele>12.6344</ele>
        <time>2011-02-26T12:00:43Z</time>
      </trkpt>
      <trkpt lat="59.5177464" lon="17.7684271">
        <ele>11.1925</ele>
        <time>2011-02-26T12:00:45Z</time>
      </trkpt>
      <trkpt lat="59.5178927" lon="17.7689183">
        <ele>9.75061</ele>
        <time>2011-02-26T12:00:49Z</time>
      </trkpt>
      <trkpt lat="59.517947" lon="17.7692424">
        <ele>10.2312</ele>
        <time>2011-02-26T12:00:52Z</time>
      </trkpt>
      <trkpt lat="59.5180511" lon="17.769586">
        <ele>10.2312</ele>
        <time>2011-02-26T12:00:57Z</time>
      </trkpt>
      <trkpt lat="59.518218" lon="17.7699163">
        <ele>11.1925</ele>
        <time>2011-02-26T12:01:02Z</time>
      </trkpt>
      <trkpt lat="59.5183144" lon="17.7701893">
        <ele>9.2699</ele>
        <time>2011-02-26T12:01:05Z</time>
      </trkpt>
      <trkpt lat="59.5184676" lon="17.7706113">
        <ele>5.90527</ele>
        <time>2011-02-26T12:01:11Z</time>
      </trkpt>
      <trkpt lat="59.5184768" lon="17.7706628">
        <ele>5.42456</ele>
        <time>2011-02-26T12:01:12Z</time>
      </trkpt>
      <trkpt lat="59.5185162" lon="17.7708721">
        <ele>4.94385</ele>
        <time>2011-02-26T12:01:15Z</time>
      </trkpt>
      <trkpt lat="59.5185727" lon="17.7712881">
        <ele>4.46326</ele>
        <time>2011-02-26T12:01:21Z</time>
      </trkpt>
      <trkpt lat="59.5186045" lon="17.7715945">
        <ele>5.42456</ele>
        <time>2011-02-26T12:01:25Z</time>
      </trkpt>
      <trkpt lat="59.5186568" lon="17.7719896">
        <ele>5.42456</ele>
        <time>2011-02-26T12:01:31Z</time>
      </trkpt>
      <trkpt lat="59.5187167" lon="17.7722188">
        <ele>7.34717</ele>
        <time>2011-02-26T12:01:35Z</time>
      </trkpt>
      <trkpt lat="59.5188421" lon="17.7724285">
        <ele>6.86646</ele>
        <time>2011-02-26T12:01:39Z</time>
      </trkpt>
      <trkpt lat="59.5189566" lon="17.7726511">
        <ele>5.42456</ele>
        <time>2011-02-26T12:01:43Z</time>
      </trkpt>
      <trkpt lat="59.5190292" lon="17.772856">
        <ele>3.02124</ele>
        <time>2011-02-26T12:01:46Z</time>
      </trkpt>
      <trkpt lat="59.519121" lon="17.7731341">
        <ele>1.09863</ele>
        <time>2011-02-26T12:01:50Z</time>
      </trkpt>
      <trkpt lat="59.5192391" lon="17.7734652">
        <ele>0</ele>
        <time>2011-02-26T12:01:55Z</time>
      </trkpt>
      <trkpt lat="59.5193918" lon="17.773833">
        <ele>0</ele>
        <time>2011-02-26T12:02:01Z</time>
      </trkpt>
      <trkpt lat="59.5194431" lon="17.7739444">
        <ele>0</ele>
        <time>2011-02-26T12:02:03Z</time>
      </trkpt>
      <trkpt lat="59.5195927" lon="17.7742517">
        <ele>0</ele>
        <time>2011-02-26T12:02:09Z</time>
      </trkpt>
      <trkpt lat="59.5197143" lon="17.774418">
        <ele>0</ele>
        <time>2011-02-26T12:02:13Z</time>
      </trkpt>
      <trkpt lat="59.5198103" lon="17.7746342">
        <ele>0</ele>
        <time>2011-02-26T12:02:17Z</time>
      </trkpt>
      <trkpt lat="59.5198588" lon="17.7748881">
        <ele>0</ele>
        <time>2011-02-26T12:02:21Z</time>
      </trkpt>
      <trkpt lat="59.5199093" lon="17.775055">
        <ele>0</ele>
        <time>2011-02-26T12:02:25Z</time>
      </trkpt>
      <trkpt lat="59.5200238" lon="17.7751004">
        <ele>0</ele>
        <time>2011-02-26T12:02:29Z</time>
      </trkpt>
      <trkpt lat="59.5201382" lon="17.7750276">
        <ele>0.137451</ele>
        <time>2011-02-26T12:02:33Z</time>
      </trkpt>
      <trkpt lat="59.5201989" lon="17.7749276">
        <ele>1.09863</ele>
        <time>2011-02-26T12:02:36Z</time>
      </trkpt>
      <trkpt lat="59.5203116" lon="17.7747594">
        <ele>2.06006</ele>
        <time>2011-02-26T12:02:41Z</time>
      </trkpt>
      <trkpt lat="59.5204427" lon="17.7747894">
        <ele>3.02124</ele>
        <time>2011-02-26T12:02:46Z</time>
      </trkpt>
      <trkpt lat="59.5205371" lon="17.77498">
        <ele>2.54065</ele>
        <time>2011-02-26T12:02:51Z</time>
      </trkpt>
      <trkpt lat="59.5205589" lon="17.7752032">
        <ele>2.06006</ele>
        <time>2011-02-26T12:02:55Z</time>
      </trkpt>
      <trkpt lat="59.5205563" lon="17.7753485">
        <ele>1.57935</ele>
        <time>2011-02-26T12:02:57Z</time>
      </trkpt>
      <trkpt lat="59.5205657" lon="17.7756324">
        <ele>2.06006</ele>
        <time>2011-02-26T12:03:01Z</time>
      </trkpt>
      <trkpt lat="59.5205713" lon="17.7759423">
        <ele>1.09863</ele>
        <time>2011-02-26T12:03:05Z</time>
      </trkpt>
      <trkpt lat="59.5205831" lon="17.7762527">
        <ele>1.09863</ele>
        <time>2011-02-26T12:03:09Z</time>
      </trkpt>
      <trkpt lat="59.5206091" lon="17.7766483">
        <ele>0.137451</ele>
        <time>2011-02-26T12:03:14Z</time>
      </trkpt>
      <trkpt lat="59.52062" lon="17.7768819">
        <ele>0</ele>
        <time>2011-02-26T12:03:17Z</time>
      </trkpt>
      <trkpt lat="59.5206491" lon="17.7772494">
        <ele>0</ele>
        <time>2011-02-26T12:03:22Z</time>
      </trkpt>
      <trkpt lat="59.5206697" lon="17.7775428">
        <ele>0</ele>
        <time>2011-02-26T12:03:26Z</time>
      </trkpt>
      <trkpt lat="59.5206836" lon="17.7778103">
        <ele>0</ele>
        <time>2011-02-26T12:03:30Z</time>
      </trkpt>
      <trkpt lat="59.5206986" lon="17.7780998">
        <ele>0</ele>
        <time>2011-02-26T12:03:34Z</time>
      </trkpt>
      <trkpt lat="59.5207061" lon="17.7783978">
        <ele>0</ele>
        <time>2011-02-26T12:03:38Z</time>
      </trkpt>
      <trkpt lat="59.5207055" lon="17.7786411">
        <ele>0</ele>
        <time>2011-02-26T12:03:42Z</time>
      </trkpt>
      <trkpt lat="59.5207225" lon="17.7788832">
        <ele>0</ele>
        <time>2011-02-26T12:03:46Z</time>
      </trkpt>
      <trkpt lat="59.5207467" lon="17.779109">
        <ele>0</ele>
        <time>2011-02-26T12:03:50Z</time>
      </trkpt>
      <trkpt lat="59.5208086" lon="17.7793374">
        <ele>0</ele>
        <time>2011-02-26T12:03:54Z</time>
      </trkpt>
      <trkpt lat="59.5208675" lon="17.7796072">
        <ele>0</ele>
        <time>2011-02-26T12:03:58Z</time>
      </trkpt>
      <trkpt lat="59.5209328" lon="17.779886">
        <ele>0</ele>
        <time>2011-02-26T12:04:02Z</time>
      </trkpt>
      <trkpt lat="59.5210303" lon="17.7801164">
        <ele>0</ele>
        <time>2011-02-26T12:04:06Z</time>
      </trkpt>
      <trkpt lat="59.5211796" lon="17.7801171">
        <ele>0</ele>
        <time>2011-02-26T12:04:10Z</time>
      </trkpt>
      <trkpt lat="59.5213359" lon="17.7800803">
        <ele>0</ele>
        <time>2011-02-26T12:04:14Z</time>
      </trkpt>
      <trkpt lat="59.5214861" lon="17.7800264">
        <ele>0</ele>
        <time>2011-02-26T12:04:18Z</time>
      </trkpt>
      <trkpt lat="59.5216198" lon="17.7799927">
        <ele>0</ele>
        <time>2011-02-26T12:04:22Z</time>
      </trkpt>
      <trkpt lat="59.52176" lon="17.7800384">
        <ele>0</ele>
        <time>2011-02-26T12:04:26Z</time>
      </trkpt>
      <trkpt lat="59.5217895" lon="17.7800676">
        <ele>0</ele>
        <time>2011-02-26T12:04:27Z</time>
      </trkpt>
      <trkpt lat="59.5219284" lon="17.7802485">
        <ele>0</ele>
        <time>2011-02-26T12:04:32Z</time>
      </trkpt>
      <trkpt lat="59.5220599" lon="17.7803906">
        <ele>0</ele>
        <time>2011-02-26T12:04:36Z</time>
      </trkpt>
      <trkpt lat="59.5222169" lon="17.7804943">
        <ele>0</ele>
        <time>2011-02-26T12:04:40Z</time>
      </trkpt>
      <trkpt lat="59.5223741" lon="17.7805216">
        <ele>0</ele>
        <time>2011-02-26T12:04:44Z</time>
      </trkpt>
      <trkpt lat="59.5224786" lon="17.7805215">
        <ele>0</ele>
        <time>2011-02-26T12:04:47Z</time>
      </trkpt>
      <trkpt lat="59.5226203" lon="17.7804972">
        <ele>0</ele>
        <time>2011-02-26T12:04:52Z</time>
      </trkpt>
      <trkpt lat="59.5227561" lon="17.7804745">
        <ele>0</ele>
        <time>2011-02-26T12:04:57Z</time>
      </trkpt>
      <trkpt lat="59.522869" lon="17.7804492">
        <ele>0</ele>
        <time>2011-02-26T12:05:01Z</time>
      </trkpt>
      <trkpt lat="59.5229905" lon="17.7804458">
        <ele>0</ele>
        <time>2011-02-26T12:05:06Z</time>
      </trkpt>
      <trkpt lat="59.5231335" lon="17.7804336">
        <ele>0</ele>
        <time>2011-02-26T12:05:12Z</time>
      </trkpt>
      <trkpt lat="59.5232876" lon="17.780402">
        <ele>0</ele>
        <time>2011-02-26T12:05:18Z</time>
      </trkpt>
      <trkpt lat="59.5234079" lon="17.7803512">
        <ele>0</ele>
        <time>2011-02-26T12:05:22Z</time>
      </trkpt>
      <trkpt lat="59.5235421" lon="17.7802833">
        <ele>0</ele>
        <time>2011-02-26T12:05:27Z</time>
      </trkpt>
      <trkpt lat="59.5236401" lon="17.7802149">
        <ele>0</ele>
        <time>2011-02-26T12:05:31Z</time>
      </trkpt>
      <trkpt lat="59.5237441" lon="17.7800982">
        <ele>0</ele>
        <time>2011-02-26T12:05:36Z</time>
      </trkpt>
      <trkpt lat="59.5238287" lon="17.7799793">
        <ele>0</ele>
        <time>2011-02-26T12:05:40Z</time>
      </trkpt>
      <trkpt lat="59.523982" lon="17.7798233">
        <ele>0</ele>
        <time>2011-02-26T12:05:47Z</time>
      </trkpt>
      <trkpt lat="59.5240781" lon="17.7797195">
        <ele>0</ele>
        <time>2011-02-26T12:05:52Z</time>
      </trkpt>
      <trkpt lat="59.5240963" lon="17.779703">
        <ele>0</ele>
        <time>2011-02-26T12:05:53Z</time>
      </trkpt>
      <trkpt lat="59.5241954" lon="17.7796311">
        <ele>0</ele>
        <time>2011-02-26T12:05:58Z</time>
      </trkpt>
      <trkpt lat="59.5242963" lon="17.7795325">
        <ele>0</ele>
        <time>2011-02-26T12:06:04Z</time>
      </trkpt>
      <trkpt lat="59.5243581" lon="17.779482">
        <ele>0.618042</ele>
        <time>2011-02-26T12:06:08Z</time>
      </trkpt>
      <trkpt lat="59.5244933" lon="17.7794344">
        <ele>1.57935</ele>
        <time>2011-02-26T12:06:14Z</time>
      </trkpt>
      <trkpt lat="59.524624" lon="17.7794213">
        <ele>2.06006</ele>
        <time>2011-02-26T12:06:18Z</time>
      </trkpt>
      <trkpt lat="59.5247748" lon="17.7793835">
        <ele>3.02124</ele>
        <time>2011-02-26T12:06:22Z</time>
      </trkpt>
      <trkpt lat="59.5250066" lon="17.7792768">
        <ele>3.50195</ele>
        <time>2011-02-26T12:06:28Z</time>
      </trkpt>
      <trkpt lat="59.5251258" lon="17.7792255">
        <ele>3.50195</ele>
        <time>2011-02-26T12:06:32Z</time>
      </trkpt>
      <trkpt lat="59.5252904" lon="17.7791525">
        <ele>2.54065</ele>
        <time>2011-02-26T12:06:37Z</time>
      </trkpt>
      <trkpt lat="59.5254167" lon="17.7790578">
        <ele>2.06006</ele>
        <time>2011-02-26T12:06:42Z</time>
      </trkpt>
      <trkpt lat="59.5255469" lon="17.7789259">
        <ele>1.57935</ele>
        <time>2011-02-26T12:06:47Z</time>
      </trkpt>
      <trkpt lat="59.5257127" lon="17.7786671">
        <ele>1.57935</ele>
        <time>2011-02-26T12:06:52Z</time>
      </trkpt>
      <trkpt lat="59.5258268" lon="17.7785065">
        <ele>0.618042</ele>
        <time>2011-02-26T12:06:56Z</time>
      </trkpt>
      <trkpt lat="59.5259177" lon="17.7783392">
        <ele>0</ele>
        <time>2011-02-26T12:07:01Z</time>
      </trkpt>
      <trkpt lat="59.52594" lon="17.778304">
        <ele>0</ele>
        <time>2011-02-26T12:07:02Z</time>
      </trkpt>
      <trkpt lat="59.5260239" lon="17.7780883">
        <ele>1.09863</ele>
        <time>2011-02-26T12:07:08Z</time>
      </trkpt>
      <trkpt lat="59.5260449" lon="17.7780404">
        <ele>0.618042</ele>
        <time>2011-02-26T12:07:09Z</time>
      </trkpt>
      <trkpt lat="59.5261477" lon="17.7778014">
        <ele>1.09863</ele>
        <time>2011-02-26T12:07:15Z</time>
      </trkpt>
      <trkpt lat="59.5261741" lon="17.7777705">
        <ele>1.57935</ele>
        <time>2011-02-26T12:07:16Z</time>
      </trkpt>
      <trkpt lat="59.526247" lon="17.7776073">
        <ele>2.54065</ele>
        <time>2011-02-26T12:07:20Z</time>
      </trkpt>
      <trkpt lat="59.5263386" lon="17.7774719">
        <ele>6.86646</ele>
        <time>2011-02-26T12:07:24Z</time>
      </trkpt>
      <trkpt lat="59.5264372" lon="17.7772887">
        <ele>6.86646</ele>
        <time>2011-02-26T12:07:30Z</time>
      </trkpt>
      <trkpt lat="59.526542" lon="17.7771161">
        <ele>6.86646</ele>
        <time>2011-02-26T12:07:36Z</time>
      </trkpt>
      <trkpt lat="59.5266424" lon="17.7769883">
        <ele>6.38586</ele>
        <time>2011-02-26T12:07:40Z</time>
      </trkpt>
      <trkpt lat="59.526779" lon="17.7768204">
        <ele>6.86646</ele>
        <time>2011-02-26T12:07:44Z</time>
      </trkpt>
      <trkpt lat="59.5269144" lon="17.7767292">
        <ele>5.90527</ele>
        <time>2011-02-26T12:07:47Z</time>
      </trkpt>
      <trkpt lat="59.5272152" lon="17.7767498">
        <ele>6.38586</ele>
        <time>2011-02-26T12:07:52Z</time>
      </trkpt>
      <trkpt lat="59.5274439" lon="17.7766671">
        <ele>6.38586</ele>
        <time>2011-02-26T12:07:56Z</time>
      </trkpt>
      <trkpt lat="59.5275872" lon="17.7766168">
        <ele>6.38586</ele>
        <time>2011-02-26T12:07:59Z</time>
      </trkpt>
      <trkpt lat="59.527738" lon="17.7765638">
        <ele>3.98267</ele>
        <time>2011-02-26T12:08:03Z</time>
      </trkpt>
      <trkpt lat="59.5278955" lon="17.7764702">
        <ele>1.09863</ele>
        <time>2011-02-26T12:08:07Z</time>
      </trkpt>
      <trkpt lat="59.5281244" lon="17.776462">
        <ele>0.137451</ele>
        <time>2011-02-26T12:08:13Z</time>
      </trkpt>
      <trkpt lat="59.5281613" lon="17.7764806">
        <ele>0</ele>
        <time>2011-02-26T12:08:14Z</time>
      </trkpt>
      <trkpt lat="59.5283565" lon="17.7764655">
        <ele>0</ele>
        <time>2011-02-26T12:08:19Z</time>
      </trkpt>
      <trkpt lat="59.5285325" lon="17.7763262">
        <ele>0</ele>
        <time>2011-02-26T12:08:25Z</time>
      </trkpt>
      <trkpt lat="59.5287455" lon="17.7762373">
        <ele>0</ele>
        <time>2011-02-26T12:08:30Z</time>
      </trkpt>
      <trkpt lat="59.5288756" lon="17.7761539">
        <ele>0</ele>
        <time>2011-02-26T12:08:34Z</time>
      </trkpt>
      <trkpt lat="59.5289903" lon="17.77609">
        <ele>0.618042</ele>
        <time>2011-02-26T12:08:38Z</time>
      </trkpt>
      <trkpt lat="59.5291309" lon="17.7759522">
        <ele>1.57935</ele>
        <time>2011-02-26T12:08:42Z</time>
      </trkpt>
      <trkpt lat="59.5292589" lon="17.7757988">
        <ele>0.137451</ele>
        <time>2011-02-26T12:08:46Z</time>
      </trkpt>
      <trkpt lat="59.5293771" lon="17.7756847">
        <ele>0</ele>
        <time>2011-02-26T12:08:50Z</time>
      </trkpt>
      <trkpt lat="59.5295198" lon="17.7754296">
        <ele>0</ele>
        <time>2011-02-26T12:08:55Z</time>
      </trkpt>
      <trkpt lat="59.5296312" lon="17.7752305">
        <ele>0</ele>
        <time>2011-02-26T12:09:00Z</time>
      </trkpt>
      <trkpt lat="59.529737" lon="17.7750502">
        <ele>0</ele>
        <time>2011-02-26T12:09:04Z</time>
      </trkpt>
      <trkpt lat="59.5298525" lon="17.7748746">
        <ele>0</ele>
        <time>2011-02-26T12:09:09Z</time>
      </trkpt>
      <trkpt lat="59.5298752" lon="17.7748362">
        <ele>0</ele>
        <time>2011-02-26T12:09:10Z</time>
      </trkpt>
      <trkpt lat="59.5299897" lon="17.7746406">
        <ele>0</ele>
        <time>2011-02-26T12:09:15Z</time>
      </trkpt>
      <trkpt lat="59.5300966" lon="17.7744495">
        <ele>0</ele>
        <time>2011-02-26T12:09:20Z</time>
      </trkpt>
      <trkpt lat="59.5302023" lon="17.7742805">
        <ele>0</ele>
        <time>2011-02-26T12:09:25Z</time>
      </trkpt>
      <trkpt lat="59.5303146" lon="17.774118">
        <ele>0</ele>
        <time>2011-02-26T12:09:30Z</time>
      </trkpt>
      <trkpt lat="59.530412" lon="17.7739615">
        <ele>0</ele>
        <time>2011-02-26T12:09:35Z</time>
      </trkpt>
      <trkpt lat="59.5305172" lon="17.7737806">
        <ele>0</ele>
        <time>2011-02-26T12:09:40Z</time>
      </trkpt>
      <trkpt lat="59.5306314" lon="17.773648">
        <ele>0.137451</ele>
        <time>2011-02-26T12:09:44Z</time>
      </trkpt>
      <trkpt lat="59.5307925" lon="17.7735036">
        <ele>1.57935</ele>
        <time>2011-02-26T12:09:49Z</time>
      </trkpt>
      <trkpt lat="59.5309274" lon="17.7733481">
        <ele>5.90527</ele>
        <time>2011-02-26T12:09:54Z</time>
      </trkpt>
      <trkpt lat="59.5310111" lon="17.7732571">
        <ele>6.86646</ele>
        <time>2011-02-26T12:09:58Z</time>
      </trkpt>
      <trkpt lat="59.5310605" lon="17.7732093">
        <ele>6.86646</ele>
        <time>2011-02-26T12:10:03Z</time>
      </trkpt>
      <trkpt lat="59.5311427" lon="17.7731591">
        <ele>7.34717</ele>
        <time>2011-02-26T12:10:08Z</time>
      </trkpt>
      <trkpt lat="59.531251" lon="17.7730913">
        <ele>6.38586</ele>
        <time>2011-02-26T12:10:12Z</time>
      </trkpt>
      <trkpt lat="59.5313944" lon="17.7730023">
        <ele>4.94385</ele>
        <time>2011-02-26T12:10:16Z</time>
      </trkpt>
      <trkpt lat="59.5314946" lon="17.7728852">
        <ele>4.94385</ele>
        <time>2011-02-26T12:10:20Z</time>
      </trkpt>
      <trkpt lat="59.5315888" lon="17.7727007">
        <ele>4.46326</ele>
        <time>2011-02-26T12:10:25Z</time>
      </trkpt>
      <trkpt lat="59.5316662" lon="17.7725275">
        <ele>4.94385</ele>
        <time>2011-02-26T12:10:30Z</time>
      </trkpt>
      <trkpt lat="59.5317112" lon="17.7723936">
        <ele>5.42456</ele>
        <time>2011-02-26T12:10:35Z</time>
      </trkpt>
      <trkpt lat="59.531765" lon="17.7722193">
        <ele>5.90527</ele>
        <time>2011-02-26T12:10:41Z</time>
      </trkpt>
      <trkpt lat="59.5317974" lon="17.7720709">
        <ele>5.42456</ele>
        <time>2011-02-26T12:10:46Z</time>
      </trkpt>
      <trkpt lat="59.5318482" lon="17.7719331">
        <ele>6.38586</ele>
        <time>2011-02-26T12:10:53Z</time>
      </trkpt>
      <trkpt lat="59.5319095" lon="17.7717297">
        <ele>5.42456</ele>
        <time>2011-02-26T12:10:59Z</time>
      </trkpt>
      <trkpt lat="59.5319834" lon="17.771531">
        <ele>4.94385</ele>
        <time>2011-02-26T12:11:04Z</time>
      </trkpt>
      <trkpt lat="59.5320576" lon="17.7713623">
        <ele>3.02124</ele>
        <time>2011-02-26T12:11:09Z</time>
      </trkpt>
      <trkpt lat="59.5321104" lon="17.771186">
        <ele>1.57935</ele>
        <time>2011-02-26T12:11:14Z</time>
      </trkpt>
      <trkpt lat="59.5321519" lon="17.7710051">
        <ele>1.09863</ele>
        <time>2011-02-26T12:11:18Z</time>
      </trkpt>
      <trkpt lat="59.5321909" lon="17.7708084">
        <ele>2.54065</ele>
        <time>2011-02-26T12:11:22Z</time>
      </trkpt>
      <trkpt lat="59.5322522" lon="17.7705757">
        <ele>3.02124</ele>
        <time>2011-02-26T12:11:27Z</time>
      </trkpt>
      <trkpt lat="59.5323097" lon="17.7703891">
        <ele>3.50195</ele>
        <time>2011-02-26T12:11:31Z</time>
      </trkpt>
      <trkpt lat="59.5323224" lon="17.770351">
        <ele>3.50195</ele>
        <time>2011-02-26T12:11:32Z</time>
      </trkpt>
      <trkpt lat="59.5323596" lon="17.7702101">
        <ele>5.42456</ele>
        <time>2011-02-26T12:11:37Z</time>
      </trkpt>
      <trkpt lat="59.532372" lon="17.7701816">
        <ele>8.30859</ele>
        <time>2011-02-26T12:11:45Z</time>
      </trkpt>
      <trkpt lat="59.532383" lon="17.7700992">
        <ele>9.75061</ele>
        <time>2011-02-26T12:11:48Z</time>
      </trkpt>
      <trkpt lat="59.5323694" lon="17.7699635">
        <ele>10.7118</ele>
        <time>2011-02-26T12:11:53Z</time>
      </trkpt>
      <trkpt lat="59.5323462" lon="17.7699072">
        <ele>11.1925</ele>
        <time>2011-02-26T12:11:55Z</time>
      </trkpt>
      <trkpt lat="59.5322835" lon="17.769826">
        <ele>11.6732</ele>
        <time>2011-02-26T12:12:00Z</time>
      </trkpt>
      <trkpt lat="59.5322593" lon="17.7697983">
        <ele>11.6732</ele>
        <time>2011-02-26T12:12:02Z</time>
      </trkpt>
      <trkpt lat="59.5321307" lon="17.7697768">
        <ele>13.1151</ele>
        <time>2011-02-26T12:12:09Z</time>
      </trkpt>
      <trkpt lat="59.5320293" lon="17.7697869">
        <ele>13.1151</ele>
        <time>2011-02-26T12:12:14Z</time>
      </trkpt>
      <trkpt lat="59.5319152" lon="17.7697811">
        <ele>12.1538</ele>
        <time>2011-02-26T12:12:19Z</time>
      </trkpt>
      <trkpt lat="59.5317889" lon="17.7697216">
        <ele>13.1151</ele>
        <time>2011-02-26T12:12:24Z</time>
      </trkpt>
      <trkpt lat="59.5316627" lon="17.7696764">
        <ele>14.557</ele>
        <time>2011-02-26T12:12:29Z</time>
      </trkpt>
      <trkpt lat="59.5315251" lon="17.7696076">
        <ele>15.5184</ele>
        <time>2011-02-26T12:12:36Z</time>
      </trkpt>
      <trkpt lat="59.531391" lon="17.7695051">
        <ele>15.5184</ele>
        <time>2011-02-26T12:12:43Z</time>
      </trkpt>
      <trkpt lat="59.5312955" lon="17.7694641">
        <ele>15.999</ele>
        <time>2011-02-26T12:12:48Z</time>
      </trkpt>
      <trkpt lat="59.5312313" lon="17.7694739">
        <ele>16.9604</ele>
        <time>2011-02-26T12:12:51Z</time>
      </trkpt>
      <trkpt lat="59.531132" lon="17.7694564">
        <ele>19.8444</ele>
        <time>2011-02-26T12:12:55Z</time>
      </trkpt>
      <trkpt lat="59.5311009" lon="17.7694663">
        <ele>20.8057</ele>
        <time>2011-02-26T12:12:56Z</time>
      </trkpt>
      <trkpt lat="59.5309552" lon="17.7695443">
        <ele>23.209</ele>
        <time>2011-02-26T12:13:02Z</time>
      </trkpt>
      <trkpt lat="59.530845" lon="17.7696238">
        <ele>24.651</ele>
        <time>2011-02-26T12:13:07Z</time>
      </trkpt>
      <trkpt lat="59.5307424" lon="17.769561">
        <ele>25.6123</ele>
        <time>2011-02-26T12:13:13Z</time>
      </trkpt>
      <trkpt lat="59.5307206" lon="17.769519">
        <ele>25.6123</ele>
        <time>2011-02-26T12:13:16Z</time>
      </trkpt>
      <trkpt lat="59.5306715" lon="17.769399">
        <ele>25.6123</ele>
        <time>2011-02-26T12:13:21Z</time>
      </trkpt>
      <trkpt lat="59.5306103" lon="17.7692365">
        <ele>25.1317</ele>
        <time>2011-02-26T12:13:26Z</time>
      </trkpt>
      <trkpt lat="59.5305669" lon="17.7690781">
        <ele>24.651</ele>
        <time>2011-02-26T12:13:30Z</time>
      </trkpt>
      <trkpt lat="59.5305192" lon="17.7688483">
        <ele>25.1317</ele>
        <time>2011-02-26T12:13:35Z</time>
      </trkpt>
      <trkpt lat="59.530456" lon="17.7686893">
        <ele>25.1317</ele>
        <time>2011-02-26T12:13:39Z</time>
      </trkpt>
      <trkpt lat="59.5304048" lon="17.7686192">
        <ele>25.6123</ele>
        <time>2011-02-26T12:13:41Z</time>
      </trkpt>
      <trkpt lat="59.5303335" lon="17.7685172">
        <ele>25.6123</ele>
        <time>2011-02-26T12:13:45Z</time>
      </trkpt>
      <trkpt lat="59.5303172" lon="17.768497">
        <ele>25.6123</ele>
        <time>2011-02-26T12:13:46Z</time>
      </trkpt>
      <trkpt lat="59.5302031" lon="17.768406">
        <ele>25.6123</ele>
        <time>2011-02-26T12:13:51Z</time>
      </trkpt>
      <trkpt lat="59.5300478" lon="17.7682894">
        <ele>26.0929</ele>
        <time>2011-02-26T12:13:57Z</time>
      </trkpt>
      <trkpt lat="59.5299447" lon="17.7681211">
        <ele>26.0929</ele>
        <time>2011-02-26T12:14:02Z</time>
      </trkpt>
      <trkpt lat="59.5298529" lon="17.7680263">
        <ele>26.0929</ele>
        <time>2011-02-26T12:14:06Z</time>
      </trkpt>
      <trkpt lat="59.5297418" lon="17.767882">
        <ele>25.6123</ele>
        <time>2011-02-26T12:14:11Z</time>
      </trkpt>
      <trkpt lat="59.5296453" lon="17.7677863">
        <ele>23.6896</ele>
        <time>2011-02-26T12:14:15Z</time>
      </trkpt>
      <trkpt lat="59.5295228" lon="17.767681">
        <ele>21.767</ele>
        <time>2011-02-26T12:14:20Z</time>
      </trkpt>
      <trkpt lat="59.529481" lon="17.7676464">
        <ele>21.2864</ele>
        <time>2011-02-26T12:14:22Z</time>
      </trkpt>
      <trkpt lat="59.5292924" lon="17.7675693">
        <ele>22.2476</ele>
        <time>2011-02-26T12:14:29Z</time>
      </trkpt>
      <trkpt lat="59.5291356" lon="17.767547">
        <ele>22.7283</ele>
        <time>2011-02-26T12:14:33Z</time>
      </trkpt>
      <trkpt lat="59.5290978" lon="17.7675347">
        <ele>22.2476</ele>
        <time>2011-02-26T12:14:34Z</time>
      </trkpt>
      <trkpt lat="59.5289427" lon="17.7675144">
        <ele>21.2864</ele>
        <time>2011-02-26T12:14:39Z</time>
      </trkpt>
      <trkpt lat="59.5288367" lon="17.7675101">
        <ele>21.2864</ele>
        <time>2011-02-26T12:14:43Z</time>
      </trkpt>
      <trkpt lat="59.5288099" lon="17.7675118">
        <ele>21.2864</ele>
        <time>2011-02-26T12:14:44Z</time>
      </trkpt>
      <trkpt lat="59.5287163" lon="17.767485">
        <ele>22.7283</ele>
        <time>2011-02-26T12:14:48Z</time>
      </trkpt>
      <trkpt lat="59.5285963" lon="17.7673828">
        <ele>24.1703</ele>
        <time>2011-02-26T12:14:53Z</time>
      </trkpt>
      <trkpt lat="59.5285215" lon="17.7673601">
        <ele>25.1317</ele>
        <time>2011-02-26T12:14:56Z</time>
      </trkpt>
      <trkpt lat="59.5284039" lon="17.7672603">
        <ele>25.1317</ele>
        <time>2011-02-26T12:15:01Z</time>
      </trkpt>
      <trkpt lat="59.52832" lon="17.7671363">
        <ele>26.0929</ele>
        <time>2011-02-26T12:15:04Z</time>
      </trkpt>
      <trkpt lat="59.5282059" lon="17.7669973">
        <ele>26.5736</ele>
        <time>2011-02-26T12:15:08Z</time>
      </trkpt>
      <trkpt lat="59.5281058" lon="17.7668306">
        <ele>26.5736</ele>
        <time>2011-02-26T12:15:12Z</time>
      </trkpt>
      <trkpt lat="59.5280213" lon="17.7667752">
        <ele>26.5736</ele>
        <time>2011-02-26T12:15:15Z</time>
      </trkpt>
      <trkpt lat="59.5279757" lon="17.766763">
        <ele>25.6123</ele>
        <time>2011-02-26T12:15:17Z</time>
      </trkpt>
      <trkpt lat="59.5278922" lon="17.7667577">
        <ele>25.1317</ele>
        <time>2011-02-26T12:15:20Z</time>
      </trkpt>
      <trkpt lat="59.5277433" lon="17.7667093">
        <ele>24.1703</ele>
        <time>2011-02-26T12:15:25Z</time>
      </trkpt>
      <trkpt lat="59.5276308" lon="17.7666649">
        <ele>24.651</ele>
        <time>2011-02-26T12:15:29Z</time>
      </trkpt>
      <trkpt lat="59.5276029" lon="17.7666432">
        <ele>24.651</ele>
        <time>2011-02-26T12:15:30Z</time>
      </trkpt>
      <trkpt lat="59.5274862" lon="17.7665643">
        <ele>25.1317</ele>
        <time>2011-02-26T12:15:34Z</time>
      </trkpt>
      <trkpt lat="59.5273234" lon="17.7664942">
        <ele>26.0929</ele>
        <time>2011-02-26T12:15:40Z</time>
      </trkpt>
      <trkpt lat="59.5272138" lon="17.7665229">
        <ele>26.5736</ele>
        <time>2011-02-26T12:15:44Z</time>
      </trkpt>
      <trkpt lat="59.5270833" lon="17.7664958">
        <ele>26.0929</ele>
        <time>2011-02-26T12:15:48Z</time>
      </trkpt>
      <trkpt lat="59.526949" lon="17.7664862">
        <ele>25.1317</ele>
        <time>2011-02-26T12:15:53Z</time>
      </trkpt>
      <trkpt lat="59.5268113" lon="17.7664763">
        <ele>26.0929</ele>
        <time>2011-02-26T12:15:58Z</time>
      </trkpt>
      <trkpt lat="59.5267222" lon="17.7663802">
        <ele>27.0543</ele>
        <time>2011-02-26T12:16:02Z</time>
      </trkpt>
      <trkpt lat="59.5266994" lon="17.7661613">
        <ele>27.5349</ele>
        <time>2011-02-26T12:16:07Z</time>
      </trkpt>
      <trkpt lat="59.5267206" lon="17.7659266">
        <ele>27.5349</ele>
        <time>2011-02-26T12:16:11Z</time>
      </trkpt>
      <trkpt lat="59.5267487" lon="17.7656041">
        <ele>26.0929</ele>
        <time>2011-02-26T12:16:15Z</time>
      </trkpt>
      <trkpt lat="59.5267808" lon="17.765145">
        <ele>25.1317</ele>
        <time>2011-02-26T12:16:20Z</time>
      </trkpt>
      <trkpt lat="59.5269305" lon="17.7646777">
        <ele>24.651</ele>
        <time>2011-02-26T12:16:25Z</time>
      </trkpt>
      <trkpt lat="59.5271304" lon="17.7642663">
        <ele>25.6123</ele>
        <time>2011-02-26T12:16:30Z</time>
      </trkpt>
      <trkpt lat="59.527277" lon="17.7639966">
        <ele>26.5736</ele>
        <time>2011-02-26T12:16:34Z</time>
      </trkpt>
      <trkpt lat="59.5273762" lon="17.7634905">
        <ele>25.6123</ele>
        <time>2011-02-26T12:16:39Z</time>
      </trkpt>
      <trkpt lat="59.5274461" lon="17.7632022">
        <ele>24.1703</ele>
        <time>2011-02-26T12:16:42Z</time>
      </trkpt>
      <trkpt lat="59.5275806" lon="17.7626211">
        <ele>24.1703</ele>
        <time>2011-02-26T12:16:47Z</time>
      </trkpt>
      <trkpt lat="59.527642" lon="17.7621132">
        <ele>22.2476</ele>
        <time>2011-02-26T12:16:52Z</time>
      </trkpt>
      <trkpt lat="59.5276568" lon="17.761892">
        <ele>20.8057</ele>
        <time>2011-02-26T12:16:55Z</time>
      </trkpt>
      <trkpt lat="59.5276665" lon="17.7615733">
        <ele>19.3638</ele>
        <time>2011-02-26T12:17:00Z</time>
      </trkpt>
      <trkpt lat="59.5276746" lon="17.7612843">
        <ele>17.9218</ele>
        <time>2011-02-26T12:17:06Z</time>
      </trkpt>
      <trkpt lat="59.527605" lon="17.7611404">
        <ele>17.9218</ele>
        <time>2011-02-26T12:17:11Z</time>
      </trkpt>
      <trkpt lat="59.5274988" lon="17.7610269">
        <ele>18.4023</ele>
        <time>2011-02-26T12:17:16Z</time>
      </trkpt>
      <trkpt lat="59.5274125" lon="17.7609448">
        <ele>19.3638</ele>
        <time>2011-02-26T12:17:19Z</time>
      </trkpt>
      <trkpt lat="59.5273038" lon="17.7608741">
        <ele>19.8444</ele>
        <time>2011-02-26T12:17:23Z</time>
      </trkpt>
      <trkpt lat="59.5271765" lon="17.7608175">
        <ele>20.325</ele>
        <time>2011-02-26T12:17:29Z</time>
      </trkpt>
      <trkpt lat="59.5270723" lon="17.7607657">
        <ele>21.767</ele>
        <time>2011-02-26T12:17:34Z</time>
      </trkpt>
      <trkpt lat="59.5269735" lon="17.7606548">
        <ele>23.209</ele>
        <time>2011-02-26T12:17:39Z</time>
      </trkpt>
      <trkpt lat="59.5269024" lon="17.7605497">
        <ele>23.6896</ele>
        <time>2011-02-26T12:17:43Z</time>
      </trkpt>
      <trkpt lat="59.5268376" lon="17.7603586">
        <ele>24.1703</ele>
        <time>2011-02-26T12:17:48Z</time>
      </trkpt>
      <trkpt lat="59.5268256" lon="17.7603031">
        <ele>23.6896</ele>
        <time>2011-02-26T12:17:49Z</time>
      </trkpt>
      <trkpt lat="59.5267347" lon="17.7599613">
        <ele>24.1703</ele>
        <time>2011-02-26T12:17:54Z</time>
      </trkpt>
      <trkpt lat="59.5266693" lon="17.7596899">
        <ele>23.6896</ele>
        <time>2011-02-26T12:17:58Z</time>
      </trkpt>
      <trkpt lat="59.5266029" lon="17.759338">
        <ele>24.651</ele>
        <time>2011-02-26T12:18:03Z</time>
      </trkpt>
      <trkpt lat="59.5265703" lon="17.7590727">
        <ele>25.1317</ele>
        <time>2011-02-26T12:18:07Z</time>
      </trkpt>
      <trkpt lat="59.5265029" lon="17.7588259">
        <ele>25.6123</ele>
        <time>2011-02-26T12:18:12Z</time>
      </trkpt>
      <trkpt lat="59.5264104" lon="17.7587235">
        <ele>27.0543</ele>
        <time>2011-02-26T12:18:16Z</time>
      </trkpt>
      <trkpt lat="59.5262927" lon="17.7585977">
        <ele>28.4962</ele>
        <time>2011-02-26T12:18:22Z</time>
      </trkpt>
      <trkpt lat="59.5261394" lon="17.7584278">
        <ele>28.0155</ele>
        <time>2011-02-26T12:18:29Z</time>
      </trkpt>
      <trkpt lat="59.5260208" lon="17.7582621">
        <ele>28.9769</ele>
        <time>2011-02-26T12:18:35Z</time>
      </trkpt>
      <trkpt lat="59.5259119" lon="17.7581668">
        <ele>27.5349</ele>
        <time>2011-02-26T12:18:40Z</time>
      </trkpt>
      <trkpt lat="59.5258171" lon="17.7581047">
        <ele>27.5349</ele>
        <time>2011-02-26T12:18:44Z</time>
      </trkpt>
      <trkpt lat="59.525754" lon="17.7579937">
        <ele>26.5736</ele>
        <time>2011-02-26T12:18:47Z</time>
      </trkpt>
      <trkpt lat="59.5256596" lon="17.757682">
        <ele>25.1317</ele>
        <time>2011-02-26T12:18:53Z</time>
      </trkpt>
      <trkpt lat="59.5255661" lon="17.7574691">
        <ele>25.1317</ele>
        <time>2011-02-26T12:18:57Z</time>
      </trkpt>
      <trkpt lat="59.5254376" lon="17.7571408">
        <ele>24.1703</ele>
        <time>2011-02-26T12:19:02Z</time>
      </trkpt>
      <trkpt lat="59.5253988" lon="17.7567948">
        <ele>22.2476</ele>
        <time>2011-02-26T12:19:06Z</time>
      </trkpt>
      <trkpt lat="59.525255" lon="17.7565016">
        <ele>20.8057</ele>
        <time>2011-02-26T12:19:10Z</time>
      </trkpt>
      <trkpt lat="59.5252039" lon="17.7564989">
        <ele>20.325</ele>
        <time>2011-02-26T12:19:11Z</time>
      </trkpt>
      <trkpt lat="59.5250521" lon="17.7565186">
        <ele>18.8831</ele>
        <time>2011-02-26T12:19:14Z</time>
      </trkpt>
      <trkpt lat="59.5248851" lon="17.7566194">
        <ele>19.3638</ele>
        <time>2011-02-26T12:19:18Z</time>
      </trkpt>
      <trkpt lat="59.524661" lon="17.7567">
        <ele>21.2864</ele>
        <time>2011-02-26T12:19:23Z</time>
      </trkpt>
      <trkpt lat="59.5245309" lon="17.7568688">
        <ele>21.2864</ele>
        <time>2011-02-26T12:19:27Z</time>
      </trkpt>
      <trkpt lat="59.5244621" lon="17.7571439">
        <ele>23.6896</ele>
        <time>2011-02-26T12:19:33Z</time>
      </trkpt>
      <trkpt lat="59.5244471" lon="17.7573939">
        <ele>24.651</ele>
        <time>2011-02-26T12:19:37Z</time>
      </trkpt>
      <trkpt lat="59.5244455" lon="17.7575018">
        <ele>24.651</ele>
        <time>2011-02-26T12:19:39Z</time>
      </trkpt>
      <trkpt lat="59.5244341" lon="17.7579079">
        <ele>27.5349</ele>
        <time>2011-02-26T12:19:46Z</time>
      </trkpt>
      <trkpt lat="59.5244116" lon="17.7581103">
        <ele>30.4188</ele>
        <time>2011-02-26T12:19:50Z</time>
      </trkpt>
      <trkpt lat="59.5243817" lon="17.7582808">
        <ele>30.8995</ele>
        <time>2011-02-26T12:19:53Z</time>
      </trkpt>
      <trkpt lat="59.5243652" lon="17.7583786">
        <ele>31.3801</ele>
        <time>2011-02-26T12:19:55Z</time>
      </trkpt>
      <trkpt lat="59.5243279" lon="17.7586402">
        <ele>31.3801</ele>
        <time>2011-02-26T12:20:00Z</time>
      </trkpt>
      <trkpt lat="59.5242998" lon="17.758903">
        <ele>31.3801</ele>
        <time>2011-02-26T12:20:06Z</time>
      </trkpt>
      <trkpt lat="59.5242692" lon="17.7591369">
        <ele>31.3801</ele>
        <time>2011-02-26T12:20:10Z</time>
      </trkpt>
      <trkpt lat="59.5242413" lon="17.7595182">
        <ele>28.9769</ele>
        <time>2011-02-26T12:20:15Z</time>
      </trkpt>
      <trkpt lat="59.5242311" lon="17.7597442">
        <ele>27.5349</ele>
        <time>2011-02-26T12:20:19Z</time>
      </trkpt>
      <trkpt lat="59.524214" lon="17.7599287">
        <ele>27.5349</ele>
        <time>2011-02-26T12:20:23Z</time>
      </trkpt>
      <trkpt lat="59.5241787" lon="17.7601761">
        <ele>28.0155</ele>
        <time>2011-02-26T12:20:28Z</time>
      </trkpt>
      <trkpt lat="59.5241647" lon="17.7603803">
        <ele>28.0155</ele>
        <time>2011-02-26T12:20:33Z</time>
      </trkpt>
      <trkpt lat="59.524147" lon="17.7606668">
        <ele>29.4575</ele>
        <time>2011-02-26T12:20:39Z</time>
      </trkpt>
      <trkpt lat="59.5241471" lon="17.7609703">
        <ele>29.9381</ele>
        <time>2011-02-26T12:20:44Z</time>
      </trkpt>
      <trkpt lat="59.5241418" lon="17.7612189">
        <ele>32.3416</ele>
        <time>2011-02-26T12:20:48Z</time>
      </trkpt>
      <trkpt lat="59.5241187" lon="17.7615945">
        <ele>32.8223</ele>
        <time>2011-02-26T12:20:53Z</time>
      </trkpt>
      <trkpt lat="59.5241231" lon="17.7619445">
        <ele>30.4188</ele>
        <time>2011-02-26T12:20:58Z</time>
      </trkpt>
      <trkpt lat="59.5240892" lon="17.7621295">
        <ele>29.4575</ele>
        <time>2011-02-26T12:21:01Z</time>
      </trkpt>
      <trkpt lat="59.5239658" lon="17.7623059">
        <ele>24.651</ele>
        <time>2011-02-26T12:21:06Z</time>
      </trkpt>
      <trkpt lat="59.5239441" lon="17.7623746">
        <ele>24.1703</ele>
        <time>2011-02-26T12:21:07Z</time>
      </trkpt>
      <trkpt lat="59.5239803" lon="17.7627212">
        <ele>22.2476</ele>
        <time>2011-02-26T12:21:12Z</time>
      </trkpt>
      <trkpt lat="59.5240031" lon="17.763095">
        <ele>19.8444</ele>
        <time>2011-02-26T12:21:17Z</time>
      </trkpt>
      <trkpt lat="59.5240912" lon="17.7633957">
        <ele>19.8444</ele>
        <time>2011-02-26T12:21:23Z</time>
      </trkpt>
      <trkpt lat="59.5241223" lon="17.7634813">
        <ele>19.8444</ele>
        <time>2011-02-26T12:21:25Z</time>
      </trkpt>
      <trkpt lat="59.5242158" lon="17.7637056">
        <ele>22.7283</ele>
        <time>2011-02-26T12:21:31Z</time>
      </trkpt>
      <trkpt lat="59.5242469" lon="17.7638733">
        <ele>24.651</ele>
        <time>2011-02-26T12:21:34Z</time>
      </trkpt>
      <trkpt lat="59.524276" lon="17.7641991">
        <ele>25.6123</ele>
        <time>2011-02-26T12:21:40Z</time>
      </trkpt>
      <trkpt lat="59.5242963" lon="17.7643873">
        <ele>25.1317</ele>
        <time>2011-02-26T12:21:44Z</time>
      </trkpt>
      <trkpt lat="59.5243652" lon="17.7645939">
        <ele>25.6123</ele>
        <time>2011-02-26T12:21:48Z</time>
      </trkpt>
      <trkpt lat="59.5244269" lon="17.7647815">
        <ele>26.0929</ele>
        <time>2011-02-26T12:21:52Z</time>
      </trkpt>
      <trkpt lat="59.5244988" lon="17.7650813">
        <ele>26.5736</ele>
        <time>2011-02-26T12:21:57Z</time>
      </trkpt>
      <trkpt lat="59.5245637" lon="17.7653216">
        <ele>25.1317</ele>
        <time>2011-02-26T12:22:02Z</time>
      </trkpt>
      <trkpt lat="59.5245864" lon="17.7654004">
        <ele>27.5349</ele>
        <time>2011-02-26T12:22:04Z</time>
      </trkpt>
      <trkpt lat="59.5246449" lon="17.7655734">
        <ele>28.9769</ele>
        <time>2011-02-26T12:22:09Z</time>
      </trkpt>
      <trkpt lat="59.5247123" lon="17.765817">
        <ele>29.4575</ele>
        <time>2011-02-26T12:22:15Z</time>
      </trkpt>
      <trkpt lat="59.5247699" lon="17.7659888">
        <ele>29.4575</ele>
        <time>2011-02-26T12:22:19Z</time>
      </trkpt>
      <trkpt lat="59.5248237" lon="17.7661716">
        <ele>29.4575</ele>
        <time>2011-02-26T12:22:23Z</time>
      </trkpt>
      <trkpt lat="59.5248537" lon="17.7662582">
        <ele>29.4575</ele>
        <time>2011-02-26T12:22:25Z</time>
      </trkpt>
      <trkpt lat="59.5249159" lon="17.7664793">
        <ele>29.4575</ele>
        <time>2011-02-26T12:22:30Z</time>
      </trkpt>
      <trkpt lat="59.5250014" lon="17.7666804">
        <ele>28.9769</ele>
        <time>2011-02-26T12:22:35Z</time>
      </trkpt>
      <trkpt lat="59.5251025" lon="17.7668286">
        <ele>29.4575</ele>
        <time>2011-02-26T12:22:41Z</time>
      </trkpt>
      <trkpt lat="59.5252049" lon="17.7669553">
        <ele>31.3801</ele>
        <time>2011-02-26T12:22:47Z</time>
      </trkpt>
      <trkpt lat="59.5252601" lon="17.7670418">
        <ele>33.3029</ele>
        <time>2011-02-26T12:22:50Z</time>
      </trkpt>
      <trkpt lat="59.5253479" lon="17.7673942">
        <ele>35.2255</ele>
        <time>2011-02-26T12:22:57Z</time>
      </trkpt>
      <trkpt lat="59.5254044" lon="17.767634">
        <ele>35.2255</ele>
        <time>2011-02-26T12:23:02Z</time>
      </trkpt>
      <trkpt lat="59.5254784" lon="17.7679312">
        <ele>34.7449</ele>
        <time>2011-02-26T12:23:08Z</time>
      </trkpt>
      <trkpt lat="59.5255077" lon="17.7680562">
        <ele>35.2255</ele>
        <time>2011-02-26T12:23:10Z</time>
      </trkpt>
      <trkpt lat="59.5254301" lon="17.7683002">
        <ele>31.8607</ele>
        <time>2011-02-26T12:23:14Z</time>
      </trkpt>
      <trkpt lat="59.525338" lon="17.7684135">
        <ele>28.4962</ele>
        <time>2011-02-26T12:23:17Z</time>
      </trkpt>
      <trkpt lat="59.5252064" lon="17.7685591">
        <ele>26.5736</ele>
        <time>2011-02-26T12:23:20Z</time>
      </trkpt>
      <trkpt lat="59.5250999" lon="17.7688482">
        <ele>23.6896</ele>
        <time>2011-02-26T12:23:24Z</time>
      </trkpt>
      <trkpt lat="59.5250786" lon="17.7689487">
        <ele>22.7283</ele>
        <time>2011-02-26T12:23:25Z</time>
      </trkpt>
      <trkpt lat="59.5249769" lon="17.769363">
        <ele>22.2476</ele>
        <time>2011-02-26T12:23:29Z</time>
      </trkpt>
      <trkpt lat="59.5248998" lon="17.7699464">
        <ele>21.767</ele>
        <time>2011-02-26T12:23:34Z</time>
      </trkpt>
      <trkpt lat="59.5248763" lon="17.7701511">
        <ele>20.325</ele>
        <time>2011-02-26T12:23:36Z</time>
      </trkpt>
      <trkpt lat="59.5247777" lon="17.7704598">
        <ele>18.4023</ele>
        <time>2011-02-26T12:23:40Z</time>
      </trkpt>
      <trkpt lat="59.5245557" lon="17.7706333">
        <ele>11.6732</ele>
        <time>2011-02-26T12:23:45Z</time>
      </trkpt>
      <trkpt lat="59.5242236" lon="17.7706643">
        <ele>7.34717</ele>
        <time>2011-02-26T12:23:51Z</time>
      </trkpt>
      <trkpt lat="59.5240963" lon="17.7708253">
        <ele>6.38586</ele>
        <time>2011-02-26T12:23:54Z</time>
      </trkpt>
      <trkpt lat="59.5240416" lon="17.7709704">
        <ele>6.38586</ele>
        <time>2011-02-26T12:23:56Z</time>
      </trkpt>
      <trkpt lat="59.5240016" lon="17.7711328">
        <ele>6.38586</ele>
        <time>2011-02-26T12:23:58Z</time>
      </trkpt>
      <trkpt lat="59.5239649" lon="17.7714316">
        <ele>6.38586</ele>
        <time>2011-02-26T12:24:01Z</time>
      </trkpt>
      <trkpt lat="59.5239913" lon="17.7718589">
        <ele>6.86646</ele>
        <time>2011-02-26T12:24:06Z</time>
      </trkpt>
      <trkpt lat="59.5239611" lon="17.7721262">
        <ele>8.78918</ele>
        <time>2011-02-26T12:24:10Z</time>
      </trkpt>
      <trkpt lat="59.5237897" lon="17.7722407">
        <ele>11.6732</ele>
        <time>2011-02-26T12:24:14Z</time>
      </trkpt>
      <trkpt lat="59.5236152" lon="17.7723449">
        <ele>12.6344</ele>
        <time>2011-02-26T12:24:18Z</time>
      </trkpt>
      <trkpt lat="59.5234354" lon="17.77244">
        <ele>14.557</ele>
        <time>2011-02-26T12:24:22Z</time>
      </trkpt>
      <trkpt lat="59.5233954" lon="17.7724648">
        <ele>14.557</ele>
        <time>2011-02-26T12:24:23Z</time>
      </trkpt>
      <trkpt lat="59.5232344" lon="17.7725133">
        <ele>15.5184</ele>
        <time>2011-02-26T12:24:27Z</time>
      </trkpt>
      <trkpt lat="59.5230231" lon="17.7726295">
        <ele>14.557</ele>
        <time>2011-02-26T12:24:32Z</time>
      </trkpt>
      <trkpt lat="59.522911" lon="17.7727082">
        <ele>13.5958</ele>
        <time>2011-02-26T12:24:35Z</time>
      </trkpt>
      <trkpt lat="59.5227982" lon="17.772779">
        <ele>11.6732</ele>
        <time>2011-02-26T12:24:38Z</time>
      </trkpt>
      <trkpt lat="59.5226821" lon="17.7728618">
        <ele>10.7118</ele>
        <time>2011-02-26T12:24:41Z</time>
      </trkpt>
      <trkpt lat="59.5224991" lon="17.7729379">
        <ele>9.2699</ele>
        <time>2011-02-26T12:24:46Z</time>
      </trkpt>
      <trkpt lat="59.5224517" lon="17.7729588">
        <ele>9.2699</ele>
        <time>2011-02-26T12:24:47Z</time>
      </trkpt>
      <trkpt lat="59.5223103" lon="17.7730259">
        <ele>8.78918</ele>
        <time>2011-02-26T12:24:50Z</time>
      </trkpt>
      <trkpt lat="59.522102" lon="17.7732031">
        <ele>6.86646</ele>
        <time>2011-02-26T12:24:55Z</time>
      </trkpt>
      <trkpt lat="59.5220269" lon="17.7732637">
        <ele>6.86646</ele>
        <time>2011-02-26T12:24:57Z</time>
      </trkpt>
      <trkpt lat="59.5218824" lon="17.7733599">
        <ele>5.42456</ele>
        <time>2011-02-26T12:25:01Z</time>
      </trkpt>
      <trkpt lat="59.521712" lon="17.7734936">
        <ele>4.46326</ele>
        <time>2011-02-26T12:25:06Z</time>
      </trkpt>
      <trkpt lat="59.5215762" lon="17.7735928">
        <ele>4.46326</ele>
        <time>2011-02-26T12:25:10Z</time>
      </trkpt>
      <trkpt lat="59.5214453" lon="17.7736874">
        <ele>3.98267</ele>
        <time>2011-02-26T12:25:14Z</time>
      </trkpt>
      <trkpt lat="59.5213041" lon="17.7737668">
        <ele>3.50195</ele>
        <time>2011-02-26T12:25:18Z</time>
      </trkpt>
      <trkpt lat="59.5211768" lon="17.7738165">
        <ele>2.06006</ele>
        <time>2011-02-26T12:25:22Z</time>
      </trkpt>
      <trkpt lat="59.5210597" lon="17.7739401">
        <ele>1.57935</ele>
        <time>2011-02-26T12:25:26Z</time>
      </trkpt>
      <trkpt lat="59.5209355" lon="17.7740796">
        <ele>1.57935</ele>
        <time>2011-02-26T12:25:30Z</time>
      </trkpt>
      <trkpt lat="59.5208085" lon="17.7742552">
        <ele>1.57935</ele>
        <time>2011-02-26T12:25:34Z</time>
      </trkpt>
      <trkpt lat="59.520661" lon="17.7744329">
        <ele>1.09863</ele>
        <time>2011-02-26T12:25:38Z</time>
      </trkpt>
      <trkpt lat="59.5205898" lon="17.7744956">
        <ele>1.57935</ele>
        <time>2011-02-26T12:25:40Z</time>
      </trkpt>
      <trkpt lat="59.5204423" lon="17.7746504">
        <ele>2.54065</ele>
        <time>2011-02-26T12:25:45Z</time>
      </trkpt>
      <trkpt lat="59.5203051" lon="17.7748091">
        <ele>4.46326</ele>
        <time>2011-02-26T12:25:50Z</time>
      </trkpt>
      <trkpt lat="59.5201775" lon="17.7750363">
        <ele>2.06006</ele>
        <time>2011-02-26T12:25:55Z</time>
      </trkpt>
      <trkpt lat="59.5200362" lon="17.7751859">
        <ele>0</ele>
        <time>2011-02-26T12:26:00Z</time>
      </trkpt>
      <trkpt lat="59.5199145" lon="17.7753161">
        <ele>0</ele>
        <time>2011-02-26T12:26:05Z</time>
      </trkpt>
      <trkpt lat="59.519828" lon="17.7754011">
        <ele>0</ele>
        <time>2011-02-26T12:26:09Z</time>
      </trkpt>
      <trkpt lat="59.5196817" lon="17.7755772">
        <ele>0</ele>
        <time>2011-02-26T12:26:15Z</time>
      </trkpt>
      <trkpt lat="59.5195577" lon="17.7757486">
        <ele>0</ele>
        <time>2011-02-26T12:26:20Z</time>
      </trkpt>
      <trkpt lat="59.5194519" lon="17.7758948">
        <ele>0</ele>
        <time>2011-02-26T12:26:25Z</time>
      </trkpt>
      <trkpt lat="59.5193729" lon="17.7759926">
        <ele>0</ele>
        <time>2011-02-26T12:26:29Z</time>
      </trkpt>
      <trkpt lat="59.5192986" lon="17.7761313">
        <ele>0</ele>
        <time>2011-02-26T12:26:34Z</time>
      </trkpt>
      <trkpt lat="59.5192628" lon="17.7762071">
        <ele>0</ele>
        <time>2011-02-26T12:26:37Z</time>
      </trkpt>
      <trkpt lat="59.519195" lon="17.776237">
        <ele>0</ele>
        <time>2011-02-26T12:26:42Z</time>
      </trkpt>
      <trkpt lat="59.5191898" lon="17.7762397">
        <ele>0.137451</ele>
        <time>2011-02-26T12:26:43Z</time>
      </trkpt>
      <trkpt lat="59.5190743" lon="17.7762973">
        <ele>3.50195</ele>
        <time>2011-02-26T12:26:53Z</time>
      </trkpt>
      <trkpt lat="59.5189515" lon="17.7763175">
        <ele>5.42456</ele>
        <time>2011-02-26T12:27:00Z</time>
      </trkpt>
      <trkpt lat="59.5188182" lon="17.7762921">
        <ele>5.90527</ele>
        <time>2011-02-26T12:27:07Z</time>
      </trkpt>
      <trkpt lat="59.5187244" lon="17.7762934">
        <ele>6.38586</ele>
        <time>2011-02-26T12:27:12Z</time>
      </trkpt>
      <trkpt lat="59.5186617" lon="17.7762779">
        <ele>5.90527</ele>
        <time>2011-02-26T12:27:16Z</time>
      </trkpt>
      <trkpt lat="59.5185887" lon="17.7762465">
        <ele>4.46326</ele>
        <time>2011-02-26T12:27:21Z</time>
      </trkpt>
      <trkpt lat="59.518537" lon="17.7762129">
        <ele>3.98267</ele>
        <time>2011-02-26T12:27:24Z</time>
      </trkpt>
      <trkpt lat="59.5184628" lon="17.7761704">
        <ele>3.98267</ele>
        <time>2011-02-26T12:27:27Z</time>
      </trkpt>
      <trkpt lat="59.5183716" lon="17.776146">
        <ele>3.98267</ele>
        <time>2011-02-26T12:27:31Z</time>
      </trkpt>
      <trkpt lat="59.5183005" lon="17.7761052">
        <ele>4.94385</ele>
        <time>2011-02-26T12:27:34Z</time>
      </trkpt>
      <trkpt lat="59.5181631" lon="17.7759621">
        <ele>8.30859</ele>
        <time>2011-02-26T12:27:40Z</time>
      </trkpt>
      <trkpt lat="59.5181009" lon="17.7758223">
        <ele>11.6732</ele>
        <time>2011-02-26T12:27:45Z</time>
      </trkpt>
      <trkpt lat="59.5180696" lon="17.7757531">
        <ele>14.0764</ele>
        <time>2011-02-26T12:27:49Z</time>
      </trkpt>
      <trkpt lat="59.5180316" lon="17.7756931">
        <ele>14.557</ele>
        <time>2011-02-26T12:27:53Z</time>
      </trkpt>
      <trkpt lat="59.5179392" lon="17.7755527">
        <ele>15.0377</ele>
        <time>2011-02-26T12:27:58Z</time>
      </trkpt>
      <trkpt lat="59.5177724" lon="17.7753595">
        <ele>15.999</ele>
        <time>2011-02-26T12:28:02Z</time>
      </trkpt>
      <trkpt lat="59.5176378" lon="17.7751662">
        <ele>15.999</ele>
        <time>2011-02-26T12:28:07Z</time>
      </trkpt>
      <trkpt lat="59.5175628" lon="17.7748846">
        <ele>15.999</ele>
        <time>2011-02-26T12:28:12Z</time>
      </trkpt>
      <trkpt lat="59.5175421" lon="17.774618">
        <ele>15.999</ele>
        <time>2011-02-26T12:28:15Z</time>
      </trkpt>
      <trkpt lat="59.5175451" lon="17.7741675">
        <ele>15.999</ele>
        <time>2011-02-26T12:28:19Z</time>
      </trkpt>
      <trkpt lat="59.5175311" lon="17.7737232">
        <ele>12.1538</ele>
        <time>2011-02-26T12:28:23Z</time>
      </trkpt>
      <trkpt lat="59.5174954" lon="17.7732181">
        <ele>13.5958</ele>
        <time>2011-02-26T12:28:28Z</time>
      </trkpt>
      <trkpt lat="59.5174937" lon="17.773131">
        <ele>13.1151</ele>
        <time>2011-02-26T12:28:29Z</time>
      </trkpt>
      <trkpt lat="59.517542" lon="17.7727139">
        <ele>12.1538</ele>
        <time>2011-02-26T12:28:35Z</time>
      </trkpt>
      <trkpt lat="59.5175483" lon="17.7726587">
        <ele>12.1538</ele>
        <time>2011-02-26T12:28:36Z</time>
      </trkpt>
      <trkpt lat="59.5175498" lon="17.7723169">
        <ele>11.1925</ele>
        <time>2011-02-26T12:28:42Z</time>
      </trkpt>
      <trkpt lat="59.5175285" lon="17.7719624">
        <ele>11.1925</ele>
        <time>2011-02-26T12:28:48Z</time>
      </trkpt>
      <trkpt lat="59.5175004" lon="17.7716294">
        <ele>11.1925</ele>
        <time>2011-02-26T12:28:53Z</time>
      </trkpt>
      <trkpt lat="59.5175175" lon="17.771392">
        <ele>12.1538</ele>
        <time>2011-02-26T12:28:57Z</time>
      </trkpt>
      <trkpt lat="59.5175222" lon="17.7713414">
        <ele>12.6344</ele>
        <time>2011-02-26T12:28:58Z</time>
      </trkpt>
      <trkpt lat="59.5174994" lon="17.7710696">
        <ele>15.999</ele>
        <time>2011-02-26T12:29:04Z</time>
      </trkpt>
      <trkpt lat="59.5173689" lon="17.7707846">
        <ele>20.8057</ele>
        <time>2011-02-26T12:29:11Z</time>
      </trkpt>
      <trkpt lat="59.5172658" lon="17.7707219">
        <ele>21.767</ele>
        <time>2011-02-26T12:29:15Z</time>
      </trkpt>
      <trkpt lat="59.5171877" lon="17.7707163">
        <ele>21.767</ele>
        <time>2011-02-26T12:29:19Z</time>
      </trkpt>
      <trkpt lat="59.5171691" lon="17.770711">
        <ele>21.767</ele>
        <time>2011-02-26T12:29:20Z</time>
      </trkpt>
      <trkpt lat="59.5170762" lon="17.7706355">
        <ele>21.767</ele>
        <time>2011-02-26T12:29:25Z</time>
      </trkpt>
      <trkpt lat="59.5169504" lon="17.7705954">
        <ele>21.767</ele>
        <time>2011-02-26T12:29:30Z</time>
      </trkpt>
      <trkpt lat="59.5168754" lon="17.7705364">
        <ele>19.3638</ele>
        <time>2011-02-26T12:29:32Z</time>
      </trkpt>
    </trkseg>
  </trk>
</gpx>